<?xml version="1.0" encoding="UTF-8" standalone="no" ?>
<gpx xmlns="http://www.topografix.com/GPX/1/1" xmlns:xsi="http://www.w3.org/2001/XMLSchema-instance" xsi:schemaLocation="http://www.topografix.com/GPX/1/1 http://www.topografix.com/GPX/1/1/gpx.xsd" version="1.1" creator="VisuGPX - https://www.visugpx.com">
  <metadata>
    <name>Pic de Bentaillole</name>
    <desc><![CDATA[ Boucle à ski de rando au départ de la station de Mijanes . Itinéaire par le Pic du Ginesta , Pic de Bentaillole et retour au parking par la Jasse du Counc.]]></desc>
  </metadata>
  <trk>
    <name><![CDATA[Mijanes Bentaillole]]></name>
    <trkseg>
      <trkpt lat="42.72892" lon="2.02012">
        <ele>1518.54</ele>
        <time>2017-02-11T07:47:30Z</time>
      </trkpt>
      <trkpt lat="42.7289" lon="2.02011">
        <ele>1518.54</ele>
        <time>2017-02-11T07:47:48Z</time>
      </trkpt>
      <trkpt lat="42.72892" lon="2.0201">
        <ele>1516.62</ele>
        <time>2017-02-11T07:48:07Z</time>
      </trkpt>
      <trkpt lat="42.7289" lon="2.02012">
        <ele>1520.46</ele>
        <time>2017-02-11T07:48:21Z</time>
      </trkpt>
      <trkpt lat="42.7289" lon="2.02012">
        <ele>1518.54</ele>
        <time>2017-02-11T07:48:46Z</time>
      </trkpt>
      <trkpt lat="42.72889" lon="2.02011">
        <ele>1519.98</ele>
        <time>2017-02-11T07:49:27Z</time>
      </trkpt>
      <trkpt lat="42.72889" lon="2.02013">
        <ele>1522.39</ele>
        <time>2017-02-11T07:49:58Z</time>
      </trkpt>
      <trkpt lat="42.72889" lon="2.02011">
        <ele>1519.02</ele>
        <time>2017-02-11T07:50:08Z</time>
      </trkpt>
      <trkpt lat="42.72893" lon="2.02011">
        <ele>1516.14</ele>
        <time>2017-02-11T07:50:27Z</time>
      </trkpt>
      <trkpt lat="42.72893" lon="2.02012">
        <ele>1517.1</ele>
        <time>2017-02-11T07:50:54Z</time>
      </trkpt>
      <trkpt lat="42.72891" lon="2.02012">
        <ele>1515.18</ele>
        <time>2017-02-11T07:51:12Z</time>
      </trkpt>
      <trkpt lat="42.72891" lon="2.0201">
        <ele>1515.66</ele>
        <time>2017-02-11T07:51:41Z</time>
      </trkpt>
      <trkpt lat="42.72892" lon="2.02012">
        <ele>1517.1</ele>
        <time>2017-02-11T07:51:55Z</time>
      </trkpt>
      <trkpt lat="42.72893" lon="2.02011">
        <ele>1519.5</ele>
        <time>2017-02-11T07:52:15Z</time>
      </trkpt>
      <trkpt lat="42.72891" lon="2.02009">
        <ele>1521.42</ele>
        <time>2017-02-11T07:52:37Z</time>
      </trkpt>
      <trkpt lat="42.7289" lon="2.0201">
        <ele>1522.87</ele>
        <time>2017-02-11T07:53:04Z</time>
      </trkpt>
      <trkpt lat="42.72892" lon="2.02008">
        <ele>1522.87</ele>
        <time>2017-02-11T07:53:25Z</time>
      </trkpt>
      <trkpt lat="42.72892" lon="2.02009">
        <ele>1519.98</ele>
        <time>2017-02-11T07:53:39Z</time>
      </trkpt>
      <trkpt lat="42.72891" lon="2.02011">
        <ele>1517.58</ele>
        <time>2017-02-11T07:54:02Z</time>
      </trkpt>
      <trkpt lat="42.72892" lon="2.02009">
        <ele>1514.69</ele>
        <time>2017-02-11T07:54:23Z</time>
      </trkpt>
      <trkpt lat="42.72892" lon="2.02013">
        <ele>1517.1</ele>
        <time>2017-02-11T07:54:41Z</time>
      </trkpt>
      <trkpt lat="42.72892" lon="2.02013">
        <ele>1517.58</ele>
        <time>2017-02-11T07:55:02Z</time>
      </trkpt>
      <trkpt lat="42.72891" lon="2.02011">
        <ele>1518.54</ele>
        <time>2017-02-11T07:55:24Z</time>
      </trkpt>
      <trkpt lat="42.72891" lon="2.0201">
        <ele>1519.5</ele>
        <time>2017-02-11T07:55:40Z</time>
      </trkpt>
      <trkpt lat="42.72887" lon="2.02009">
        <ele>1521.9</ele>
        <time>2017-02-11T07:56:05Z</time>
      </trkpt>
      <trkpt lat="42.72887" lon="2.0201">
        <ele>1522.39</ele>
        <time>2017-02-11T07:56:29Z</time>
      </trkpt>
      <trkpt lat="42.72893" lon="2.02011">
        <ele>1523.35</ele>
        <time>2017-02-11T07:56:49Z</time>
      </trkpt>
      <trkpt lat="42.72888" lon="2.02012">
        <ele>1523.83</ele>
        <time>2017-02-11T07:57:06Z</time>
      </trkpt>
      <trkpt lat="42.72888" lon="2.02014">
        <ele>1524.31</ele>
        <time>2017-02-11T07:57:25Z</time>
      </trkpt>
      <trkpt lat="42.72889" lon="2.02016">
        <ele>1522.87</ele>
        <time>2017-02-11T07:57:45Z</time>
      </trkpt>
      <trkpt lat="42.72889" lon="2.02017">
        <ele>1522.87</ele>
        <time>2017-02-11T07:58:09Z</time>
      </trkpt>
      <trkpt lat="42.72885" lon="2.02016">
        <ele>1524.79</ele>
        <time>2017-02-11T07:58:33Z</time>
      </trkpt>
      <trkpt lat="42.72887" lon="2.02017">
        <ele>1524.31</ele>
        <time>2017-02-11T07:58:50Z</time>
      </trkpt>
      <trkpt lat="42.72889" lon="2.02018">
        <ele>1522.39</ele>
        <time>2017-02-11T07:59:10Z</time>
      </trkpt>
      <trkpt lat="42.72892" lon="2.02011">
        <ele>1517.1</ele>
        <time>2017-02-11T07:59:26Z</time>
      </trkpt>
      <trkpt lat="42.72892" lon="2.02009">
        <ele>1515.18</ele>
        <time>2017-02-11T07:59:47Z</time>
      </trkpt>
      <trkpt lat="42.72891" lon="2.02011">
        <ele>1515.18</ele>
        <time>2017-02-11T08:00:09Z</time>
      </trkpt>
      <trkpt lat="42.72888" lon="2.02011">
        <ele>1516.62</ele>
        <time>2017-02-11T08:00:30Z</time>
      </trkpt>
      <trkpt lat="42.7289" lon="2.02008">
        <ele>1514.69</ele>
        <time>2017-02-11T08:00:52Z</time>
      </trkpt>
      <trkpt lat="42.72894" lon="2.02009">
        <ele>1514.21</ele>
        <time>2017-02-11T08:01:17Z</time>
      </trkpt>
      <trkpt lat="42.72896" lon="2.02009">
        <ele>1516.14</ele>
        <time>2017-02-11T08:01:46Z</time>
      </trkpt>
      <trkpt lat="42.72895" lon="2.0201">
        <ele>1512.77</ele>
        <time>2017-02-11T08:02:18Z</time>
      </trkpt>
      <trkpt lat="42.72891" lon="2.02015">
        <ele>1515.66</ele>
        <time>2017-02-11T08:02:41Z</time>
      </trkpt>
      <trkpt lat="42.72894" lon="2.02014">
        <ele>1518.54</ele>
        <time>2017-02-11T08:02:58Z</time>
      </trkpt>
      <trkpt lat="42.72893" lon="2.02013">
        <ele>1517.58</ele>
        <time>2017-02-11T08:03:19Z</time>
      </trkpt>
      <trkpt lat="42.72892" lon="2.02012">
        <ele>1518.54</ele>
        <time>2017-02-11T08:03:35Z</time>
      </trkpt>
      <trkpt lat="42.72892" lon="2.02009">
        <ele>1517.1</ele>
        <time>2017-02-11T08:04:02Z</time>
      </trkpt>
      <trkpt lat="42.72892" lon="2.02011">
        <ele>1519.02</ele>
        <time>2017-02-11T08:04:25Z</time>
      </trkpt>
      <trkpt lat="42.72893" lon="2.02011">
        <ele>1519.5</ele>
        <time>2017-02-11T08:04:44Z</time>
      </trkpt>
      <trkpt lat="42.72892" lon="2.02011">
        <ele>1518.06</ele>
        <time>2017-02-11T08:04:59Z</time>
      </trkpt>
      <trkpt lat="42.72894" lon="2.02012">
        <ele>1521.42</ele>
        <time>2017-02-11T08:05:25Z</time>
      </trkpt>
      <trkpt lat="42.72892" lon="2.02012">
        <ele>1521.42</ele>
        <time>2017-02-11T08:05:52Z</time>
      </trkpt>
      <trkpt lat="42.72894" lon="2.02014">
        <ele>1521.9</ele>
        <time>2017-02-11T08:06:28Z</time>
      </trkpt>
      <trkpt lat="42.72893" lon="2.02015">
        <ele>1521.42</ele>
        <time>2017-02-11T08:07:16Z</time>
      </trkpt>
      <trkpt lat="42.72894" lon="2.02013">
        <ele>1522.39</ele>
        <time>2017-02-11T08:07:41Z</time>
      </trkpt>
      <trkpt lat="42.72892" lon="2.02013">
        <ele>1524.79</ele>
        <time>2017-02-11T08:07:58Z</time>
      </trkpt>
      <trkpt lat="42.72892" lon="2.02011">
        <ele>1524.79</ele>
        <time>2017-02-11T08:08:08Z</time>
      </trkpt>
      <trkpt lat="42.72893" lon="2.0201">
        <ele>1522.39</ele>
        <time>2017-02-11T08:08:24Z</time>
      </trkpt>
      <trkpt lat="42.72893" lon="2.02011">
        <ele>1524.31</ele>
        <time>2017-02-11T08:08:45Z</time>
      </trkpt>
      <trkpt lat="42.72892" lon="2.02012">
        <ele>1526.71</ele>
        <time>2017-02-11T08:09:07Z</time>
      </trkpt>
      <trkpt lat="42.72894" lon="2.0201">
        <ele>1525.27</ele>
        <time>2017-02-11T08:09:22Z</time>
      </trkpt>
      <trkpt lat="42.72896" lon="2.02009">
        <ele>1521.9</ele>
        <time>2017-02-11T08:09:43Z</time>
      </trkpt>
      <trkpt lat="42.72898" lon="2.02016">
        <ele>1523.83</ele>
        <time>2017-02-11T08:09:53Z</time>
      </trkpt>
      <trkpt lat="42.72902" lon="2.02016">
        <ele>1524.31</ele>
        <time>2017-02-11T08:10:03Z</time>
      </trkpt>
      <trkpt lat="42.72904" lon="2.02019">
        <ele>1525.75</ele>
        <time>2017-02-11T08:10:16Z</time>
      </trkpt>
      <trkpt lat="42.72904" lon="2.0202">
        <ele>1524.79</ele>
        <time>2017-02-11T08:10:32Z</time>
      </trkpt>
      <trkpt lat="42.72904" lon="2.02019">
        <ele>1526.23</ele>
        <time>2017-02-11T08:10:53Z</time>
      </trkpt>
      <trkpt lat="42.72903" lon="2.02019">
        <ele>1527.67</ele>
        <time>2017-02-11T08:11:07Z</time>
      </trkpt>
      <trkpt lat="42.72901" lon="2.02018">
        <ele>1526.71</ele>
        <time>2017-02-11T08:11:25Z</time>
      </trkpt>
      <trkpt lat="42.72901" lon="2.02017">
        <ele>1527.67</ele>
        <time>2017-02-11T08:11:49Z</time>
      </trkpt>
      <trkpt lat="42.72904" lon="2.02021">
        <ele>1527.19</ele>
        <time>2017-02-11T08:12:13Z</time>
      </trkpt>
      <trkpt lat="42.72903" lon="2.02019">
        <ele>1525.75</ele>
        <time>2017-02-11T08:12:35Z</time>
      </trkpt>
      <trkpt lat="42.72906" lon="2.02025">
        <ele>1526.23</ele>
        <time>2017-02-11T08:12:48Z</time>
      </trkpt>
      <trkpt lat="42.72912" lon="2.02033">
        <ele>1525.75</ele>
        <time>2017-02-11T08:13:01Z</time>
      </trkpt>
      <trkpt lat="42.72917" lon="2.02045">
        <ele>1525.75</ele>
        <time>2017-02-11T08:13:15Z</time>
      </trkpt>
      <trkpt lat="42.72923" lon="2.02057">
        <ele>1525.27</ele>
        <time>2017-02-11T08:13:25Z</time>
      </trkpt>
      <trkpt lat="42.72926" lon="2.02068">
        <ele>1525.75</ele>
        <time>2017-02-11T08:13:37Z</time>
      </trkpt>
      <trkpt lat="42.7293" lon="2.02075">
        <ele>1523.83</ele>
        <time>2017-02-11T08:13:49Z</time>
      </trkpt>
      <trkpt lat="42.72933" lon="2.02086">
        <ele>1525.75</ele>
        <time>2017-02-11T08:14:04Z</time>
      </trkpt>
      <trkpt lat="42.72935" lon="2.02092">
        <ele>1526.71</ele>
        <time>2017-02-11T08:14:16Z</time>
      </trkpt>
      <trkpt lat="42.72936" lon="2.02099">
        <ele>1527.19</ele>
        <time>2017-02-11T08:14:28Z</time>
      </trkpt>
      <trkpt lat="42.72936" lon="2.02106">
        <ele>1529.59</ele>
        <time>2017-02-11T08:14:42Z</time>
      </trkpt>
      <trkpt lat="42.72937" lon="2.02111">
        <ele>1530.56</ele>
        <time>2017-02-11T08:14:56Z</time>
      </trkpt>
      <trkpt lat="42.72939" lon="2.02118">
        <ele>1530.56</ele>
        <time>2017-02-11T08:15:12Z</time>
      </trkpt>
      <trkpt lat="42.72943" lon="2.02125">
        <ele>1531.52</ele>
        <time>2017-02-11T08:15:26Z</time>
      </trkpt>
      <trkpt lat="42.72945" lon="2.0213">
        <ele>1532.48</ele>
        <time>2017-02-11T08:15:36Z</time>
      </trkpt>
      <trkpt lat="42.72949" lon="2.02136">
        <ele>1534.88</ele>
        <time>2017-02-11T08:15:51Z</time>
      </trkpt>
      <trkpt lat="42.72952" lon="2.02142">
        <ele>1534.88</ele>
        <time>2017-02-11T08:15:58Z</time>
      </trkpt>
      <trkpt lat="42.72955" lon="2.02151">
        <ele>1538.25</ele>
        <time>2017-02-11T08:16:10Z</time>
      </trkpt>
      <trkpt lat="42.72954" lon="2.02161">
        <ele>1539.69</ele>
        <time>2017-02-11T08:16:21Z</time>
      </trkpt>
      <trkpt lat="42.72957" lon="2.02158">
        <ele>1542.09</ele>
        <time>2017-02-11T08:16:32Z</time>
      </trkpt>
      <trkpt lat="42.72962" lon="2.02155">
        <ele>1547.38</ele>
        <time>2017-02-11T08:16:50Z</time>
      </trkpt>
      <trkpt lat="42.72968" lon="2.02154">
        <ele>1547.86</ele>
        <time>2017-02-11T08:17:07Z</time>
      </trkpt>
      <trkpt lat="42.72971" lon="2.02155">
        <ele>1549.3</ele>
        <time>2017-02-11T08:17:21Z</time>
      </trkpt>
      <trkpt lat="42.72972" lon="2.02164">
        <ele>1551.71</ele>
        <time>2017-02-11T08:17:33Z</time>
      </trkpt>
      <trkpt lat="42.72975" lon="2.02169">
        <ele>1557.47</ele>
        <time>2017-02-11T08:17:46Z</time>
      </trkpt>
      <trkpt lat="42.72982" lon="2.02168">
        <ele>1558.92</ele>
        <time>2017-02-11T08:17:57Z</time>
      </trkpt>
      <trkpt lat="42.72991" lon="2.02166">
        <ele>1560.36</ele>
        <time>2017-02-11T08:18:13Z</time>
      </trkpt>
      <trkpt lat="42.72999" lon="2.02167">
        <ele>1561.8</ele>
        <time>2017-02-11T08:18:26Z</time>
      </trkpt>
      <trkpt lat="42.73005" lon="2.02167">
        <ele>1562.28</ele>
        <time>2017-02-11T08:18:41Z</time>
      </trkpt>
      <trkpt lat="42.73009" lon="2.02166">
        <ele>1564.68</ele>
        <time>2017-02-11T08:18:52Z</time>
      </trkpt>
      <trkpt lat="42.73016" lon="2.02166">
        <ele>1564.2</ele>
        <time>2017-02-11T08:19:02Z</time>
      </trkpt>
      <trkpt lat="42.73021" lon="2.02166">
        <ele>1567.09</ele>
        <time>2017-02-11T08:19:16Z</time>
      </trkpt>
      <trkpt lat="42.73027" lon="2.02166">
        <ele>1569.97</ele>
        <time>2017-02-11T08:19:28Z</time>
      </trkpt>
      <trkpt lat="42.73031" lon="2.02168">
        <ele>1571.89</ele>
        <time>2017-02-11T08:19:42Z</time>
      </trkpt>
      <trkpt lat="42.73033" lon="2.02167">
        <ele>1574.3</ele>
        <time>2017-02-11T08:19:53Z</time>
      </trkpt>
      <trkpt lat="42.73036" lon="2.02169">
        <ele>1576.22</ele>
        <time>2017-02-11T08:20:06Z</time>
      </trkpt>
      <trkpt lat="42.73041" lon="2.02171">
        <ele>1579.58</ele>
        <time>2017-02-11T08:20:18Z</time>
      </trkpt>
      <trkpt lat="42.7304" lon="2.02172">
        <ele>1582.47</ele>
        <time>2017-02-11T08:20:33Z</time>
      </trkpt>
      <trkpt lat="42.73034" lon="2.02181">
        <ele>1587.75</ele>
        <time>2017-02-11T08:21:07Z</time>
      </trkpt>
      <trkpt lat="42.73034" lon="2.02181">
        <ele>1590.16</ele>
        <time>2017-02-11T08:21:29Z</time>
      </trkpt>
      <trkpt lat="42.7303" lon="2.02186">
        <ele>1591.12</ele>
        <time>2017-02-11T08:21:51Z</time>
      </trkpt>
      <trkpt lat="42.73035" lon="2.02185">
        <ele>1591.6</ele>
        <time>2017-02-11T08:22:07Z</time>
      </trkpt>
      <trkpt lat="42.73038" lon="2.02185">
        <ele>1591.12</ele>
        <time>2017-02-11T08:22:30Z</time>
      </trkpt>
      <trkpt lat="42.73042" lon="2.02184">
        <ele>1589.68</ele>
        <time>2017-02-11T08:22:48Z</time>
      </trkpt>
      <trkpt lat="42.73046" lon="2.02181">
        <ele>1593.04</ele>
        <time>2017-02-11T08:23:00Z</time>
      </trkpt>
      <trkpt lat="42.73052" lon="2.02181">
        <ele>1594.48</ele>
        <time>2017-02-11T08:23:12Z</time>
      </trkpt>
      <trkpt lat="42.7306" lon="2.02178">
        <ele>1595.93</ele>
        <time>2017-02-11T08:23:27Z</time>
      </trkpt>
      <trkpt lat="42.73067" lon="2.02174">
        <ele>1595.45</ele>
        <time>2017-02-11T08:23:40Z</time>
      </trkpt>
      <trkpt lat="42.73073" lon="2.02172">
        <ele>1595.93</ele>
        <time>2017-02-11T08:23:54Z</time>
      </trkpt>
      <trkpt lat="42.73077" lon="2.02169">
        <ele>1596.41</ele>
        <time>2017-02-11T08:24:06Z</time>
      </trkpt>
      <trkpt lat="42.73085" lon="2.02165">
        <ele>1599.29</ele>
        <time>2017-02-11T08:24:19Z</time>
      </trkpt>
      <trkpt lat="42.73091" lon="2.02163">
        <ele>1601.21</ele>
        <time>2017-02-11T08:24:31Z</time>
      </trkpt>
      <trkpt lat="42.73097" lon="2.0216">
        <ele>1603.14</ele>
        <time>2017-02-11T08:24:44Z</time>
      </trkpt>
      <trkpt lat="42.73107" lon="2.02157">
        <ele>1607.46</ele>
        <time>2017-02-11T08:24:59Z</time>
      </trkpt>
      <trkpt lat="42.73119" lon="2.02154">
        <ele>1610.35</ele>
        <time>2017-02-11T08:25:13Z</time>
      </trkpt>
      <trkpt lat="42.73127" lon="2.02153">
        <ele>1612.27</ele>
        <time>2017-02-11T08:25:26Z</time>
      </trkpt>
      <trkpt lat="42.73135" lon="2.02151">
        <ele>1612.27</ele>
        <time>2017-02-11T08:25:42Z</time>
      </trkpt>
      <trkpt lat="42.73139" lon="2.0215">
        <ele>1611.79</ele>
        <time>2017-02-11T08:25:59Z</time>
      </trkpt>
      <trkpt lat="42.73139" lon="2.0215">
        <ele>1611.79</ele>
        <time>2017-02-11T08:26:00Z</time>
      </trkpt>
      <trkpt lat="42.73147" lon="2.02145">
        <ele>1610.83</ele>
        <time>2017-02-11T08:26:12Z</time>
      </trkpt>
      <trkpt lat="42.73151" lon="2.02144">
        <ele>1613.23</ele>
        <time>2017-02-11T08:26:24Z</time>
      </trkpt>
      <trkpt lat="42.73154" lon="2.02145">
        <ele>1613.23</ele>
        <time>2017-02-11T08:26:36Z</time>
      </trkpt>
      <trkpt lat="42.73154" lon="2.02146">
        <ele>1609.86</ele>
        <time>2017-02-11T08:26:51Z</time>
      </trkpt>
      <trkpt lat="42.73164" lon="2.02151">
        <ele>1609.86</ele>
        <time>2017-02-11T08:27:25Z</time>
      </trkpt>
      <trkpt lat="42.73157" lon="2.02152">
        <ele>1609.86</ele>
        <time>2017-02-11T08:28:03Z</time>
      </trkpt>
      <trkpt lat="42.73155" lon="2.02147">
        <ele>1610.35</ele>
        <time>2017-02-11T08:28:38Z</time>
      </trkpt>
      <trkpt lat="42.73155" lon="2.02146">
        <ele>1610.35</ele>
        <time>2017-02-11T08:29:05Z</time>
      </trkpt>
      <trkpt lat="42.73153" lon="2.0215">
        <ele>1613.23</ele>
        <time>2017-02-11T08:29:30Z</time>
      </trkpt>
      <trkpt lat="42.73153" lon="2.02148">
        <ele>1610.83</ele>
        <time>2017-02-11T08:29:49Z</time>
      </trkpt>
      <trkpt lat="42.73161" lon="2.0215">
        <ele>1612.27</ele>
        <time>2017-02-11T08:30:03Z</time>
      </trkpt>
      <trkpt lat="42.73167" lon="2.02148">
        <ele>1613.71</ele>
        <time>2017-02-11T08:30:15Z</time>
      </trkpt>
      <trkpt lat="42.73174" lon="2.02147">
        <ele>1613.23</ele>
        <time>2017-02-11T08:30:28Z</time>
      </trkpt>
      <trkpt lat="42.73176" lon="2.02147">
        <ele>1613.23</ele>
        <time>2017-02-11T08:30:39Z</time>
      </trkpt>
      <trkpt lat="42.7318" lon="2.02145">
        <ele>1617.56</ele>
        <time>2017-02-11T08:30:58Z</time>
      </trkpt>
      <trkpt lat="42.73188" lon="2.0214">
        <ele>1621.4</ele>
        <time>2017-02-11T08:31:16Z</time>
      </trkpt>
      <trkpt lat="42.73196" lon="2.02136">
        <ele>1622.84</ele>
        <time>2017-02-11T08:31:31Z</time>
      </trkpt>
      <trkpt lat="42.73205" lon="2.02134">
        <ele>1623.32</ele>
        <time>2017-02-11T08:31:50Z</time>
      </trkpt>
      <trkpt lat="42.73214" lon="2.02132">
        <ele>1624.28</ele>
        <time>2017-02-11T08:32:04Z</time>
      </trkpt>
      <trkpt lat="42.73223" lon="2.0213">
        <ele>1624.28</ele>
        <time>2017-02-11T08:32:18Z</time>
      </trkpt>
      <trkpt lat="42.73232" lon="2.02132">
        <ele>1626.69</ele>
        <time>2017-02-11T08:32:40Z</time>
      </trkpt>
      <trkpt lat="42.73241" lon="2.02133">
        <ele>1630.05</ele>
        <time>2017-02-11T08:32:58Z</time>
      </trkpt>
      <trkpt lat="42.73248" lon="2.02132">
        <ele>1634.38</ele>
        <time>2017-02-11T08:33:12Z</time>
      </trkpt>
      <trkpt lat="42.73256" lon="2.0213">
        <ele>1636.78</ele>
        <time>2017-02-11T08:33:24Z</time>
      </trkpt>
      <trkpt lat="42.73262" lon="2.02131">
        <ele>1636.78</ele>
        <time>2017-02-11T08:33:39Z</time>
      </trkpt>
      <trkpt lat="42.73269" lon="2.0213">
        <ele>1637.74</ele>
        <time>2017-02-11T08:33:52Z</time>
      </trkpt>
      <trkpt lat="42.73274" lon="2.0213">
        <ele>1638.22</ele>
        <time>2017-02-11T08:34:06Z</time>
      </trkpt>
      <trkpt lat="42.73283" lon="2.02128">
        <ele>1640.63</ele>
        <time>2017-02-11T08:34:20Z</time>
      </trkpt>
      <trkpt lat="42.73288" lon="2.02128">
        <ele>1643.51</ele>
        <time>2017-02-11T08:34:34Z</time>
      </trkpt>
      <trkpt lat="42.73295" lon="2.02126">
        <ele>1644.47</ele>
        <time>2017-02-11T08:34:46Z</time>
      </trkpt>
      <trkpt lat="42.73303" lon="2.02125">
        <ele>1646.4</ele>
        <time>2017-02-11T08:35:04Z</time>
      </trkpt>
      <trkpt lat="42.7331" lon="2.02125">
        <ele>1648.8</ele>
        <time>2017-02-11T08:35:18Z</time>
      </trkpt>
      <trkpt lat="42.73316" lon="2.02123">
        <ele>1649.28</ele>
        <time>2017-02-11T08:35:30Z</time>
      </trkpt>
      <trkpt lat="42.73322" lon="2.02122">
        <ele>1652.16</ele>
        <time>2017-02-11T08:35:43Z</time>
      </trkpt>
      <trkpt lat="42.73326" lon="2.0212">
        <ele>1654.09</ele>
        <time>2017-02-11T08:35:56Z</time>
      </trkpt>
      <trkpt lat="42.73332" lon="2.02118">
        <ele>1655.53</ele>
        <time>2017-02-11T08:36:11Z</time>
      </trkpt>
      <trkpt lat="42.73337" lon="2.02119">
        <ele>1658.89</ele>
        <time>2017-02-11T08:36:22Z</time>
      </trkpt>
      <trkpt lat="42.73342" lon="2.0212">
        <ele>1659.37</ele>
        <time>2017-02-11T08:36:33Z</time>
      </trkpt>
      <trkpt lat="42.73346" lon="2.0212">
        <ele>1660.33</ele>
        <time>2017-02-11T08:36:45Z</time>
      </trkpt>
      <trkpt lat="42.73353" lon="2.02118">
        <ele>1661.3</ele>
        <time>2017-02-11T08:37:00Z</time>
      </trkpt>
      <trkpt lat="42.73358" lon="2.02117">
        <ele>1662.74</ele>
        <time>2017-02-11T08:37:12Z</time>
      </trkpt>
      <trkpt lat="42.73361" lon="2.02116">
        <ele>1663.7</ele>
        <time>2017-02-11T08:37:23Z</time>
      </trkpt>
      <trkpt lat="42.73366" lon="2.02113">
        <ele>1668.02</ele>
        <time>2017-02-11T08:37:38Z</time>
      </trkpt>
      <trkpt lat="42.73372" lon="2.02111">
        <ele>1670.43</ele>
        <time>2017-02-11T08:37:51Z</time>
      </trkpt>
      <trkpt lat="42.73376" lon="2.02111">
        <ele>1673.31</ele>
        <time>2017-02-11T08:38:05Z</time>
      </trkpt>
      <trkpt lat="42.73382" lon="2.02106">
        <ele>1674.27</ele>
        <time>2017-02-11T08:38:20Z</time>
      </trkpt>
      <trkpt lat="42.73389" lon="2.02107">
        <ele>1679.08</ele>
        <time>2017-02-11T08:38:38Z</time>
      </trkpt>
      <trkpt lat="42.73391" lon="2.02107">
        <ele>1680.52</ele>
        <time>2017-02-11T08:38:49Z</time>
      </trkpt>
      <trkpt lat="42.73394" lon="2.02107">
        <ele>1681.96</ele>
        <time>2017-02-11T08:38:58Z</time>
      </trkpt>
      <trkpt lat="42.73399" lon="2.02106">
        <ele>1684.85</ele>
        <time>2017-02-11T08:39:09Z</time>
      </trkpt>
      <trkpt lat="42.73404" lon="2.02107">
        <ele>1686.29</ele>
        <time>2017-02-11T08:39:23Z</time>
      </trkpt>
      <trkpt lat="42.73407" lon="2.02111">
        <ele>1686.29</ele>
        <time>2017-02-11T08:39:34Z</time>
      </trkpt>
      <trkpt lat="42.73412" lon="2.02111">
        <ele>1686.77</ele>
        <time>2017-02-11T08:39:45Z</time>
      </trkpt>
      <trkpt lat="42.73416" lon="2.02109">
        <ele>1690.14</ele>
        <time>2017-02-11T08:39:58Z</time>
      </trkpt>
      <trkpt lat="42.73415" lon="2.02113">
        <ele>1691.1</ele>
        <time>2017-02-11T08:40:12Z</time>
      </trkpt>
      <trkpt lat="42.73416" lon="2.02117">
        <ele>1692.06</ele>
        <time>2017-02-11T08:40:27Z</time>
      </trkpt>
      <trkpt lat="42.73418" lon="2.02125">
        <ele>1693.98</ele>
        <time>2017-02-11T08:40:41Z</time>
      </trkpt>
      <trkpt lat="42.73421" lon="2.02132">
        <ele>1695.42</ele>
        <time>2017-02-11T08:40:53Z</time>
      </trkpt>
      <trkpt lat="42.73424" lon="2.02142">
        <ele>1699.27</ele>
        <time>2017-02-11T08:41:09Z</time>
      </trkpt>
      <trkpt lat="42.73425" lon="2.02148">
        <ele>1702.15</ele>
        <time>2017-02-11T08:41:23Z</time>
      </trkpt>
      <trkpt lat="42.73429" lon="2.02157">
        <ele>1702.63</ele>
        <time>2017-02-11T08:41:34Z</time>
      </trkpt>
      <trkpt lat="42.73432" lon="2.02165">
        <ele>1706</ele>
        <time>2017-02-11T08:41:48Z</time>
      </trkpt>
      <trkpt lat="42.73434" lon="2.02176">
        <ele>1707.44</ele>
        <time>2017-02-11T08:42:05Z</time>
      </trkpt>
      <trkpt lat="42.73437" lon="2.02177">
        <ele>1711.76</ele>
        <time>2017-02-11T08:42:17Z</time>
      </trkpt>
      <trkpt lat="42.73443" lon="2.02178">
        <ele>1715.13</ele>
        <time>2017-02-11T08:42:29Z</time>
      </trkpt>
      <trkpt lat="42.73447" lon="2.02178">
        <ele>1718.49</ele>
        <time>2017-02-11T08:42:42Z</time>
      </trkpt>
      <trkpt lat="42.73452" lon="2.02179">
        <ele>1720.9</ele>
        <time>2017-02-11T08:42:54Z</time>
      </trkpt>
      <trkpt lat="42.73456" lon="2.02177">
        <ele>1722.34</ele>
        <time>2017-02-11T08:43:04Z</time>
      </trkpt>
      <trkpt lat="42.73459" lon="2.02178">
        <ele>1722.82</ele>
        <time>2017-02-11T08:43:16Z</time>
      </trkpt>
      <trkpt lat="42.73459" lon="2.02178">
        <ele>1724.74</ele>
        <time>2017-02-11T08:43:35Z</time>
      </trkpt>
      <trkpt lat="42.7346" lon="2.02178">
        <ele>1728.11</ele>
        <time>2017-02-11T08:43:52Z</time>
      </trkpt>
      <trkpt lat="42.7346" lon="2.02178">
        <ele>1729.07</ele>
        <time>2017-02-11T08:44:01Z</time>
      </trkpt>
      <trkpt lat="42.73459" lon="2.02176">
        <ele>1726.67</ele>
        <time>2017-02-11T08:44:16Z</time>
      </trkpt>
      <trkpt lat="42.7346" lon="2.02178">
        <ele>1727.63</ele>
        <time>2017-02-11T08:44:34Z</time>
      </trkpt>
      <trkpt lat="42.73461" lon="2.02177">
        <ele>1727.15</ele>
        <time>2017-02-11T08:44:58Z</time>
      </trkpt>
      <trkpt lat="42.73461" lon="2.0218">
        <ele>1725.22</ele>
        <time>2017-02-11T08:45:16Z</time>
      </trkpt>
      <trkpt lat="42.73459" lon="2.02178">
        <ele>1727.15</ele>
        <time>2017-02-11T08:45:36Z</time>
      </trkpt>
      <trkpt lat="42.73459" lon="2.02178">
        <ele>1730.03</ele>
        <time>2017-02-11T08:45:58Z</time>
      </trkpt>
      <trkpt lat="42.73459" lon="2.02177">
        <ele>1733.39</ele>
        <time>2017-02-11T08:46:21Z</time>
      </trkpt>
      <trkpt lat="42.73465" lon="2.02181">
        <ele>1733.39</ele>
        <time>2017-02-11T08:46:36Z</time>
      </trkpt>
      <trkpt lat="42.73472" lon="2.0218">
        <ele>1736.76</ele>
        <time>2017-02-11T08:46:49Z</time>
      </trkpt>
      <trkpt lat="42.73478" lon="2.02185">
        <ele>1737.24</ele>
        <time>2017-02-11T08:47:03Z</time>
      </trkpt>
      <trkpt lat="42.73484" lon="2.02183">
        <ele>1741.57</ele>
        <time>2017-02-11T08:47:18Z</time>
      </trkpt>
      <trkpt lat="42.73491" lon="2.02183">
        <ele>1743.49</ele>
        <time>2017-02-11T08:47:34Z</time>
      </trkpt>
      <trkpt lat="42.73495" lon="2.02192">
        <ele>1744.93</ele>
        <time>2017-02-11T08:47:50Z</time>
      </trkpt>
      <trkpt lat="42.73498" lon="2.02197">
        <ele>1747.81</ele>
        <time>2017-02-11T08:48:00Z</time>
      </trkpt>
      <trkpt lat="42.735" lon="2.02203">
        <ele>1750.22</ele>
        <time>2017-02-11T08:48:14Z</time>
      </trkpt>
      <trkpt lat="42.73504" lon="2.02205">
        <ele>1751.66</ele>
        <time>2017-02-11T08:48:30Z</time>
      </trkpt>
      <trkpt lat="42.73508" lon="2.02204">
        <ele>1755.02</ele>
        <time>2017-02-11T08:48:41Z</time>
      </trkpt>
      <trkpt lat="42.73515" lon="2.02201">
        <ele>1756.47</ele>
        <time>2017-02-11T08:48:57Z</time>
      </trkpt>
      <trkpt lat="42.7352" lon="2.02197">
        <ele>1760.79</ele>
        <time>2017-02-11T08:49:10Z</time>
      </trkpt>
      <trkpt lat="42.73523" lon="2.02196">
        <ele>1761.75</ele>
        <time>2017-02-11T08:49:22Z</time>
      </trkpt>
      <trkpt lat="42.73525" lon="2.02204">
        <ele>1762.71</ele>
        <time>2017-02-11T08:49:35Z</time>
      </trkpt>
      <trkpt lat="42.73526" lon="2.02212">
        <ele>1764.64</ele>
        <time>2017-02-11T08:49:49Z</time>
      </trkpt>
      <trkpt lat="42.73527" lon="2.02221">
        <ele>1768.96</ele>
        <time>2017-02-11T08:50:07Z</time>
      </trkpt>
      <trkpt lat="42.73528" lon="2.02233">
        <ele>1768.96</ele>
        <time>2017-02-11T08:50:20Z</time>
      </trkpt>
      <trkpt lat="42.73529" lon="2.0224">
        <ele>1771.37</ele>
        <time>2017-02-11T08:50:35Z</time>
      </trkpt>
      <trkpt lat="42.73529" lon="2.02245">
        <ele>1771.37</ele>
        <time>2017-02-11T08:50:48Z</time>
      </trkpt>
      <trkpt lat="42.73532" lon="2.02244">
        <ele>1773.77</ele>
        <time>2017-02-11T08:51:05Z</time>
      </trkpt>
      <trkpt lat="42.73537" lon="2.0224">
        <ele>1774.25</ele>
        <time>2017-02-11T08:51:16Z</time>
      </trkpt>
      <trkpt lat="42.73542" lon="2.02235">
        <ele>1776.17</ele>
        <time>2017-02-11T08:51:27Z</time>
      </trkpt>
      <trkpt lat="42.73546" lon="2.0223">
        <ele>1779.06</ele>
        <time>2017-02-11T08:51:39Z</time>
      </trkpt>
      <trkpt lat="42.73549" lon="2.0223">
        <ele>1781.46</ele>
        <time>2017-02-11T08:51:52Z</time>
      </trkpt>
      <trkpt lat="42.73552" lon="2.02231">
        <ele>1782.42</ele>
        <time>2017-02-11T08:52:06Z</time>
      </trkpt>
      <trkpt lat="42.73554" lon="2.02239">
        <ele>1784.82</ele>
        <time>2017-02-11T08:52:26Z</time>
      </trkpt>
      <trkpt lat="42.73558" lon="2.02239">
        <ele>1785.79</ele>
        <time>2017-02-11T08:52:37Z</time>
      </trkpt>
      <trkpt lat="42.73564" lon="2.02235">
        <ele>1789.15</ele>
        <time>2017-02-11T08:52:53Z</time>
      </trkpt>
      <trkpt lat="42.73576" lon="2.02232">
        <ele>1791.07</ele>
        <time>2017-02-11T08:53:13Z</time>
      </trkpt>
      <trkpt lat="42.73581" lon="2.02228">
        <ele>1790.59</ele>
        <time>2017-02-11T08:53:24Z</time>
      </trkpt>
      <trkpt lat="42.73587" lon="2.02223">
        <ele>1792.03</ele>
        <time>2017-02-11T08:53:37Z</time>
      </trkpt>
      <trkpt lat="42.73591" lon="2.02221">
        <ele>1794.92</ele>
        <time>2017-02-11T08:53:48Z</time>
      </trkpt>
      <trkpt lat="42.73598" lon="2.02218">
        <ele>1795.88</ele>
        <time>2017-02-11T08:54:02Z</time>
      </trkpt>
      <trkpt lat="42.73603" lon="2.02214">
        <ele>1798.28</ele>
        <time>2017-02-11T08:54:13Z</time>
      </trkpt>
      <trkpt lat="42.7361" lon="2.02208">
        <ele>1802.13</ele>
        <time>2017-02-11T08:54:30Z</time>
      </trkpt>
      <trkpt lat="42.73613" lon="2.02206">
        <ele>1802.61</ele>
        <time>2017-02-11T08:54:38Z</time>
      </trkpt>
      <trkpt lat="42.73616" lon="2.0221">
        <ele>1805.01</ele>
        <time>2017-02-11T08:54:52Z</time>
      </trkpt>
      <trkpt lat="42.73619" lon="2.02219">
        <ele>1808.38</ele>
        <time>2017-02-11T08:55:07Z</time>
      </trkpt>
      <trkpt lat="42.73621" lon="2.0222">
        <ele>1809.82</ele>
        <time>2017-02-11T08:55:16Z</time>
      </trkpt>
      <trkpt lat="42.73625" lon="2.02216">
        <ele>1811.26</ele>
        <time>2017-02-11T08:55:29Z</time>
      </trkpt>
      <trkpt lat="42.73628" lon="2.02213">
        <ele>1810.78</ele>
        <time>2017-02-11T08:55:44Z</time>
      </trkpt>
      <trkpt lat="42.73631" lon="2.02209">
        <ele>1809.34</ele>
        <time>2017-02-11T08:56:07Z</time>
      </trkpt>
      <trkpt lat="42.73635" lon="2.02204">
        <ele>1810.78</ele>
        <time>2017-02-11T08:56:28Z</time>
      </trkpt>
      <trkpt lat="42.7364" lon="2.02199">
        <ele>1814.63</ele>
        <time>2017-02-11T08:56:41Z</time>
      </trkpt>
      <trkpt lat="42.73645" lon="2.02199">
        <ele>1816.55</ele>
        <time>2017-02-11T08:56:54Z</time>
      </trkpt>
      <trkpt lat="42.7365" lon="2.02206">
        <ele>1818.47</ele>
        <time>2017-02-11T08:57:07Z</time>
      </trkpt>
      <trkpt lat="42.73652" lon="2.02211">
        <ele>1820.39</ele>
        <time>2017-02-11T08:57:19Z</time>
      </trkpt>
      <trkpt lat="42.73658" lon="2.02208">
        <ele>1822.8</ele>
        <time>2017-02-11T08:57:31Z</time>
      </trkpt>
      <trkpt lat="42.73663" lon="2.02205">
        <ele>1825.68</ele>
        <time>2017-02-11T08:57:44Z</time>
      </trkpt>
      <trkpt lat="42.7367" lon="2.022">
        <ele>1827.6</ele>
        <time>2017-02-11T08:57:58Z</time>
      </trkpt>
      <trkpt lat="42.73674" lon="2.02196">
        <ele>1830.97</ele>
        <time>2017-02-11T08:58:10Z</time>
      </trkpt>
      <trkpt lat="42.73679" lon="2.02194">
        <ele>1833.37</ele>
        <time>2017-02-11T08:58:25Z</time>
      </trkpt>
      <trkpt lat="42.73691" lon="2.02187">
        <ele>1835.77</ele>
        <time>2017-02-11T08:58:46Z</time>
      </trkpt>
      <trkpt lat="42.73695" lon="2.02185">
        <ele>1839.62</ele>
        <time>2017-02-11T08:58:57Z</time>
      </trkpt>
      <trkpt lat="42.73705" lon="2.02179">
        <ele>1840.1</ele>
        <time>2017-02-11T08:59:16Z</time>
      </trkpt>
      <trkpt lat="42.7371" lon="2.02179">
        <ele>1842.98</ele>
        <time>2017-02-11T08:59:28Z</time>
      </trkpt>
      <trkpt lat="42.73712" lon="2.02185">
        <ele>1846.35</ele>
        <time>2017-02-11T08:59:41Z</time>
      </trkpt>
      <trkpt lat="42.73715" lon="2.0219">
        <ele>1845.39</ele>
        <time>2017-02-11T08:59:51Z</time>
      </trkpt>
      <trkpt lat="42.73722" lon="2.02184">
        <ele>1846.35</ele>
        <time>2017-02-11T09:00:05Z</time>
      </trkpt>
      <trkpt lat="42.73727" lon="2.02176">
        <ele>1847.31</ele>
        <time>2017-02-11T09:00:22Z</time>
      </trkpt>
      <trkpt lat="42.73726" lon="2.02174">
        <ele>1848.27</ele>
        <time>2017-02-11T09:00:37Z</time>
      </trkpt>
      <trkpt lat="42.73727" lon="2.02177">
        <ele>1848.75</ele>
        <time>2017-02-11T09:01:05Z</time>
      </trkpt>
      <trkpt lat="42.73726" lon="2.02175">
        <ele>1849.23</ele>
        <time>2017-02-11T09:01:32Z</time>
      </trkpt>
      <trkpt lat="42.73728" lon="2.02176">
        <ele>1847.79</ele>
        <time>2017-02-11T09:02:00Z</time>
      </trkpt>
      <trkpt lat="42.73727" lon="2.02174">
        <ele>1847.79</ele>
        <time>2017-02-11T09:02:20Z</time>
      </trkpt>
      <trkpt lat="42.73727" lon="2.02175">
        <ele>1846.83</ele>
        <time>2017-02-11T09:02:47Z</time>
      </trkpt>
      <trkpt lat="42.73727" lon="2.02177">
        <ele>1847.31</ele>
        <time>2017-02-11T09:03:17Z</time>
      </trkpt>
      <trkpt lat="42.73727" lon="2.02174">
        <ele>1846.83</ele>
        <time>2017-02-11T09:03:39Z</time>
      </trkpt>
      <trkpt lat="42.73727" lon="2.02175">
        <ele>1847.31</ele>
        <time>2017-02-11T09:03:55Z</time>
      </trkpt>
      <trkpt lat="42.73728" lon="2.02176">
        <ele>1848.27</ele>
        <time>2017-02-11T09:04:13Z</time>
      </trkpt>
      <trkpt lat="42.73726" lon="2.02176">
        <ele>1849.23</ele>
        <time>2017-02-11T09:04:36Z</time>
      </trkpt>
      <trkpt lat="42.73726" lon="2.02176">
        <ele>1848.75</ele>
        <time>2017-02-11T09:05:00Z</time>
      </trkpt>
      <trkpt lat="42.73727" lon="2.02175">
        <ele>1849.23</ele>
        <time>2017-02-11T09:05:23Z</time>
      </trkpt>
      <trkpt lat="42.73728" lon="2.02174">
        <ele>1848.75</ele>
        <time>2017-02-11T09:05:41Z</time>
      </trkpt>
      <trkpt lat="42.73727" lon="2.02173">
        <ele>1848.75</ele>
        <time>2017-02-11T09:06:01Z</time>
      </trkpt>
      <trkpt lat="42.73729" lon="2.02172">
        <ele>1847.79</ele>
        <time>2017-02-11T09:06:17Z</time>
      </trkpt>
      <trkpt lat="42.73731" lon="2.02174">
        <ele>1848.27</ele>
        <time>2017-02-11T09:06:27Z</time>
      </trkpt>
      <trkpt lat="42.73735" lon="2.02171">
        <ele>1850.68</ele>
        <time>2017-02-11T09:06:50Z</time>
      </trkpt>
      <trkpt lat="42.73746" lon="2.02167">
        <ele>1852.12</ele>
        <time>2017-02-11T09:07:07Z</time>
      </trkpt>
      <trkpt lat="42.73748" lon="2.02166">
        <ele>1854.52</ele>
        <time>2017-02-11T09:07:13Z</time>
      </trkpt>
      <trkpt lat="42.73751" lon="2.02171">
        <ele>1855</ele>
        <time>2017-02-11T09:07:26Z</time>
      </trkpt>
      <trkpt lat="42.73753" lon="2.02178">
        <ele>1859.33</ele>
        <time>2017-02-11T09:07:42Z</time>
      </trkpt>
      <trkpt lat="42.73755" lon="2.02183">
        <ele>1862.21</ele>
        <time>2017-02-11T09:07:55Z</time>
      </trkpt>
      <trkpt lat="42.73756" lon="2.02185">
        <ele>1863.17</ele>
        <time>2017-02-11T09:08:11Z</time>
      </trkpt>
      <trkpt lat="42.73759" lon="2.02193">
        <ele>1865.58</ele>
        <time>2017-02-11T09:08:27Z</time>
      </trkpt>
      <trkpt lat="42.73763" lon="2.02202">
        <ele>1869.42</ele>
        <time>2017-02-11T09:08:42Z</time>
      </trkpt>
      <trkpt lat="42.73766" lon="2.02213">
        <ele>1871.82</ele>
        <time>2017-02-11T09:08:59Z</time>
      </trkpt>
      <trkpt lat="42.7377" lon="2.02225">
        <ele>1874.23</ele>
        <time>2017-02-11T09:09:18Z</time>
      </trkpt>
      <trkpt lat="42.73774" lon="2.02237">
        <ele>1875.19</ele>
        <time>2017-02-11T09:09:34Z</time>
      </trkpt>
      <trkpt lat="42.73777" lon="2.02247">
        <ele>1877.11</ele>
        <time>2017-02-11T09:09:49Z</time>
      </trkpt>
      <trkpt lat="42.73779" lon="2.02253">
        <ele>1880.96</ele>
        <time>2017-02-11T09:10:03Z</time>
      </trkpt>
      <trkpt lat="42.73781" lon="2.02262">
        <ele>1882.4</ele>
        <time>2017-02-11T09:10:15Z</time>
      </trkpt>
      <trkpt lat="42.73782" lon="2.02271">
        <ele>1884.32</ele>
        <time>2017-02-11T09:10:32Z</time>
      </trkpt>
      <trkpt lat="42.73784" lon="2.02279">
        <ele>1887.69</ele>
        <time>2017-02-11T09:10:47Z</time>
      </trkpt>
      <trkpt lat="42.73789" lon="2.02289">
        <ele>1888.17</ele>
        <time>2017-02-11T09:11:01Z</time>
      </trkpt>
      <trkpt lat="42.73793" lon="2.02293">
        <ele>1889.13</ele>
        <time>2017-02-11T09:11:12Z</time>
      </trkpt>
      <trkpt lat="42.73799" lon="2.02293">
        <ele>1891.05</ele>
        <time>2017-02-11T09:11:24Z</time>
      </trkpt>
      <trkpt lat="42.73803" lon="2.02293">
        <ele>1892.01</ele>
        <time>2017-02-11T09:11:36Z</time>
      </trkpt>
      <trkpt lat="42.73807" lon="2.02291">
        <ele>1893.93</ele>
        <time>2017-02-11T09:11:51Z</time>
      </trkpt>
      <trkpt lat="42.73812" lon="2.02287">
        <ele>1897.3</ele>
        <time>2017-02-11T09:12:05Z</time>
      </trkpt>
      <trkpt lat="42.73819" lon="2.0228">
        <ele>1899.22</ele>
        <time>2017-02-11T09:12:21Z</time>
      </trkpt>
      <trkpt lat="42.73825" lon="2.0227">
        <ele>1900.18</ele>
        <time>2017-02-11T09:12:39Z</time>
      </trkpt>
      <trkpt lat="42.73826" lon="2.02269">
        <ele>1901.63</ele>
        <time>2017-02-11T09:12:47Z</time>
      </trkpt>
      <trkpt lat="42.73829" lon="2.02264">
        <ele>1902.11</ele>
        <time>2017-02-11T09:13:00Z</time>
      </trkpt>
      <trkpt lat="42.73835" lon="2.02254">
        <ele>1903.07</ele>
        <time>2017-02-11T09:13:13Z</time>
      </trkpt>
      <trkpt lat="42.73839" lon="2.02247">
        <ele>1904.99</ele>
        <time>2017-02-11T09:13:26Z</time>
      </trkpt>
      <trkpt lat="42.73846" lon="2.02239">
        <ele>1907.39</ele>
        <time>2017-02-11T09:13:39Z</time>
      </trkpt>
      <trkpt lat="42.73852" lon="2.02231">
        <ele>1907.87</ele>
        <time>2017-02-11T09:13:53Z</time>
      </trkpt>
      <trkpt lat="42.73858" lon="2.02222">
        <ele>1907.87</ele>
        <time>2017-02-11T09:14:07Z</time>
      </trkpt>
      <trkpt lat="42.73863" lon="2.02213">
        <ele>1909.32</ele>
        <time>2017-02-11T09:14:21Z</time>
      </trkpt>
      <trkpt lat="42.73862" lon="2.02214">
        <ele>1911.72</ele>
        <time>2017-02-11T09:14:40Z</time>
      </trkpt>
      <trkpt lat="42.73863" lon="2.02213">
        <ele>1912.2</ele>
        <time>2017-02-11T09:15:05Z</time>
      </trkpt>
      <trkpt lat="42.73863" lon="2.02212">
        <ele>1910.76</ele>
        <time>2017-02-11T09:15:22Z</time>
      </trkpt>
      <trkpt lat="42.73862" lon="2.02209">
        <ele>1910.28</ele>
        <time>2017-02-11T09:15:56Z</time>
      </trkpt>
      <trkpt lat="42.73865" lon="2.02207">
        <ele>1910.28</ele>
        <time>2017-02-11T09:16:15Z</time>
      </trkpt>
      <trkpt lat="42.73872" lon="2.02194">
        <ele>1910.76</ele>
        <time>2017-02-11T09:16:26Z</time>
      </trkpt>
      <trkpt lat="42.73875" lon="2.02191">
        <ele>1910.76</ele>
        <time>2017-02-11T09:16:31Z</time>
      </trkpt>
      <trkpt lat="42.73884" lon="2.0218">
        <ele>1911.72</ele>
        <time>2017-02-11T09:16:45Z</time>
      </trkpt>
      <trkpt lat="42.73893" lon="2.0217">
        <ele>1913.16</ele>
        <time>2017-02-11T09:16:58Z</time>
      </trkpt>
      <trkpt lat="42.73901" lon="2.0216">
        <ele>1915.08</ele>
        <time>2017-02-11T09:17:12Z</time>
      </trkpt>
      <trkpt lat="42.73907" lon="2.02146">
        <ele>1916.04</ele>
        <time>2017-02-11T09:17:25Z</time>
      </trkpt>
      <trkpt lat="42.7391" lon="2.02139">
        <ele>1916.04</ele>
        <time>2017-02-11T09:17:31Z</time>
      </trkpt>
      <trkpt lat="42.73915" lon="2.02126">
        <ele>1917.01</ele>
        <time>2017-02-11T09:17:44Z</time>
      </trkpt>
      <trkpt lat="42.73919" lon="2.02113">
        <ele>1917.49</ele>
        <time>2017-02-11T09:17:56Z</time>
      </trkpt>
      <trkpt lat="42.73922" lon="2.02102">
        <ele>1919.41</ele>
        <time>2017-02-11T09:18:09Z</time>
      </trkpt>
      <trkpt lat="42.73923" lon="2.0209">
        <ele>1920.37</ele>
        <time>2017-02-11T09:18:23Z</time>
      </trkpt>
      <trkpt lat="42.73924" lon="2.02077">
        <ele>1921.33</ele>
        <time>2017-02-11T09:18:36Z</time>
      </trkpt>
      <trkpt lat="42.73927" lon="2.02068">
        <ele>1923.74</ele>
        <time>2017-02-11T09:18:49Z</time>
      </trkpt>
      <trkpt lat="42.73929" lon="2.02053">
        <ele>1925.18</ele>
        <time>2017-02-11T09:19:07Z</time>
      </trkpt>
      <trkpt lat="42.7393" lon="2.0204">
        <ele>1925.66</ele>
        <time>2017-02-11T09:19:22Z</time>
      </trkpt>
      <trkpt lat="42.73931" lon="2.02027">
        <ele>1926.62</ele>
        <time>2017-02-11T09:19:35Z</time>
      </trkpt>
      <trkpt lat="42.73931" lon="2.02016">
        <ele>1926.14</ele>
        <time>2017-02-11T09:19:48Z</time>
      </trkpt>
      <trkpt lat="42.73934" lon="2.02004">
        <ele>1927.58</ele>
        <time>2017-02-11T09:20:00Z</time>
      </trkpt>
      <trkpt lat="42.73936" lon="2.01995">
        <ele>1929.02</ele>
        <time>2017-02-11T09:20:12Z</time>
      </trkpt>
      <trkpt lat="42.73939" lon="2.01986">
        <ele>1929.02</ele>
        <time>2017-02-11T09:20:24Z</time>
      </trkpt>
      <trkpt lat="42.73944" lon="2.01979">
        <ele>1929.98</ele>
        <time>2017-02-11T09:20:34Z</time>
      </trkpt>
      <trkpt lat="42.73953" lon="2.01971">
        <ele>1930.46</ele>
        <time>2017-02-11T09:20:49Z</time>
      </trkpt>
      <trkpt lat="42.73955" lon="2.01968">
        <ele>1930.95</ele>
        <time>2017-02-11T09:20:54Z</time>
      </trkpt>
      <trkpt lat="42.73963" lon="2.01961">
        <ele>1931.91</ele>
        <time>2017-02-11T09:21:07Z</time>
      </trkpt>
      <trkpt lat="42.73965" lon="2.01953">
        <ele>1931.43</ele>
        <time>2017-02-11T09:21:16Z</time>
      </trkpt>
      <trkpt lat="42.73968" lon="2.0194">
        <ele>1931.91</ele>
        <time>2017-02-11T09:21:29Z</time>
      </trkpt>
      <trkpt lat="42.7397" lon="2.01929">
        <ele>1932.39</ele>
        <time>2017-02-11T09:21:41Z</time>
      </trkpt>
      <trkpt lat="42.73972" lon="2.01918">
        <ele>1933.83</ele>
        <time>2017-02-11T09:21:52Z</time>
      </trkpt>
      <trkpt lat="42.73974" lon="2.01904">
        <ele>1935.27</ele>
        <time>2017-02-11T09:22:07Z</time>
      </trkpt>
      <trkpt lat="42.73975" lon="2.01902">
        <ele>1935.27</ele>
        <time>2017-02-11T09:22:09Z</time>
      </trkpt>
      <trkpt lat="42.73975" lon="2.01888">
        <ele>1935.75</ele>
        <time>2017-02-11T09:22:25Z</time>
      </trkpt>
      <trkpt lat="42.73976" lon="2.01875">
        <ele>1935.75</ele>
        <time>2017-02-11T09:22:38Z</time>
      </trkpt>
      <trkpt lat="42.73976" lon="2.01867">
        <ele>1936.23</ele>
        <time>2017-02-11T09:22:47Z</time>
      </trkpt>
      <trkpt lat="42.73977" lon="2.01857">
        <ele>1936.71</ele>
        <time>2017-02-11T09:22:57Z</time>
      </trkpt>
      <trkpt lat="42.73978" lon="2.01852">
        <ele>1937.19</ele>
        <time>2017-02-11T09:23:01Z</time>
      </trkpt>
      <trkpt lat="42.7398" lon="2.0184">
        <ele>1937.19</ele>
        <time>2017-02-11T09:23:16Z</time>
      </trkpt>
      <trkpt lat="42.73985" lon="2.01837">
        <ele>1937.67</ele>
        <time>2017-02-11T09:23:38Z</time>
      </trkpt>
      <trkpt lat="42.73982" lon="2.01832">
        <ele>1937.67</ele>
        <time>2017-02-11T09:23:49Z</time>
      </trkpt>
      <trkpt lat="42.7398" lon="2.0182">
        <ele>1937.19</ele>
        <time>2017-02-11T09:23:59Z</time>
      </trkpt>
      <trkpt lat="42.73988" lon="2.01814">
        <ele>1937.67</ele>
        <time>2017-02-11T09:24:14Z</time>
      </trkpt>
      <trkpt lat="42.73989" lon="2.01813">
        <ele>1937.67</ele>
        <time>2017-02-11T09:24:16Z</time>
      </trkpt>
      <trkpt lat="42.73991" lon="2.018">
        <ele>1939.12</ele>
        <time>2017-02-11T09:24:29Z</time>
      </trkpt>
      <trkpt lat="42.73995" lon="2.01788">
        <ele>1939.12</ele>
        <time>2017-02-11T09:24:41Z</time>
      </trkpt>
      <trkpt lat="42.73996" lon="2.01779">
        <ele>1941.04</ele>
        <time>2017-02-11T09:24:51Z</time>
      </trkpt>
      <trkpt lat="42.73997" lon="2.01767">
        <ele>1941.52</ele>
        <time>2017-02-11T09:25:01Z</time>
      </trkpt>
      <trkpt lat="42.73997" lon="2.01754">
        <ele>1940.56</ele>
        <time>2017-02-11T09:25:15Z</time>
      </trkpt>
      <trkpt lat="42.73996" lon="2.01742">
        <ele>1941.04</ele>
        <time>2017-02-11T09:25:28Z</time>
      </trkpt>
      <trkpt lat="42.73995" lon="2.01739">
        <ele>1941.04</ele>
        <time>2017-02-11T09:25:31Z</time>
      </trkpt>
      <trkpt lat="42.73993" lon="2.01728">
        <ele>1941.04</ele>
        <time>2017-02-11T09:25:47Z</time>
      </trkpt>
      <trkpt lat="42.73993" lon="2.01723">
        <ele>1942.48</ele>
        <time>2017-02-11T09:26:01Z</time>
      </trkpt>
      <trkpt lat="42.7399" lon="2.0171">
        <ele>1942.48</ele>
        <time>2017-02-11T09:26:12Z</time>
      </trkpt>
      <trkpt lat="42.73988" lon="2.01703">
        <ele>1942.96</ele>
        <time>2017-02-11T09:26:18Z</time>
      </trkpt>
      <trkpt lat="42.73987" lon="2.01698">
        <ele>1943.44</ele>
        <time>2017-02-11T09:26:22Z</time>
      </trkpt>
      <trkpt lat="42.73985" lon="2.01686">
        <ele>1944.88</ele>
        <time>2017-02-11T09:26:34Z</time>
      </trkpt>
      <trkpt lat="42.73984" lon="2.0168">
        <ele>1944.4</ele>
        <time>2017-02-11T09:26:40Z</time>
      </trkpt>
      <trkpt lat="42.73983" lon="2.01668">
        <ele>1944.88</ele>
        <time>2017-02-11T09:26:49Z</time>
      </trkpt>
      <trkpt lat="42.73981" lon="2.01651">
        <ele>1943.92</ele>
        <time>2017-02-11T09:27:02Z</time>
      </trkpt>
      <trkpt lat="42.73979" lon="2.01638">
        <ele>1945.36</ele>
        <time>2017-02-11T09:27:14Z</time>
      </trkpt>
      <trkpt lat="42.73977" lon="2.01623">
        <ele>1945.36</ele>
        <time>2017-02-11T09:27:27Z</time>
      </trkpt>
      <trkpt lat="42.73976" lon="2.01609">
        <ele>1946.33</ele>
        <time>2017-02-11T09:27:41Z</time>
      </trkpt>
      <trkpt lat="42.73975" lon="2.01596">
        <ele>1947.77</ele>
        <time>2017-02-11T09:27:56Z</time>
      </trkpt>
      <trkpt lat="42.73975" lon="2.01591">
        <ele>1948.73</ele>
        <time>2017-02-11T09:28:11Z</time>
      </trkpt>
      <trkpt lat="42.73975" lon="2.01588">
        <ele>1948.25</ele>
        <time>2017-02-11T09:28:14Z</time>
      </trkpt>
      <trkpt lat="42.73974" lon="2.0158">
        <ele>1949.21</ele>
        <time>2017-02-11T09:28:20Z</time>
      </trkpt>
      <trkpt lat="42.73973" lon="2.01566">
        <ele>1950.65</ele>
        <time>2017-02-11T09:28:35Z</time>
      </trkpt>
      <trkpt lat="42.73976" lon="2.01555">
        <ele>1952.57</ele>
        <time>2017-02-11T09:28:49Z</time>
      </trkpt>
      <trkpt lat="42.73977" lon="2.01545">
        <ele>1955.46</ele>
        <time>2017-02-11T09:29:03Z</time>
      </trkpt>
      <trkpt lat="42.73976" lon="2.01541">
        <ele>1955.94</ele>
        <time>2017-02-11T09:29:08Z</time>
      </trkpt>
      <trkpt lat="42.73973" lon="2.01532">
        <ele>1958.34</ele>
        <time>2017-02-11T09:29:21Z</time>
      </trkpt>
      <trkpt lat="42.73969" lon="2.0152">
        <ele>1959.3</ele>
        <time>2017-02-11T09:29:37Z</time>
      </trkpt>
      <trkpt lat="42.7397" lon="2.0151">
        <ele>1959.78</ele>
        <time>2017-02-11T09:29:50Z</time>
      </trkpt>
      <trkpt lat="42.73975" lon="2.01505">
        <ele>1963.15</ele>
        <time>2017-02-11T09:30:01Z</time>
      </trkpt>
      <trkpt lat="42.73974" lon="2.01495">
        <ele>1964.59</ele>
        <time>2017-02-11T09:30:14Z</time>
      </trkpt>
      <trkpt lat="42.73976" lon="2.0149">
        <ele>1967.48</ele>
        <time>2017-02-11T09:30:27Z</time>
      </trkpt>
      <trkpt lat="42.73977" lon="2.01491">
        <ele>1967.48</ele>
        <time>2017-02-11T09:30:45Z</time>
      </trkpt>
      <trkpt lat="42.73976" lon="2.0149">
        <ele>1967.96</ele>
        <time>2017-02-11T09:31:04Z</time>
      </trkpt>
      <trkpt lat="42.73977" lon="2.01489">
        <ele>1968.92</ele>
        <time>2017-02-11T09:31:20Z</time>
      </trkpt>
      <trkpt lat="42.73977" lon="2.0149">
        <ele>1966.51</ele>
        <time>2017-02-11T09:31:34Z</time>
      </trkpt>
      <trkpt lat="42.73977" lon="2.0149">
        <ele>1966.51</ele>
        <time>2017-02-11T09:32:09Z</time>
      </trkpt>
      <trkpt lat="42.73977" lon="2.0149">
        <ele>1966.51</ele>
        <time>2017-02-11T09:32:42Z</time>
      </trkpt>
      <trkpt lat="42.73978" lon="2.01488">
        <ele>1965.07</ele>
        <time>2017-02-11T09:33:14Z</time>
      </trkpt>
      <trkpt lat="42.73978" lon="2.01491">
        <ele>1964.59</ele>
        <time>2017-02-11T09:33:37Z</time>
      </trkpt>
      <trkpt lat="42.73977" lon="2.01493">
        <ele>1965.07</ele>
        <time>2017-02-11T09:34:16Z</time>
      </trkpt>
      <trkpt lat="42.73977" lon="2.0149">
        <ele>1964.11</ele>
        <time>2017-02-11T09:34:40Z</time>
      </trkpt>
      <trkpt lat="42.73977" lon="2.01491">
        <ele>1964.11</ele>
        <time>2017-02-11T09:34:58Z</time>
      </trkpt>
      <trkpt lat="42.73977" lon="2.01492">
        <ele>1964.59</ele>
        <time>2017-02-11T09:35:45Z</time>
      </trkpt>
      <trkpt lat="42.73976" lon="2.01492">
        <ele>1963.63</ele>
        <time>2017-02-11T09:36:20Z</time>
      </trkpt>
      <trkpt lat="42.73975" lon="2.01491">
        <ele>1963.63</ele>
        <time>2017-02-11T09:36:55Z</time>
      </trkpt>
      <trkpt lat="42.73975" lon="2.01491">
        <ele>1963.63</ele>
        <time>2017-02-11T09:37:24Z</time>
      </trkpt>
      <trkpt lat="42.73976" lon="2.01491">
        <ele>1965.07</ele>
        <time>2017-02-11T09:37:53Z</time>
      </trkpt>
      <trkpt lat="42.73976" lon="2.0149">
        <ele>1966.03</ele>
        <time>2017-02-11T09:38:15Z</time>
      </trkpt>
      <trkpt lat="42.73978" lon="2.01491">
        <ele>1967.96</ele>
        <time>2017-02-11T09:38:29Z</time>
      </trkpt>
      <trkpt lat="42.73978" lon="2.01491">
        <ele>1968.44</ele>
        <time>2017-02-11T09:38:40Z</time>
      </trkpt>
      <trkpt lat="42.73978" lon="2.01491">
        <ele>1968.44</ele>
        <time>2017-02-11T09:38:48Z</time>
      </trkpt>
      <trkpt lat="42.7398" lon="2.01495">
        <ele>1967.48</ele>
        <time>2017-02-11T09:39:00Z</time>
      </trkpt>
      <trkpt lat="42.7398" lon="2.01496">
        <ele>1967.96</ele>
        <time>2017-02-11T09:39:02Z</time>
      </trkpt>
      <trkpt lat="42.73983" lon="2.01491">
        <ele>1967.48</ele>
        <time>2017-02-11T09:39:06Z</time>
      </trkpt>
      <trkpt lat="42.73984" lon="2.01487">
        <ele>1967.48</ele>
        <time>2017-02-11T09:39:15Z</time>
      </trkpt>
      <trkpt lat="42.73983" lon="2.01483">
        <ele>1967.48</ele>
        <time>2017-02-11T09:39:20Z</time>
      </trkpt>
      <trkpt lat="42.73989" lon="2.0149">
        <ele>1965.07</ele>
        <time>2017-02-11T09:39:27Z</time>
      </trkpt>
      <trkpt lat="42.73991" lon="2.015">
        <ele>1963.63</ele>
        <time>2017-02-11T09:39:38Z</time>
      </trkpt>
      <trkpt lat="42.73991" lon="2.01499">
        <ele>1963.63</ele>
        <time>2017-02-11T09:39:50Z</time>
      </trkpt>
      <trkpt lat="42.73996" lon="2.01493">
        <ele>1963.63</ele>
        <time>2017-02-11T09:39:56Z</time>
      </trkpt>
      <trkpt lat="42.74005" lon="2.015">
        <ele>1959.78</ele>
        <time>2017-02-11T09:40:02Z</time>
      </trkpt>
      <trkpt lat="42.74007" lon="2.01491">
        <ele>1958.34</ele>
        <time>2017-02-11T09:40:06Z</time>
      </trkpt>
      <trkpt lat="42.74031" lon="2.01473">
        <ele>1955.46</ele>
        <time>2017-02-11T09:40:13Z</time>
      </trkpt>
      <trkpt lat="42.74036" lon="2.01476">
        <ele>1954.5</ele>
        <time>2017-02-11T09:40:20Z</time>
      </trkpt>
      <trkpt lat="42.74043" lon="2.0148">
        <ele>1953.54</ele>
        <time>2017-02-11T09:40:30Z</time>
      </trkpt>
      <trkpt lat="42.74052" lon="2.01487">
        <ele>1951.61</ele>
        <time>2017-02-11T09:40:38Z</time>
      </trkpt>
      <trkpt lat="42.74053" lon="2.01487">
        <ele>1951.61</ele>
        <time>2017-02-11T09:40:48Z</time>
      </trkpt>
      <trkpt lat="42.74054" lon="2.01489">
        <ele>1952.09</ele>
        <time>2017-02-11T09:40:57Z</time>
      </trkpt>
      <trkpt lat="42.74054" lon="2.01489">
        <ele>1953.06</ele>
        <time>2017-02-11T09:41:22Z</time>
      </trkpt>
      <trkpt lat="42.74054" lon="2.0149">
        <ele>1952.57</ele>
        <time>2017-02-11T09:41:44Z</time>
      </trkpt>
      <trkpt lat="42.74055" lon="2.0149">
        <ele>1953.06</ele>
        <time>2017-02-11T09:42:04Z</time>
      </trkpt>
      <trkpt lat="42.74055" lon="2.01488">
        <ele>1951.61</ele>
        <time>2017-02-11T09:42:28Z</time>
      </trkpt>
      <trkpt lat="42.74056" lon="2.01488">
        <ele>1951.61</ele>
        <time>2017-02-11T09:42:43Z</time>
      </trkpt>
      <trkpt lat="42.74056" lon="2.01489">
        <ele>1952.09</ele>
        <time>2017-02-11T09:42:58Z</time>
      </trkpt>
      <trkpt lat="42.74056" lon="2.01489">
        <ele>1952.57</ele>
        <time>2017-02-11T09:43:16Z</time>
      </trkpt>
      <trkpt lat="42.74056" lon="2.01489">
        <ele>1952.57</ele>
        <time>2017-02-11T09:43:35Z</time>
      </trkpt>
      <trkpt lat="42.74056" lon="2.01489">
        <ele>1952.57</ele>
        <time>2017-02-11T09:43:51Z</time>
      </trkpt>
      <trkpt lat="42.74056" lon="2.01489">
        <ele>1950.65</ele>
        <time>2017-02-11T09:44:14Z</time>
      </trkpt>
      <trkpt lat="42.74056" lon="2.01489">
        <ele>1951.13</ele>
        <time>2017-02-11T09:44:33Z</time>
      </trkpt>
      <trkpt lat="42.74056" lon="2.01489">
        <ele>1951.13</ele>
        <time>2017-02-11T09:44:53Z</time>
      </trkpt>
      <trkpt lat="42.74057" lon="2.01489">
        <ele>1951.13</ele>
        <time>2017-02-11T09:45:28Z</time>
      </trkpt>
      <trkpt lat="42.74056" lon="2.01488">
        <ele>1950.65</ele>
        <time>2017-02-11T09:45:57Z</time>
      </trkpt>
      <trkpt lat="42.74056" lon="2.01488">
        <ele>1951.61</ele>
        <time>2017-02-11T09:46:20Z</time>
      </trkpt>
      <trkpt lat="42.74058" lon="2.01487">
        <ele>1952.09</ele>
        <time>2017-02-11T09:46:32Z</time>
      </trkpt>
      <trkpt lat="42.7406" lon="2.01487">
        <ele>1952.09</ele>
        <time>2017-02-11T09:46:35Z</time>
      </trkpt>
      <trkpt lat="42.74087" lon="2.01477">
        <ele>1950.65</ele>
        <time>2017-02-11T09:46:47Z</time>
      </trkpt>
      <trkpt lat="42.74098" lon="2.01477">
        <ele>1949.69</ele>
        <time>2017-02-11T09:46:51Z</time>
      </trkpt>
      <trkpt lat="42.74103" lon="2.01482">
        <ele>1949.21</ele>
        <time>2017-02-11T09:46:53Z</time>
      </trkpt>
      <trkpt lat="42.74108" lon="2.01488">
        <ele>1948.25</ele>
        <time>2017-02-11T09:46:57Z</time>
      </trkpt>
      <trkpt lat="42.7412" lon="2.01494">
        <ele>1945.85</ele>
        <time>2017-02-11T09:47:02Z</time>
      </trkpt>
      <trkpt lat="42.74136" lon="2.01517">
        <ele>1940.08</ele>
        <time>2017-02-11T09:47:08Z</time>
      </trkpt>
      <trkpt lat="42.74144" lon="2.01525">
        <ele>1937.67</ele>
        <time>2017-02-11T09:47:10Z</time>
      </trkpt>
      <trkpt lat="42.74154" lon="2.0153">
        <ele>1934.31</ele>
        <time>2017-02-11T09:47:12Z</time>
      </trkpt>
      <trkpt lat="42.74184" lon="2.01558">
        <ele>1922.77</ele>
        <time>2017-02-11T09:47:19Z</time>
      </trkpt>
      <trkpt lat="42.7421" lon="2.0158">
        <ele>1911.24</ele>
        <time>2017-02-11T09:47:25Z</time>
      </trkpt>
      <trkpt lat="42.74238" lon="2.01596">
        <ele>1894.42</ele>
        <time>2017-02-11T09:47:31Z</time>
      </trkpt>
      <trkpt lat="42.74261" lon="2.01606">
        <ele>1882.4</ele>
        <time>2017-02-11T09:47:35Z</time>
      </trkpt>
      <trkpt lat="42.74283" lon="2.01615">
        <ele>1874.23</ele>
        <time>2017-02-11T09:47:39Z</time>
      </trkpt>
      <trkpt lat="42.74291" lon="2.0162">
        <ele>1871.34</ele>
        <time>2017-02-11T09:47:41Z</time>
      </trkpt>
      <trkpt lat="42.74312" lon="2.01626">
        <ele>1865.09</ele>
        <time>2017-02-11T09:47:46Z</time>
      </trkpt>
      <trkpt lat="42.74331" lon="2.01625">
        <ele>1860.29</ele>
        <time>2017-02-11T09:47:50Z</time>
      </trkpt>
      <trkpt lat="42.7437" lon="2.01634">
        <ele>1850.68</ele>
        <time>2017-02-11T09:47:59Z</time>
      </trkpt>
      <trkpt lat="42.74381" lon="2.01643">
        <ele>1847.31</ele>
        <time>2017-02-11T09:48:01Z</time>
      </trkpt>
      <trkpt lat="42.74404" lon="2.01666">
        <ele>1839.62</ele>
        <time>2017-02-11T09:48:05Z</time>
      </trkpt>
      <trkpt lat="42.74434" lon="2.01726">
        <ele>1829.53</ele>
        <time>2017-02-11T09:48:13Z</time>
      </trkpt>
      <trkpt lat="42.7444" lon="2.01729">
        <ele>1828.08</ele>
        <time>2017-02-11T09:48:14Z</time>
      </trkpt>
      <trkpt lat="42.74447" lon="2.01732">
        <ele>1827.12</ele>
        <time>2017-02-11T09:48:15Z</time>
      </trkpt>
      <trkpt lat="42.74452" lon="2.01737">
        <ele>1826.16</ele>
        <time>2017-02-11T09:48:16Z</time>
      </trkpt>
      <trkpt lat="42.74455" lon="2.01744">
        <ele>1825.68</ele>
        <time>2017-02-11T09:48:17Z</time>
      </trkpt>
      <trkpt lat="42.74458" lon="2.01755">
        <ele>1824.72</ele>
        <time>2017-02-11T09:48:19Z</time>
      </trkpt>
      <trkpt lat="42.74459" lon="2.0176">
        <ele>1824.24</ele>
        <time>2017-02-11T09:48:27Z</time>
      </trkpt>
      <trkpt lat="42.74458" lon="2.01759">
        <ele>1823.76</ele>
        <time>2017-02-11T09:48:52Z</time>
      </trkpt>
      <trkpt lat="42.74458" lon="2.01755">
        <ele>1823.76</ele>
        <time>2017-02-11T09:49:04Z</time>
      </trkpt>
      <trkpt lat="42.74458" lon="2.01754">
        <ele>1824.24</ele>
        <time>2017-02-11T09:49:20Z</time>
      </trkpt>
      <trkpt lat="42.74458" lon="2.01756">
        <ele>1826.16</ele>
        <time>2017-02-11T09:49:55Z</time>
      </trkpt>
      <trkpt lat="42.74457" lon="2.01755">
        <ele>1825.68</ele>
        <time>2017-02-11T09:50:07Z</time>
      </trkpt>
      <trkpt lat="42.74457" lon="2.01756">
        <ele>1825.2</ele>
        <time>2017-02-11T09:50:37Z</time>
      </trkpt>
      <trkpt lat="42.74457" lon="2.01755">
        <ele>1825.2</ele>
        <time>2017-02-11T09:51:01Z</time>
      </trkpt>
      <trkpt lat="42.74457" lon="2.01755">
        <ele>1824.72</ele>
        <time>2017-02-11T09:51:13Z</time>
      </trkpt>
      <trkpt lat="42.74457" lon="2.01752">
        <ele>1824.24</ele>
        <time>2017-02-11T09:51:18Z</time>
      </trkpt>
      <trkpt lat="42.74457" lon="2.01733">
        <ele>1823.76</ele>
        <time>2017-02-11T09:51:33Z</time>
      </trkpt>
      <trkpt lat="42.74464" lon="2.01703">
        <ele>1822.32</ele>
        <time>2017-02-11T09:51:49Z</time>
      </trkpt>
      <trkpt lat="42.74466" lon="2.01692">
        <ele>1821.84</ele>
        <time>2017-02-11T09:52:05Z</time>
      </trkpt>
      <trkpt lat="42.74468" lon="2.01665">
        <ele>1820.39</ele>
        <time>2017-02-11T09:52:16Z</time>
      </trkpt>
      <trkpt lat="42.74475" lon="2.01656">
        <ele>1818.47</ele>
        <time>2017-02-11T09:52:21Z</time>
      </trkpt>
      <trkpt lat="42.74497" lon="2.01642">
        <ele>1815.11</ele>
        <time>2017-02-11T09:52:27Z</time>
      </trkpt>
      <trkpt lat="42.74533" lon="2.01616">
        <ele>1808.38</ele>
        <time>2017-02-11T09:52:36Z</time>
      </trkpt>
      <trkpt lat="42.74548" lon="2.01604">
        <ele>1805.97</ele>
        <time>2017-02-11T09:52:40Z</time>
      </trkpt>
      <trkpt lat="42.74583" lon="2.01576">
        <ele>1798.76</ele>
        <time>2017-02-11T09:52:48Z</time>
      </trkpt>
      <trkpt lat="42.74588" lon="2.01572">
        <ele>1797.8</ele>
        <time>2017-02-11T09:52:49Z</time>
      </trkpt>
      <trkpt lat="42.74619" lon="2.01546">
        <ele>1791.55</ele>
        <time>2017-02-11T09:52:55Z</time>
      </trkpt>
      <trkpt lat="42.74647" lon="2.01514">
        <ele>1785.79</ele>
        <time>2017-02-11T09:53:02Z</time>
      </trkpt>
      <trkpt lat="42.74655" lon="2.01506">
        <ele>1784.34</ele>
        <time>2017-02-11T09:53:04Z</time>
      </trkpt>
      <trkpt lat="42.747" lon="2.01477">
        <ele>1774.25</ele>
        <time>2017-02-11T09:53:13Z</time>
      </trkpt>
      <trkpt lat="42.74731" lon="2.01456">
        <ele>1768</ele>
        <time>2017-02-11T09:53:19Z</time>
      </trkpt>
      <trkpt lat="42.74745" lon="2.01434">
        <ele>1762.23</ele>
        <time>2017-02-11T09:53:24Z</time>
      </trkpt>
      <trkpt lat="42.74742" lon="2.01431">
        <ele>1762.71</ele>
        <time>2017-02-11T09:53:37Z</time>
      </trkpt>
      <trkpt lat="42.74742" lon="2.01432">
        <ele>1764.16</ele>
        <time>2017-02-11T09:53:57Z</time>
      </trkpt>
      <trkpt lat="42.74743" lon="2.01431">
        <ele>1764.64</ele>
        <time>2017-02-11T09:54:12Z</time>
      </trkpt>
      <trkpt lat="42.74743" lon="2.01423">
        <ele>1764.16</ele>
        <time>2017-02-11T09:54:16Z</time>
      </trkpt>
      <trkpt lat="42.74746" lon="2.01413">
        <ele>1763.68</ele>
        <time>2017-02-11T09:54:24Z</time>
      </trkpt>
      <trkpt lat="42.74748" lon="2.01408">
        <ele>1763.2</ele>
        <time>2017-02-11T09:54:31Z</time>
      </trkpt>
      <trkpt lat="42.74758" lon="2.01386">
        <ele>1760.31</ele>
        <time>2017-02-11T09:54:39Z</time>
      </trkpt>
      <trkpt lat="42.74787" lon="2.01376">
        <ele>1754.06</ele>
        <time>2017-02-11T09:54:45Z</time>
      </trkpt>
      <trkpt lat="42.74813" lon="2.0137">
        <ele>1746.37</ele>
        <time>2017-02-11T09:54:50Z</time>
      </trkpt>
      <trkpt lat="42.74827" lon="2.01366">
        <ele>1743.01</ele>
        <time>2017-02-11T09:54:53Z</time>
      </trkpt>
      <trkpt lat="42.74861" lon="2.01352">
        <ele>1732.91</ele>
        <time>2017-02-11T09:54:59Z</time>
      </trkpt>
      <trkpt lat="42.74872" lon="2.01339">
        <ele>1729.55</ele>
        <time>2017-02-11T09:55:02Z</time>
      </trkpt>
      <trkpt lat="42.74891" lon="2.01325">
        <ele>1725.22</ele>
        <time>2017-02-11T09:55:06Z</time>
      </trkpt>
      <trkpt lat="42.74915" lon="2.01305">
        <ele>1718.97</ele>
        <time>2017-02-11T09:55:12Z</time>
      </trkpt>
      <trkpt lat="42.74923" lon="2.01302">
        <ele>1716.57</ele>
        <time>2017-02-11T09:55:14Z</time>
      </trkpt>
      <trkpt lat="42.74925" lon="2.01306">
        <ele>1715.61</ele>
        <time>2017-02-11T09:55:25Z</time>
      </trkpt>
      <trkpt lat="42.74926" lon="2.01306">
        <ele>1716.09</ele>
        <time>2017-02-11T09:55:43Z</time>
      </trkpt>
      <trkpt lat="42.74925" lon="2.01305">
        <ele>1716.57</ele>
        <time>2017-02-11T09:56:04Z</time>
      </trkpt>
      <trkpt lat="42.74925" lon="2.01305">
        <ele>1717.53</ele>
        <time>2017-02-11T09:56:29Z</time>
      </trkpt>
      <trkpt lat="42.74925" lon="2.01305">
        <ele>1717.05</ele>
        <time>2017-02-11T09:56:45Z</time>
      </trkpt>
      <trkpt lat="42.74925" lon="2.01304">
        <ele>1718.01</ele>
        <time>2017-02-11T09:57:06Z</time>
      </trkpt>
      <trkpt lat="42.74927" lon="2.01305">
        <ele>1718.49</ele>
        <time>2017-02-11T09:57:20Z</time>
      </trkpt>
      <trkpt lat="42.74954" lon="2.01301">
        <ele>1711.28</ele>
        <time>2017-02-11T09:57:27Z</time>
      </trkpt>
      <trkpt lat="42.74981" lon="2.01279">
        <ele>1701.19</ele>
        <time>2017-02-11T09:57:33Z</time>
      </trkpt>
      <trkpt lat="42.75007" lon="2.0128">
        <ele>1690.62</ele>
        <time>2017-02-11T09:57:38Z</time>
      </trkpt>
      <trkpt lat="42.75018" lon="2.01262">
        <ele>1683.89</ele>
        <time>2017-02-11T09:57:42Z</time>
      </trkpt>
      <trkpt lat="42.75039" lon="2.01245">
        <ele>1675.23</ele>
        <time>2017-02-11T09:57:49Z</time>
      </trkpt>
      <trkpt lat="42.75057" lon="2.01206">
        <ele>1665.62</ele>
        <time>2017-02-11T09:57:56Z</time>
      </trkpt>
      <trkpt lat="42.75082" lon="2.01202">
        <ele>1656.01</ele>
        <time>2017-02-11T09:58:02Z</time>
      </trkpt>
      <trkpt lat="42.75098" lon="2.01201">
        <ele>1648.8</ele>
        <time>2017-02-11T09:58:07Z</time>
      </trkpt>
      <trkpt lat="42.75104" lon="2.01203">
        <ele>1646.88</ele>
        <time>2017-02-11T09:58:13Z</time>
      </trkpt>
      <trkpt lat="42.75104" lon="2.01205">
        <ele>1645.43</ele>
        <time>2017-02-11T09:58:27Z</time>
      </trkpt>
      <trkpt lat="42.75104" lon="2.01203">
        <ele>1646.4</ele>
        <time>2017-02-11T09:58:45Z</time>
      </trkpt>
      <trkpt lat="42.75104" lon="2.01203">
        <ele>1645.91</ele>
        <time>2017-02-11T09:59:00Z</time>
      </trkpt>
      <trkpt lat="42.75104" lon="2.01202">
        <ele>1646.88</ele>
        <time>2017-02-11T09:59:11Z</time>
      </trkpt>
      <trkpt lat="42.75104" lon="2.01203">
        <ele>1647.84</ele>
        <time>2017-02-11T09:59:18Z</time>
      </trkpt>
      <trkpt lat="42.75104" lon="2.01203">
        <ele>1651.68</ele>
        <time>2017-02-11T09:59:27Z</time>
      </trkpt>
      <trkpt lat="42.75104" lon="2.01204">
        <ele>1653.6</ele>
        <time>2017-02-11T09:59:47Z</time>
      </trkpt>
      <trkpt lat="42.75103" lon="2.01202">
        <ele>1654.09</ele>
        <time>2017-02-11T10:00:12Z</time>
      </trkpt>
      <trkpt lat="42.75101" lon="2.01203">
        <ele>1655.53</ele>
        <time>2017-02-11T10:00:39Z</time>
      </trkpt>
      <trkpt lat="42.75102" lon="2.012">
        <ele>1654.09</ele>
        <time>2017-02-11T10:01:23Z</time>
      </trkpt>
      <trkpt lat="42.75104" lon="2.01203">
        <ele>1649.28</ele>
        <time>2017-02-11T10:01:47Z</time>
      </trkpt>
      <trkpt lat="42.75105" lon="2.01202">
        <ele>1652.16</ele>
        <time>2017-02-11T10:02:06Z</time>
      </trkpt>
      <trkpt lat="42.75105" lon="2.01204">
        <ele>1652.64</ele>
        <time>2017-02-11T10:02:31Z</time>
      </trkpt>
      <trkpt lat="42.75105" lon="2.01205">
        <ele>1653.6</ele>
        <time>2017-02-11T10:03:01Z</time>
      </trkpt>
      <trkpt lat="42.75102" lon="2.01205">
        <ele>1653.12</ele>
        <time>2017-02-11T10:03:37Z</time>
      </trkpt>
      <trkpt lat="42.75102" lon="2.01205">
        <ele>1650.72</ele>
        <time>2017-02-11T10:04:11Z</time>
      </trkpt>
      <trkpt lat="42.75102" lon="2.01205">
        <ele>1649.76</ele>
        <time>2017-02-11T10:04:37Z</time>
      </trkpt>
      <trkpt lat="42.75101" lon="2.01202">
        <ele>1653.6</ele>
        <time>2017-02-11T10:05:21Z</time>
      </trkpt>
      <trkpt lat="42.75103" lon="2.01199">
        <ele>1653.6</ele>
        <time>2017-02-11T10:05:59Z</time>
      </trkpt>
      <trkpt lat="42.75104" lon="2.01201">
        <ele>1652.64</ele>
        <time>2017-02-11T10:06:31Z</time>
      </trkpt>
      <trkpt lat="42.75105" lon="2.01203">
        <ele>1652.16</ele>
        <time>2017-02-11T10:06:45Z</time>
      </trkpt>
      <trkpt lat="42.75105" lon="2.01203">
        <ele>1651.68</ele>
        <time>2017-02-11T10:07:08Z</time>
      </trkpt>
      <trkpt lat="42.75104" lon="2.01201">
        <ele>1653.6</ele>
        <time>2017-02-11T10:07:27Z</time>
      </trkpt>
      <trkpt lat="42.75105" lon="2.01199">
        <ele>1655.53</ele>
        <time>2017-02-11T10:07:51Z</time>
      </trkpt>
      <trkpt lat="42.75104" lon="2.01199">
        <ele>1652.64</ele>
        <time>2017-02-11T10:08:14Z</time>
      </trkpt>
      <trkpt lat="42.75104" lon="2.012">
        <ele>1651.68</ele>
        <time>2017-02-11T10:08:47Z</time>
      </trkpt>
      <trkpt lat="42.75102" lon="2.01203">
        <ele>1651.68</ele>
        <time>2017-02-11T10:09:18Z</time>
      </trkpt>
      <trkpt lat="42.75102" lon="2.01203">
        <ele>1650.72</ele>
        <time>2017-02-11T10:09:53Z</time>
      </trkpt>
      <trkpt lat="42.75103" lon="2.01202">
        <ele>1647.84</ele>
        <time>2017-02-11T10:10:24Z</time>
      </trkpt>
      <trkpt lat="42.75103" lon="2.01203">
        <ele>1648.32</ele>
        <time>2017-02-11T10:10:57Z</time>
      </trkpt>
      <trkpt lat="42.75102" lon="2.01204">
        <ele>1649.28</ele>
        <time>2017-02-11T10:11:25Z</time>
      </trkpt>
      <trkpt lat="42.75103" lon="2.01203">
        <ele>1647.36</ele>
        <time>2017-02-11T10:11:59Z</time>
      </trkpt>
      <trkpt lat="42.75104" lon="2.01203">
        <ele>1654.09</ele>
        <time>2017-02-11T10:12:12Z</time>
      </trkpt>
      <trkpt lat="42.75104" lon="2.01204">
        <ele>1650.72</ele>
        <time>2017-02-11T10:12:30Z</time>
      </trkpt>
      <trkpt lat="42.75103" lon="2.01205">
        <ele>1645.43</ele>
        <time>2017-02-11T10:12:47Z</time>
      </trkpt>
      <trkpt lat="42.75104" lon="2.01204">
        <ele>1647.84</ele>
        <time>2017-02-11T10:13:05Z</time>
      </trkpt>
      <trkpt lat="42.75104" lon="2.01204">
        <ele>1650.24</ele>
        <time>2017-02-11T10:13:31Z</time>
      </trkpt>
      <trkpt lat="42.75104" lon="2.01203">
        <ele>1648.8</ele>
        <time>2017-02-11T10:13:51Z</time>
      </trkpt>
      <trkpt lat="42.75104" lon="2.01203">
        <ele>1651.2</ele>
        <time>2017-02-11T10:14:12Z</time>
      </trkpt>
      <trkpt lat="42.75103" lon="2.01204">
        <ele>1648.32</ele>
        <time>2017-02-11T10:14:30Z</time>
      </trkpt>
      <trkpt lat="42.75104" lon="2.01203">
        <ele>1650.72</ele>
        <time>2017-02-11T10:14:58Z</time>
      </trkpt>
      <trkpt lat="42.75105" lon="2.01202">
        <ele>1649.28</ele>
        <time>2017-02-11T10:15:16Z</time>
      </trkpt>
      <trkpt lat="42.75102" lon="2.01204">
        <ele>1649.28</ele>
        <time>2017-02-11T10:15:36Z</time>
      </trkpt>
      <trkpt lat="42.75101" lon="2.01203">
        <ele>1650.24</ele>
        <time>2017-02-11T10:15:53Z</time>
      </trkpt>
      <trkpt lat="42.75102" lon="2.01204">
        <ele>1650.24</ele>
        <time>2017-02-11T10:16:11Z</time>
      </trkpt>
      <trkpt lat="42.75102" lon="2.01206">
        <ele>1647.84</ele>
        <time>2017-02-11T10:16:34Z</time>
      </trkpt>
      <trkpt lat="42.75102" lon="2.01206">
        <ele>1648.32</ele>
        <time>2017-02-11T10:16:51Z</time>
      </trkpt>
      <trkpt lat="42.75104" lon="2.01207">
        <ele>1648.8</ele>
        <time>2017-02-11T10:17:09Z</time>
      </trkpt>
      <trkpt lat="42.75104" lon="2.01208">
        <ele>1649.28</ele>
        <time>2017-02-11T10:17:31Z</time>
      </trkpt>
      <trkpt lat="42.75109" lon="2.0121">
        <ele>1650.24</ele>
        <time>2017-02-11T10:17:41Z</time>
      </trkpt>
      <trkpt lat="42.75119" lon="2.01212">
        <ele>1653.12</ele>
        <time>2017-02-11T10:17:59Z</time>
      </trkpt>
      <trkpt lat="42.75125" lon="2.01214">
        <ele>1654.09</ele>
        <time>2017-02-11T10:18:11Z</time>
      </trkpt>
      <trkpt lat="42.75133" lon="2.01217">
        <ele>1655.53</ele>
        <time>2017-02-11T10:18:25Z</time>
      </trkpt>
      <trkpt lat="42.75141" lon="2.0122">
        <ele>1658.41</ele>
        <time>2017-02-11T10:18:40Z</time>
      </trkpt>
      <trkpt lat="42.75149" lon="2.01221">
        <ele>1661.78</ele>
        <time>2017-02-11T10:18:55Z</time>
      </trkpt>
      <trkpt lat="42.75157" lon="2.01223">
        <ele>1662.26</ele>
        <time>2017-02-11T10:19:29Z</time>
      </trkpt>
      <trkpt lat="42.75164" lon="2.01224">
        <ele>1664.18</ele>
        <time>2017-02-11T10:19:44Z</time>
      </trkpt>
      <trkpt lat="42.75171" lon="2.01223">
        <ele>1666.1</ele>
        <time>2017-02-11T10:19:58Z</time>
      </trkpt>
      <trkpt lat="42.75176" lon="2.01224">
        <ele>1667.54</ele>
        <time>2017-02-11T10:20:09Z</time>
      </trkpt>
      <trkpt lat="42.75182" lon="2.01224">
        <ele>1668.99</ele>
        <time>2017-02-11T10:20:21Z</time>
      </trkpt>
      <trkpt lat="42.75188" lon="2.01224">
        <ele>1671.39</ele>
        <time>2017-02-11T10:20:34Z</time>
      </trkpt>
      <trkpt lat="42.75194" lon="2.01225">
        <ele>1674.27</ele>
        <time>2017-02-11T10:20:46Z</time>
      </trkpt>
      <trkpt lat="42.75201" lon="2.01225">
        <ele>1675.72</ele>
        <time>2017-02-11T10:21:00Z</time>
      </trkpt>
      <trkpt lat="42.75206" lon="2.01225">
        <ele>1679.08</ele>
        <time>2017-02-11T10:21:13Z</time>
      </trkpt>
      <trkpt lat="42.75203" lon="2.0123">
        <ele>1679.08</ele>
        <time>2017-02-11T10:21:25Z</time>
      </trkpt>
      <trkpt lat="42.752" lon="2.01237">
        <ele>1681</ele>
        <time>2017-02-11T10:21:39Z</time>
      </trkpt>
      <trkpt lat="42.75195" lon="2.01244">
        <ele>1681.96</ele>
        <time>2017-02-11T10:21:52Z</time>
      </trkpt>
      <trkpt lat="42.75194" lon="2.01245">
        <ele>1682.44</ele>
        <time>2017-02-11T10:22:07Z</time>
      </trkpt>
      <trkpt lat="42.75191" lon="2.01251">
        <ele>1684.85</ele>
        <time>2017-02-11T10:22:20Z</time>
      </trkpt>
      <trkpt lat="42.75187" lon="2.01258">
        <ele>1685.81</ele>
        <time>2017-02-11T10:22:33Z</time>
      </trkpt>
      <trkpt lat="42.75184" lon="2.01264">
        <ele>1687.25</ele>
        <time>2017-02-11T10:22:47Z</time>
      </trkpt>
      <trkpt lat="42.75182" lon="2.01271">
        <ele>1686.29</ele>
        <time>2017-02-11T10:23:00Z</time>
      </trkpt>
      <trkpt lat="42.75178" lon="2.01278">
        <ele>1688.69</ele>
        <time>2017-02-11T10:23:13Z</time>
      </trkpt>
      <trkpt lat="42.75176" lon="2.01285">
        <ele>1689.17</ele>
        <time>2017-02-11T10:23:29Z</time>
      </trkpt>
      <trkpt lat="42.75172" lon="2.01292">
        <ele>1690.62</ele>
        <time>2017-02-11T10:23:43Z</time>
      </trkpt>
      <trkpt lat="42.75169" lon="2.01299">
        <ele>1692.06</ele>
        <time>2017-02-11T10:23:55Z</time>
      </trkpt>
      <trkpt lat="42.75166" lon="2.01307">
        <ele>1693.98</ele>
        <time>2017-02-11T10:24:09Z</time>
      </trkpt>
      <trkpt lat="42.75161" lon="2.01315">
        <ele>1695.9</ele>
        <time>2017-02-11T10:24:23Z</time>
      </trkpt>
      <trkpt lat="42.75158" lon="2.01322">
        <ele>1697.34</ele>
        <time>2017-02-11T10:24:35Z</time>
      </trkpt>
      <trkpt lat="42.75159" lon="2.01322">
        <ele>1700.23</ele>
        <time>2017-02-11T10:24:49Z</time>
      </trkpt>
      <trkpt lat="42.75156" lon="2.01327">
        <ele>1699.75</ele>
        <time>2017-02-11T10:25:01Z</time>
      </trkpt>
      <trkpt lat="42.75153" lon="2.01335">
        <ele>1701.19</ele>
        <time>2017-02-11T10:25:13Z</time>
      </trkpt>
      <trkpt lat="42.75149" lon="2.01341">
        <ele>1703.11</ele>
        <time>2017-02-11T10:25:26Z</time>
      </trkpt>
      <trkpt lat="42.75144" lon="2.01352">
        <ele>1705.52</ele>
        <time>2017-02-11T10:25:40Z</time>
      </trkpt>
      <trkpt lat="42.75141" lon="2.0136">
        <ele>1704.55</ele>
        <time>2017-02-11T10:25:55Z</time>
      </trkpt>
      <trkpt lat="42.75137" lon="2.01366">
        <ele>1706.48</ele>
        <time>2017-02-11T10:26:08Z</time>
      </trkpt>
      <trkpt lat="42.75133" lon="2.01373">
        <ele>1708.88</ele>
        <time>2017-02-11T10:26:17Z</time>
      </trkpt>
      <trkpt lat="42.7514" lon="2.01377">
        <ele>1712.25</ele>
        <time>2017-02-11T10:26:28Z</time>
      </trkpt>
      <trkpt lat="42.75141" lon="2.01377">
        <ele>1712.73</ele>
        <time>2017-02-11T10:26:29Z</time>
      </trkpt>
      <trkpt lat="42.75148" lon="2.01378">
        <ele>1714.65</ele>
        <time>2017-02-11T10:26:44Z</time>
      </trkpt>
      <trkpt lat="42.75154" lon="2.0138">
        <ele>1717.53</ele>
        <time>2017-02-11T10:26:58Z</time>
      </trkpt>
      <trkpt lat="42.7516" lon="2.0138">
        <ele>1717.53</ele>
        <time>2017-02-11T10:27:09Z</time>
      </trkpt>
      <trkpt lat="42.75167" lon="2.0138">
        <ele>1718.49</ele>
        <time>2017-02-11T10:27:27Z</time>
      </trkpt>
      <trkpt lat="42.75175" lon="2.0138">
        <ele>1721.38</ele>
        <time>2017-02-11T10:27:39Z</time>
      </trkpt>
      <trkpt lat="42.7518" lon="2.0138">
        <ele>1722.82</ele>
        <time>2017-02-11T10:27:51Z</time>
      </trkpt>
      <trkpt lat="42.7518" lon="2.0138">
        <ele>1722.82</ele>
        <time>2017-02-11T10:27:52Z</time>
      </trkpt>
      <trkpt lat="42.75178" lon="2.01386">
        <ele>1724.26</ele>
        <time>2017-02-11T10:28:02Z</time>
      </trkpt>
      <trkpt lat="42.75178" lon="2.01394">
        <ele>1725.22</ele>
        <time>2017-02-11T10:28:15Z</time>
      </trkpt>
      <trkpt lat="42.75178" lon="2.01396">
        <ele>1726.18</ele>
        <time>2017-02-11T10:28:18Z</time>
      </trkpt>
      <trkpt lat="42.75176" lon="2.01402">
        <ele>1727.63</ele>
        <time>2017-02-11T10:28:31Z</time>
      </trkpt>
      <trkpt lat="42.75176" lon="2.01411">
        <ele>1728.59</ele>
        <time>2017-02-11T10:28:44Z</time>
      </trkpt>
      <trkpt lat="42.75177" lon="2.01418">
        <ele>1730.03</ele>
        <time>2017-02-11T10:28:56Z</time>
      </trkpt>
      <trkpt lat="42.75176" lon="2.01425">
        <ele>1732.91</ele>
        <time>2017-02-11T10:29:12Z</time>
      </trkpt>
      <trkpt lat="42.75175" lon="2.01433">
        <ele>1734.36</ele>
        <time>2017-02-11T10:29:22Z</time>
      </trkpt>
      <trkpt lat="42.75174" lon="2.01442">
        <ele>1734.84</ele>
        <time>2017-02-11T10:29:36Z</time>
      </trkpt>
      <trkpt lat="42.75173" lon="2.01452">
        <ele>1737.72</ele>
        <time>2017-02-11T10:29:50Z</time>
      </trkpt>
      <trkpt lat="42.75173" lon="2.01462">
        <ele>1739.64</ele>
        <time>2017-02-11T10:30:01Z</time>
      </trkpt>
      <trkpt lat="42.75173" lon="2.0147">
        <ele>1741.57</ele>
        <time>2017-02-11T10:30:12Z</time>
      </trkpt>
      <trkpt lat="42.75173" lon="2.0148">
        <ele>1740.12</ele>
        <time>2017-02-11T10:30:26Z</time>
      </trkpt>
      <trkpt lat="42.75173" lon="2.01489">
        <ele>1741.08</ele>
        <time>2017-02-11T10:30:41Z</time>
      </trkpt>
      <trkpt lat="42.75172" lon="2.01498">
        <ele>1744.45</ele>
        <time>2017-02-11T10:30:54Z</time>
      </trkpt>
      <trkpt lat="42.75171" lon="2.0151">
        <ele>1745.89</ele>
        <time>2017-02-11T10:31:07Z</time>
      </trkpt>
      <trkpt lat="42.7517" lon="2.01519">
        <ele>1746.85</ele>
        <time>2017-02-11T10:31:22Z</time>
      </trkpt>
      <trkpt lat="42.7517" lon="2.01524">
        <ele>1747.33</ele>
        <time>2017-02-11T10:31:37Z</time>
      </trkpt>
      <trkpt lat="42.7517" lon="2.01523">
        <ele>1749.74</ele>
        <time>2017-02-11T10:32:01Z</time>
      </trkpt>
      <trkpt lat="42.75171" lon="2.01531">
        <ele>1750.22</ele>
        <time>2017-02-11T10:32:20Z</time>
      </trkpt>
      <trkpt lat="42.75171" lon="2.01543">
        <ele>1752.14</ele>
        <time>2017-02-11T10:32:34Z</time>
      </trkpt>
      <trkpt lat="42.75178" lon="2.01551">
        <ele>1752.62</ele>
        <time>2017-02-11T10:32:49Z</time>
      </trkpt>
      <trkpt lat="42.75185" lon="2.01554">
        <ele>1755.02</ele>
        <time>2017-02-11T10:33:00Z</time>
      </trkpt>
      <trkpt lat="42.75191" lon="2.01557">
        <ele>1758.39</ele>
        <time>2017-02-11T10:33:13Z</time>
      </trkpt>
      <trkpt lat="42.75196" lon="2.01559">
        <ele>1761.27</ele>
        <time>2017-02-11T10:33:26Z</time>
      </trkpt>
      <trkpt lat="42.75203" lon="2.01563">
        <ele>1763.2</ele>
        <time>2017-02-11T10:33:42Z</time>
      </trkpt>
      <trkpt lat="42.7521" lon="2.01566">
        <ele>1766.56</ele>
        <time>2017-02-11T10:33:56Z</time>
      </trkpt>
      <trkpt lat="42.75217" lon="2.01572">
        <ele>1769.44</ele>
        <time>2017-02-11T10:34:07Z</time>
      </trkpt>
      <trkpt lat="42.75223" lon="2.01579">
        <ele>1768</ele>
        <time>2017-02-11T10:34:21Z</time>
      </trkpt>
      <trkpt lat="42.75226" lon="2.01581">
        <ele>1766.56</ele>
        <time>2017-02-11T10:34:33Z</time>
      </trkpt>
      <trkpt lat="42.75226" lon="2.01581">
        <ele>1765.6</ele>
        <time>2017-02-11T10:34:52Z</time>
      </trkpt>
      <trkpt lat="42.75226" lon="2.01581">
        <ele>1766.08</ele>
        <time>2017-02-11T10:35:28Z</time>
      </trkpt>
      <trkpt lat="42.75227" lon="2.01581">
        <ele>1766.08</ele>
        <time>2017-02-11T10:35:54Z</time>
      </trkpt>
      <trkpt lat="42.75226" lon="2.01582">
        <ele>1767.04</ele>
        <time>2017-02-11T10:36:17Z</time>
      </trkpt>
      <trkpt lat="42.75225" lon="2.01582">
        <ele>1768</ele>
        <time>2017-02-11T10:36:35Z</time>
      </trkpt>
      <trkpt lat="42.75224" lon="2.01583">
        <ele>1768.48</ele>
        <time>2017-02-11T10:37:02Z</time>
      </trkpt>
      <trkpt lat="42.75224" lon="2.01583">
        <ele>1768.96</ele>
        <time>2017-02-11T10:37:31Z</time>
      </trkpt>
      <trkpt lat="42.75225" lon="2.01583">
        <ele>1768.96</ele>
        <time>2017-02-11T10:38:00Z</time>
      </trkpt>
      <trkpt lat="42.75224" lon="2.01583">
        <ele>1769.44</ele>
        <time>2017-02-11T10:38:27Z</time>
      </trkpt>
      <trkpt lat="42.75225" lon="2.01583">
        <ele>1770.41</ele>
        <time>2017-02-11T10:38:49Z</time>
      </trkpt>
      <trkpt lat="42.75225" lon="2.01583">
        <ele>1770.89</ele>
        <time>2017-02-11T10:39:09Z</time>
      </trkpt>
      <trkpt lat="42.75224" lon="2.01583">
        <ele>1770.41</ele>
        <time>2017-02-11T10:39:35Z</time>
      </trkpt>
      <trkpt lat="42.75223" lon="2.01584">
        <ele>1768.96</ele>
        <time>2017-02-11T10:39:59Z</time>
      </trkpt>
      <trkpt lat="42.75224" lon="2.01586">
        <ele>1768</ele>
        <time>2017-02-11T10:40:15Z</time>
      </trkpt>
      <trkpt lat="42.7523" lon="2.01591">
        <ele>1768</ele>
        <time>2017-02-11T10:40:26Z</time>
      </trkpt>
      <trkpt lat="42.75235" lon="2.01594">
        <ele>1768.96</ele>
        <time>2017-02-11T10:40:32Z</time>
      </trkpt>
      <trkpt lat="42.75243" lon="2.016">
        <ele>1770.41</ele>
        <time>2017-02-11T10:40:45Z</time>
      </trkpt>
      <trkpt lat="42.75247" lon="2.01604">
        <ele>1769.92</ele>
        <time>2017-02-11T10:40:51Z</time>
      </trkpt>
      <trkpt lat="42.75257" lon="2.01611">
        <ele>1770.89</ele>
        <time>2017-02-11T10:41:05Z</time>
      </trkpt>
      <trkpt lat="42.75261" lon="2.01613">
        <ele>1771.37</ele>
        <time>2017-02-11T10:41:10Z</time>
      </trkpt>
      <trkpt lat="42.75267" lon="2.01617">
        <ele>1771.37</ele>
        <time>2017-02-11T10:41:19Z</time>
      </trkpt>
      <trkpt lat="42.75274" lon="2.01621">
        <ele>1771.85</ele>
        <time>2017-02-11T10:41:28Z</time>
      </trkpt>
      <trkpt lat="42.75285" lon="2.01629">
        <ele>1772.81</ele>
        <time>2017-02-11T10:41:43Z</time>
      </trkpt>
      <trkpt lat="42.75293" lon="2.01638">
        <ele>1773.77</ele>
        <time>2017-02-11T10:41:56Z</time>
      </trkpt>
      <trkpt lat="42.75301" lon="2.01646">
        <ele>1774.25</ele>
        <time>2017-02-11T10:42:10Z</time>
      </trkpt>
      <trkpt lat="42.75311" lon="2.01651">
        <ele>1775.69</ele>
        <time>2017-02-11T10:42:23Z</time>
      </trkpt>
      <trkpt lat="42.75319" lon="2.01654">
        <ele>1778.1</ele>
        <time>2017-02-11T10:42:37Z</time>
      </trkpt>
      <trkpt lat="42.75327" lon="2.01659">
        <ele>1780.02</ele>
        <time>2017-02-11T10:42:49Z</time>
      </trkpt>
      <trkpt lat="42.75335" lon="2.01662">
        <ele>1782.42</ele>
        <time>2017-02-11T10:43:00Z</time>
      </trkpt>
      <trkpt lat="42.75342" lon="2.01665">
        <ele>1782.42</ele>
        <time>2017-02-11T10:43:15Z</time>
      </trkpt>
      <trkpt lat="42.75347" lon="2.01667">
        <ele>1785.79</ele>
        <time>2017-02-11T10:43:27Z</time>
      </trkpt>
      <trkpt lat="42.75353" lon="2.01666">
        <ele>1786.27</ele>
        <time>2017-02-11T10:43:45Z</time>
      </trkpt>
      <trkpt lat="42.75358" lon="2.01664">
        <ele>1789.63</ele>
        <time>2017-02-11T10:43:56Z</time>
      </trkpt>
      <trkpt lat="42.75365" lon="2.01661">
        <ele>1790.11</ele>
        <time>2017-02-11T10:44:06Z</time>
      </trkpt>
      <trkpt lat="42.75374" lon="2.01658">
        <ele>1791.55</ele>
        <time>2017-02-11T10:44:21Z</time>
      </trkpt>
      <trkpt lat="42.75382" lon="2.01657">
        <ele>1793.48</ele>
        <time>2017-02-11T10:44:35Z</time>
      </trkpt>
      <trkpt lat="42.75391" lon="2.01658">
        <ele>1795.88</ele>
        <time>2017-02-11T10:44:47Z</time>
      </trkpt>
      <trkpt lat="42.75397" lon="2.0166">
        <ele>1798.28</ele>
        <time>2017-02-11T10:45:00Z</time>
      </trkpt>
      <trkpt lat="42.75399" lon="2.0166">
        <ele>1798.28</ele>
        <time>2017-02-11T10:45:03Z</time>
      </trkpt>
      <trkpt lat="42.75406" lon="2.01667">
        <ele>1799.73</ele>
        <time>2017-02-11T10:45:16Z</time>
      </trkpt>
      <trkpt lat="42.7541" lon="2.0167">
        <ele>1799.73</ele>
        <time>2017-02-11T10:45:28Z</time>
      </trkpt>
      <trkpt lat="42.75416" lon="2.01674">
        <ele>1800.69</ele>
        <time>2017-02-11T10:45:48Z</time>
      </trkpt>
      <trkpt lat="42.75422" lon="2.01678">
        <ele>1799.73</ele>
        <time>2017-02-11T10:46:00Z</time>
      </trkpt>
      <trkpt lat="42.75428" lon="2.01683">
        <ele>1799.73</ele>
        <time>2017-02-11T10:46:12Z</time>
      </trkpt>
      <trkpt lat="42.75433" lon="2.01689">
        <ele>1798.76</ele>
        <time>2017-02-11T10:46:23Z</time>
      </trkpt>
      <trkpt lat="42.75439" lon="2.01695">
        <ele>1797.32</ele>
        <time>2017-02-11T10:46:39Z</time>
      </trkpt>
      <trkpt lat="42.75441" lon="2.01697">
        <ele>1795.88</ele>
        <time>2017-02-11T10:46:50Z</time>
      </trkpt>
      <trkpt lat="42.75449" lon="2.01701">
        <ele>1797.8</ele>
        <time>2017-02-11T10:47:02Z</time>
      </trkpt>
      <trkpt lat="42.75452" lon="2.01705">
        <ele>1797.8</ele>
        <time>2017-02-11T10:47:14Z</time>
      </trkpt>
      <trkpt lat="42.75455" lon="2.0171">
        <ele>1796.84</ele>
        <time>2017-02-11T10:47:30Z</time>
      </trkpt>
      <trkpt lat="42.75456" lon="2.01713">
        <ele>1796.36</ele>
        <time>2017-02-11T10:47:33Z</time>
      </trkpt>
      <trkpt lat="42.75457" lon="2.01717">
        <ele>1795.88</ele>
        <time>2017-02-11T10:47:37Z</time>
      </trkpt>
      <trkpt lat="42.75464" lon="2.01728">
        <ele>1796.36</ele>
        <time>2017-02-11T10:47:51Z</time>
      </trkpt>
      <trkpt lat="42.75467" lon="2.01732">
        <ele>1795.88</ele>
        <time>2017-02-11T10:47:58Z</time>
      </trkpt>
      <trkpt lat="42.75479" lon="2.01734">
        <ele>1797.8</ele>
        <time>2017-02-11T10:48:13Z</time>
      </trkpt>
      <trkpt lat="42.75488" lon="2.01737">
        <ele>1799.24</ele>
        <time>2017-02-11T10:48:27Z</time>
      </trkpt>
      <trkpt lat="42.75498" lon="2.01739">
        <ele>1801.65</ele>
        <time>2017-02-11T10:48:42Z</time>
      </trkpt>
      <trkpt lat="42.75507" lon="2.01742">
        <ele>1803.09</ele>
        <time>2017-02-11T10:48:56Z</time>
      </trkpt>
      <trkpt lat="42.75512" lon="2.01742">
        <ele>1804.05</ele>
        <time>2017-02-11T10:49:10Z</time>
      </trkpt>
      <trkpt lat="42.75513" lon="2.01743">
        <ele>1803.09</ele>
        <time>2017-02-11T10:49:29Z</time>
      </trkpt>
      <trkpt lat="42.75517" lon="2.01744">
        <ele>1804.05</ele>
        <time>2017-02-11T10:49:43Z</time>
      </trkpt>
      <trkpt lat="42.75521" lon="2.01745">
        <ele>1805.49</ele>
        <time>2017-02-11T10:49:55Z</time>
      </trkpt>
      <trkpt lat="42.75525" lon="2.01748">
        <ele>1804.05</ele>
        <time>2017-02-11T10:50:22Z</time>
      </trkpt>
      <trkpt lat="42.75529" lon="2.0175">
        <ele>1805.01</ele>
        <time>2017-02-11T10:50:36Z</time>
      </trkpt>
      <trkpt lat="42.75536" lon="2.01752">
        <ele>1808.38</ele>
        <time>2017-02-11T10:50:48Z</time>
      </trkpt>
      <trkpt lat="42.75542" lon="2.01756">
        <ele>1811.74</ele>
        <time>2017-02-11T10:51:02Z</time>
      </trkpt>
      <trkpt lat="42.75545" lon="2.01759">
        <ele>1813.66</ele>
        <time>2017-02-11T10:51:14Z</time>
      </trkpt>
      <trkpt lat="42.75552" lon="2.01762">
        <ele>1814.15</ele>
        <time>2017-02-11T10:51:26Z</time>
      </trkpt>
      <trkpt lat="42.75557" lon="2.01763">
        <ele>1817.51</ele>
        <time>2017-02-11T10:51:37Z</time>
      </trkpt>
      <trkpt lat="42.75562" lon="2.01757">
        <ele>1817.99</ele>
        <time>2017-02-11T10:51:51Z</time>
      </trkpt>
      <trkpt lat="42.75564" lon="2.01756">
        <ele>1817.99</ele>
        <time>2017-02-11T10:52:13Z</time>
      </trkpt>
      <trkpt lat="42.75567" lon="2.01753">
        <ele>1820.39</ele>
        <time>2017-02-11T10:52:34Z</time>
      </trkpt>
      <trkpt lat="42.7557" lon="2.01751">
        <ele>1822.8</ele>
        <time>2017-02-11T10:52:45Z</time>
      </trkpt>
      <trkpt lat="42.75577" lon="2.0175">
        <ele>1826.16</ele>
        <time>2017-02-11T10:52:58Z</time>
      </trkpt>
      <trkpt lat="42.75583" lon="2.01755">
        <ele>1827.12</ele>
        <time>2017-02-11T10:53:11Z</time>
      </trkpt>
      <trkpt lat="42.75586" lon="2.01757">
        <ele>1829.05</ele>
        <time>2017-02-11T10:53:28Z</time>
      </trkpt>
      <trkpt lat="42.7559" lon="2.01762">
        <ele>1831.93</ele>
        <time>2017-02-11T10:53:40Z</time>
      </trkpt>
      <trkpt lat="42.75597" lon="2.01769">
        <ele>1832.89</ele>
        <time>2017-02-11T10:53:55Z</time>
      </trkpt>
      <trkpt lat="42.75602" lon="2.01774">
        <ele>1834.81</ele>
        <time>2017-02-11T10:54:09Z</time>
      </trkpt>
      <trkpt lat="42.75605" lon="2.01777">
        <ele>1835.29</ele>
        <time>2017-02-11T10:54:30Z</time>
      </trkpt>
      <trkpt lat="42.75611" lon="2.01781">
        <ele>1838.18</ele>
        <time>2017-02-11T10:54:41Z</time>
      </trkpt>
      <trkpt lat="42.75615" lon="2.01785">
        <ele>1838.66</ele>
        <time>2017-02-11T10:54:56Z</time>
      </trkpt>
      <trkpt lat="42.75622" lon="2.01788">
        <ele>1840.58</ele>
        <time>2017-02-11T10:55:10Z</time>
      </trkpt>
      <trkpt lat="42.75624" lon="2.0179">
        <ele>1840.58</ele>
        <time>2017-02-11T10:55:24Z</time>
      </trkpt>
      <trkpt lat="42.75631" lon="2.01793">
        <ele>1841.54</ele>
        <time>2017-02-11T10:55:37Z</time>
      </trkpt>
      <trkpt lat="42.75638" lon="2.01795">
        <ele>1844.91</ele>
        <time>2017-02-11T10:55:50Z</time>
      </trkpt>
      <trkpt lat="42.75644" lon="2.01798">
        <ele>1847.31</ele>
        <time>2017-02-11T10:56:04Z</time>
      </trkpt>
      <trkpt lat="42.75648" lon="2.01799">
        <ele>1847.79</ele>
        <time>2017-02-11T10:56:16Z</time>
      </trkpt>
      <trkpt lat="42.75652" lon="2.01802">
        <ele>1850.68</ele>
        <time>2017-02-11T10:56:30Z</time>
      </trkpt>
      <trkpt lat="42.75658" lon="2.01806">
        <ele>1852.12</ele>
        <time>2017-02-11T10:56:46Z</time>
      </trkpt>
      <trkpt lat="42.75663" lon="2.01809">
        <ele>1853.08</ele>
        <time>2017-02-11T10:56:57Z</time>
      </trkpt>
      <trkpt lat="42.75666" lon="2.01812">
        <ele>1853.56</ele>
        <time>2017-02-11T10:57:11Z</time>
      </trkpt>
      <trkpt lat="42.75669" lon="2.01812">
        <ele>1854.52</ele>
        <time>2017-02-11T10:57:26Z</time>
      </trkpt>
      <trkpt lat="42.75675" lon="2.01813">
        <ele>1855.48</ele>
        <time>2017-02-11T10:57:40Z</time>
      </trkpt>
      <trkpt lat="42.75682" lon="2.01812">
        <ele>1859.33</ele>
        <time>2017-02-11T10:57:53Z</time>
      </trkpt>
      <trkpt lat="42.7569" lon="2.01809">
        <ele>1859.81</ele>
        <time>2017-02-11T10:58:07Z</time>
      </trkpt>
      <trkpt lat="42.75694" lon="2.01807">
        <ele>1862.69</ele>
        <time>2017-02-11T10:58:19Z</time>
      </trkpt>
      <trkpt lat="42.75699" lon="2.01803">
        <ele>1865.58</ele>
        <time>2017-02-11T10:58:33Z</time>
      </trkpt>
      <trkpt lat="42.75705" lon="2.018">
        <ele>1867.02</ele>
        <time>2017-02-11T10:58:45Z</time>
      </trkpt>
      <trkpt lat="42.75707" lon="2.018">
        <ele>1867.02</ele>
        <time>2017-02-11T10:59:00Z</time>
      </trkpt>
      <trkpt lat="42.75715" lon="2.01793">
        <ele>1868.46</ele>
        <time>2017-02-11T10:59:16Z</time>
      </trkpt>
      <trkpt lat="42.75723" lon="2.01789">
        <ele>1869.42</ele>
        <time>2017-02-11T10:59:31Z</time>
      </trkpt>
      <trkpt lat="42.75726" lon="2.01787">
        <ele>1871.82</ele>
        <time>2017-02-11T10:59:41Z</time>
      </trkpt>
      <trkpt lat="42.75729" lon="2.01786">
        <ele>1873.75</ele>
        <time>2017-02-11T10:59:54Z</time>
      </trkpt>
      <trkpt lat="42.75733" lon="2.01784">
        <ele>1874.71</ele>
        <time>2017-02-11T11:00:05Z</time>
      </trkpt>
      <trkpt lat="42.75735" lon="2.01783">
        <ele>1875.19</ele>
        <time>2017-02-11T11:00:34Z</time>
      </trkpt>
      <trkpt lat="42.75741" lon="2.0178">
        <ele>1877.59</ele>
        <time>2017-02-11T11:00:45Z</time>
      </trkpt>
      <trkpt lat="42.75744" lon="2.01779">
        <ele>1878.07</ele>
        <time>2017-02-11T11:01:01Z</time>
      </trkpt>
      <trkpt lat="42.7575" lon="2.01775">
        <ele>1878.07</ele>
        <time>2017-02-11T11:01:15Z</time>
      </trkpt>
      <trkpt lat="42.75755" lon="2.01772">
        <ele>1880.48</ele>
        <time>2017-02-11T11:01:26Z</time>
      </trkpt>
      <trkpt lat="42.7576" lon="2.01767">
        <ele>1882.88</ele>
        <time>2017-02-11T11:01:38Z</time>
      </trkpt>
      <trkpt lat="42.75763" lon="2.01764">
        <ele>1885.28</ele>
        <time>2017-02-11T11:01:49Z</time>
      </trkpt>
      <trkpt lat="42.75769" lon="2.01759">
        <ele>1887.21</ele>
        <time>2017-02-11T11:02:01Z</time>
      </trkpt>
      <trkpt lat="42.75773" lon="2.01756">
        <ele>1887.69</ele>
        <time>2017-02-11T11:02:14Z</time>
      </trkpt>
      <trkpt lat="42.75774" lon="2.01755">
        <ele>1886.72</ele>
        <time>2017-02-11T11:02:36Z</time>
      </trkpt>
      <trkpt lat="42.75775" lon="2.01751">
        <ele>1888.17</ele>
        <time>2017-02-11T11:02:46Z</time>
      </trkpt>
      <trkpt lat="42.75778" lon="2.0175">
        <ele>1889.13</ele>
        <time>2017-02-11T11:03:13Z</time>
      </trkpt>
      <trkpt lat="42.75785" lon="2.01748">
        <ele>1891.05</ele>
        <time>2017-02-11T11:03:25Z</time>
      </trkpt>
      <trkpt lat="42.75791" lon="2.01749">
        <ele>1892.49</ele>
        <time>2017-02-11T11:03:35Z</time>
      </trkpt>
      <trkpt lat="42.75795" lon="2.01754">
        <ele>1895.38</ele>
        <time>2017-02-11T11:03:46Z</time>
      </trkpt>
      <trkpt lat="42.75801" lon="2.01758">
        <ele>1896.82</ele>
        <time>2017-02-11T11:04:00Z</time>
      </trkpt>
      <trkpt lat="42.75806" lon="2.01761">
        <ele>1898.26</ele>
        <time>2017-02-11T11:04:13Z</time>
      </trkpt>
      <trkpt lat="42.75808" lon="2.01764">
        <ele>1900.66</ele>
        <time>2017-02-11T11:04:24Z</time>
      </trkpt>
      <trkpt lat="42.75813" lon="2.01769">
        <ele>1902.11</ele>
        <time>2017-02-11T11:04:39Z</time>
      </trkpt>
      <trkpt lat="42.75819" lon="2.01773">
        <ele>1905.47</ele>
        <time>2017-02-11T11:04:56Z</time>
      </trkpt>
      <trkpt lat="42.75824" lon="2.01778">
        <ele>1908.35</ele>
        <time>2017-02-11T11:05:09Z</time>
      </trkpt>
      <trkpt lat="42.7583" lon="2.01782">
        <ele>1910.76</ele>
        <time>2017-02-11T11:05:20Z</time>
      </trkpt>
      <trkpt lat="42.75831" lon="2.01784">
        <ele>1911.72</ele>
        <time>2017-02-11T11:05:31Z</time>
      </trkpt>
      <trkpt lat="42.75835" lon="2.01788">
        <ele>1914.6</ele>
        <time>2017-02-11T11:05:44Z</time>
      </trkpt>
      <trkpt lat="42.75841" lon="2.01793">
        <ele>1917.97</ele>
        <time>2017-02-11T11:05:57Z</time>
      </trkpt>
      <trkpt lat="42.75846" lon="2.01798">
        <ele>1918.93</ele>
        <time>2017-02-11T11:06:12Z</time>
      </trkpt>
      <trkpt lat="42.75849" lon="2.01802">
        <ele>1920.85</ele>
        <time>2017-02-11T11:06:22Z</time>
      </trkpt>
      <trkpt lat="42.75851" lon="2.018">
        <ele>1921.33</ele>
        <time>2017-02-11T11:06:33Z</time>
      </trkpt>
      <trkpt lat="42.75855" lon="2.01794">
        <ele>1922.77</ele>
        <time>2017-02-11T11:06:46Z</time>
      </trkpt>
      <trkpt lat="42.75858" lon="2.01791">
        <ele>1924.7</ele>
        <time>2017-02-11T11:06:58Z</time>
      </trkpt>
      <trkpt lat="42.75862" lon="2.01797">
        <ele>1925.66</ele>
        <time>2017-02-11T11:07:09Z</time>
      </trkpt>
      <trkpt lat="42.75866" lon="2.01803">
        <ele>1927.58</ele>
        <time>2017-02-11T11:07:23Z</time>
      </trkpt>
      <trkpt lat="42.75869" lon="2.01808">
        <ele>1929.02</ele>
        <time>2017-02-11T11:07:34Z</time>
      </trkpt>
      <trkpt lat="42.75873" lon="2.01815">
        <ele>1930.95</ele>
        <time>2017-02-11T11:07:48Z</time>
      </trkpt>
      <trkpt lat="42.75876" lon="2.0182">
        <ele>1931.91</ele>
        <time>2017-02-11T11:07:59Z</time>
      </trkpt>
      <trkpt lat="42.75877" lon="2.01822">
        <ele>1930.95</ele>
        <time>2017-02-11T11:08:16Z</time>
      </trkpt>
      <trkpt lat="42.75881" lon="2.01826">
        <ele>1933.83</ele>
        <time>2017-02-11T11:08:28Z</time>
      </trkpt>
      <trkpt lat="42.75885" lon="2.01832">
        <ele>1936.23</ele>
        <time>2017-02-11T11:08:42Z</time>
      </trkpt>
      <trkpt lat="42.75888" lon="2.01837">
        <ele>1938.16</ele>
        <time>2017-02-11T11:08:55Z</time>
      </trkpt>
      <trkpt lat="42.75893" lon="2.01842">
        <ele>1937.67</ele>
        <time>2017-02-11T11:09:08Z</time>
      </trkpt>
      <trkpt lat="42.75899" lon="2.01848">
        <ele>1940.08</ele>
        <time>2017-02-11T11:09:22Z</time>
      </trkpt>
      <trkpt lat="42.75905" lon="2.01854">
        <ele>1942.48</ele>
        <time>2017-02-11T11:09:38Z</time>
      </trkpt>
      <trkpt lat="42.75913" lon="2.01859">
        <ele>1943.44</ele>
        <time>2017-02-11T11:09:52Z</time>
      </trkpt>
      <trkpt lat="42.75919" lon="2.01863">
        <ele>1946.81</ele>
        <time>2017-02-11T11:10:04Z</time>
      </trkpt>
      <trkpt lat="42.75924" lon="2.01867">
        <ele>1950.65</ele>
        <time>2017-02-11T11:10:18Z</time>
      </trkpt>
      <trkpt lat="42.75929" lon="2.01867">
        <ele>1953.54</ele>
        <time>2017-02-11T11:10:32Z</time>
      </trkpt>
      <trkpt lat="42.75938" lon="2.01864">
        <ele>1954.02</ele>
        <time>2017-02-11T11:10:47Z</time>
      </trkpt>
      <trkpt lat="42.75942" lon="2.0186">
        <ele>1954.5</ele>
        <time>2017-02-11T11:10:57Z</time>
      </trkpt>
      <trkpt lat="42.75941" lon="2.0186">
        <ele>1954.02</ele>
        <time>2017-02-11T11:11:13Z</time>
      </trkpt>
      <trkpt lat="42.75942" lon="2.0186">
        <ele>1952.57</ele>
        <time>2017-02-11T11:11:27Z</time>
      </trkpt>
      <trkpt lat="42.75943" lon="2.0186">
        <ele>1952.57</ele>
        <time>2017-02-11T11:11:36Z</time>
      </trkpt>
      <trkpt lat="42.75943" lon="2.01858">
        <ele>1951.61</ele>
        <time>2017-02-11T11:11:38Z</time>
      </trkpt>
      <trkpt lat="42.75942" lon="2.01859">
        <ele>1949.69</ele>
        <time>2017-02-11T11:11:51Z</time>
      </trkpt>
      <trkpt lat="42.7594" lon="2.01859">
        <ele>1954.5</ele>
        <time>2017-02-11T11:12:30Z</time>
      </trkpt>
      <trkpt lat="42.75942" lon="2.01859">
        <ele>1953.54</ele>
        <time>2017-02-11T11:13:13Z</time>
      </trkpt>
      <trkpt lat="42.75942" lon="2.01859">
        <ele>1953.54</ele>
        <time>2017-02-11T11:14:02Z</time>
      </trkpt>
      <trkpt lat="42.75942" lon="2.01859">
        <ele>1953.54</ele>
        <time>2017-02-11T11:14:46Z</time>
      </trkpt>
      <trkpt lat="42.75942" lon="2.01859">
        <ele>1953.54</ele>
        <time>2017-02-11T11:15:32Z</time>
      </trkpt>
      <trkpt lat="42.75942" lon="2.01859">
        <ele>1953.06</ele>
        <time>2017-02-11T11:16:17Z</time>
      </trkpt>
      <trkpt lat="42.75942" lon="2.01859">
        <ele>1954.02</ele>
        <time>2017-02-11T11:17:01Z</time>
      </trkpt>
      <trkpt lat="42.75942" lon="2.01859">
        <ele>1952.57</ele>
        <time>2017-02-11T11:17:45Z</time>
      </trkpt>
      <trkpt lat="42.75942" lon="2.01859">
        <ele>1953.06</ele>
        <time>2017-02-11T11:18:41Z</time>
      </trkpt>
      <trkpt lat="42.75942" lon="2.01859">
        <ele>1953.54</ele>
        <time>2017-02-11T11:19:35Z</time>
      </trkpt>
      <trkpt lat="42.75942" lon="2.01859">
        <ele>1953.06</ele>
        <time>2017-02-11T11:20:23Z</time>
      </trkpt>
      <trkpt lat="42.75942" lon="2.01859">
        <ele>1953.06</ele>
        <time>2017-02-11T11:21:07Z</time>
      </trkpt>
      <trkpt lat="42.75942" lon="2.01858">
        <ele>1954.02</ele>
        <time>2017-02-11T11:21:24Z</time>
      </trkpt>
      <trkpt lat="42.75941" lon="2.01859">
        <ele>1953.06</ele>
        <time>2017-02-11T11:21:46Z</time>
      </trkpt>
      <trkpt lat="42.75941" lon="2.01859">
        <ele>1952.57</ele>
        <time>2017-02-11T11:22:24Z</time>
      </trkpt>
      <trkpt lat="42.7594" lon="2.01859">
        <ele>1952.09</ele>
        <time>2017-02-11T11:22:54Z</time>
      </trkpt>
      <trkpt lat="42.75941" lon="2.01859">
        <ele>1952.57</ele>
        <time>2017-02-11T11:23:27Z</time>
      </trkpt>
      <trkpt lat="42.75941" lon="2.01858">
        <ele>1952.09</ele>
        <time>2017-02-11T11:23:59Z</time>
      </trkpt>
      <trkpt lat="42.75941" lon="2.01859">
        <ele>1952.57</ele>
        <time>2017-02-11T11:24:37Z</time>
      </trkpt>
      <trkpt lat="42.75941" lon="2.01859">
        <ele>1952.57</ele>
        <time>2017-02-11T11:25:09Z</time>
      </trkpt>
      <trkpt lat="42.75942" lon="2.01859">
        <ele>1953.06</ele>
        <time>2017-02-11T11:25:39Z</time>
      </trkpt>
      <trkpt lat="42.75942" lon="2.01859">
        <ele>1953.06</ele>
        <time>2017-02-11T11:25:54Z</time>
      </trkpt>
      <trkpt lat="42.75942" lon="2.01858">
        <ele>1954.02</ele>
        <time>2017-02-11T11:26:10Z</time>
      </trkpt>
      <trkpt lat="42.75942" lon="2.01858">
        <ele>1954.5</ele>
        <time>2017-02-11T11:26:24Z</time>
      </trkpt>
      <trkpt lat="42.75942" lon="2.01858">
        <ele>1953.54</ele>
        <time>2017-02-11T11:26:55Z</time>
      </trkpt>
      <trkpt lat="42.75942" lon="2.01858">
        <ele>1953.54</ele>
        <time>2017-02-11T11:27:20Z</time>
      </trkpt>
      <trkpt lat="42.75942" lon="2.01859">
        <ele>1954.02</ele>
        <time>2017-02-11T11:27:42Z</time>
      </trkpt>
      <trkpt lat="42.75942" lon="2.01858">
        <ele>1953.54</ele>
        <time>2017-02-11T11:27:57Z</time>
      </trkpt>
      <trkpt lat="42.75942" lon="2.01858">
        <ele>1953.54</ele>
        <time>2017-02-11T11:28:34Z</time>
      </trkpt>
      <trkpt lat="42.75942" lon="2.0186">
        <ele>1954.02</ele>
        <time>2017-02-11T11:28:42Z</time>
      </trkpt>
      <trkpt lat="42.75941" lon="2.0186">
        <ele>1954.02</ele>
        <time>2017-02-11T11:28:49Z</time>
      </trkpt>
      <trkpt lat="42.75941" lon="2.0186">
        <ele>1953.54</ele>
        <time>2017-02-11T11:28:53Z</time>
      </trkpt>
      <trkpt lat="42.75941" lon="2.0186">
        <ele>1953.06</ele>
        <time>2017-02-11T11:29:05Z</time>
      </trkpt>
      <trkpt lat="42.75941" lon="2.0186">
        <ele>1953.54</ele>
        <time>2017-02-11T11:29:23Z</time>
      </trkpt>
      <trkpt lat="42.75941" lon="2.01859">
        <ele>1954.5</ele>
        <time>2017-02-11T11:29:43Z</time>
      </trkpt>
      <trkpt lat="42.7594" lon="2.0186">
        <ele>1953.54</ele>
        <time>2017-02-11T11:29:57Z</time>
      </trkpt>
      <trkpt lat="42.7594" lon="2.0186">
        <ele>1953.06</ele>
        <time>2017-02-11T11:30:14Z</time>
      </trkpt>
      <trkpt lat="42.7594" lon="2.01861">
        <ele>1953.54</ele>
        <time>2017-02-11T11:30:26Z</time>
      </trkpt>
      <trkpt lat="42.75934" lon="2.01865">
        <ele>1952.57</ele>
        <time>2017-02-11T11:30:31Z</time>
      </trkpt>
      <trkpt lat="42.75922" lon="2.01868">
        <ele>1948.25</ele>
        <time>2017-02-11T11:30:39Z</time>
      </trkpt>
      <trkpt lat="42.75923" lon="2.01867">
        <ele>1948.73</ele>
        <time>2017-02-11T11:30:51Z</time>
      </trkpt>
      <trkpt lat="42.75921" lon="2.01866">
        <ele>1949.21</ele>
        <time>2017-02-11T11:31:10Z</time>
      </trkpt>
      <trkpt lat="42.75909" lon="2.01854">
        <ele>1945.85</ele>
        <time>2017-02-11T11:31:21Z</time>
      </trkpt>
      <trkpt lat="42.75907" lon="2.01852">
        <ele>1945.36</ele>
        <time>2017-02-11T11:31:26Z</time>
      </trkpt>
      <trkpt lat="42.75891" lon="2.01851">
        <ele>1938.16</ele>
        <time>2017-02-11T11:31:32Z</time>
      </trkpt>
      <trkpt lat="42.7588" lon="2.01849">
        <ele>1932.39</ele>
        <time>2017-02-11T11:31:36Z</time>
      </trkpt>
      <trkpt lat="42.75876" lon="2.01841">
        <ele>1931.43</ele>
        <time>2017-02-11T11:31:38Z</time>
      </trkpt>
      <trkpt lat="42.75865" lon="2.01863">
        <ele>1920.37</ele>
        <time>2017-02-11T11:31:45Z</time>
      </trkpt>
      <trkpt lat="42.75854" lon="2.01872">
        <ele>1911.72</ele>
        <time>2017-02-11T11:31:50Z</time>
      </trkpt>
      <trkpt lat="42.75839" lon="2.01876">
        <ele>1902.11</ele>
        <time>2017-02-11T11:31:55Z</time>
      </trkpt>
      <trkpt lat="42.7582" lon="2.0188">
        <ele>1890.57</ele>
        <time>2017-02-11T11:32:01Z</time>
      </trkpt>
      <trkpt lat="42.75802" lon="2.01882">
        <ele>1879.51</ele>
        <time>2017-02-11T11:32:06Z</time>
      </trkpt>
      <trkpt lat="42.75791" lon="2.01873">
        <ele>1877.11</ele>
        <time>2017-02-11T11:32:09Z</time>
      </trkpt>
      <trkpt lat="42.75775" lon="2.01861">
        <ele>1872.79</ele>
        <time>2017-02-11T11:32:13Z</time>
      </trkpt>
      <trkpt lat="42.75756" lon="2.0185">
        <ele>1867.5</ele>
        <time>2017-02-11T11:32:17Z</time>
      </trkpt>
      <trkpt lat="42.75741" lon="2.01838">
        <ele>1864.61</ele>
        <time>2017-02-11T11:32:23Z</time>
      </trkpt>
      <trkpt lat="42.7574" lon="2.01838">
        <ele>1864.61</ele>
        <time>2017-02-11T11:32:28Z</time>
      </trkpt>
      <trkpt lat="42.75728" lon="2.01838">
        <ele>1861.73</ele>
        <time>2017-02-11T11:32:32Z</time>
      </trkpt>
      <trkpt lat="42.75701" lon="2.01851">
        <ele>1853.08</ele>
        <time>2017-02-11T11:32:37Z</time>
      </trkpt>
      <trkpt lat="42.75677" lon="2.01856">
        <ele>1847.31</ele>
        <time>2017-02-11T11:32:41Z</time>
      </trkpt>
      <trkpt lat="42.7567" lon="2.01855">
        <ele>1845.39</ele>
        <time>2017-02-11T11:32:48Z</time>
      </trkpt>
      <trkpt lat="42.75669" lon="2.01856">
        <ele>1845.87</ele>
        <time>2017-02-11T11:33:03Z</time>
      </trkpt>
      <trkpt lat="42.7566" lon="2.01854">
        <ele>1844.43</ele>
        <time>2017-02-11T11:33:07Z</time>
      </trkpt>
      <trkpt lat="42.75635" lon="2.01856">
        <ele>1834.33</ele>
        <time>2017-02-11T11:33:13Z</time>
      </trkpt>
      <trkpt lat="42.75613" lon="2.01854">
        <ele>1826.64</ele>
        <time>2017-02-11T11:33:17Z</time>
      </trkpt>
      <trkpt lat="42.75585" lon="2.01866">
        <ele>1817.99</ele>
        <time>2017-02-11T11:33:23Z</time>
      </trkpt>
      <trkpt lat="42.75574" lon="2.01878">
        <ele>1813.18</ele>
        <time>2017-02-11T11:33:26Z</time>
      </trkpt>
      <trkpt lat="42.75539" lon="2.01911">
        <ele>1797.32</ele>
        <time>2017-02-11T11:33:33Z</time>
      </trkpt>
      <trkpt lat="42.75534" lon="2.01922">
        <ele>1792.03</ele>
        <time>2017-02-11T11:33:37Z</time>
      </trkpt>
      <trkpt lat="42.75535" lon="2.01921">
        <ele>1792.03</ele>
        <time>2017-02-11T11:33:41Z</time>
      </trkpt>
      <trkpt lat="42.75529" lon="2.01926">
        <ele>1789.63</ele>
        <time>2017-02-11T11:33:44Z</time>
      </trkpt>
      <trkpt lat="42.75501" lon="2.01956">
        <ele>1779.54</ele>
        <time>2017-02-11T11:33:50Z</time>
      </trkpt>
      <trkpt lat="42.75496" lon="2.01962">
        <ele>1777.61</ele>
        <time>2017-02-11T11:33:51Z</time>
      </trkpt>
      <trkpt lat="42.75484" lon="2.01973">
        <ele>1772.81</ele>
        <time>2017-02-11T11:33:53Z</time>
      </trkpt>
      <trkpt lat="42.75453" lon="2.02009">
        <ele>1758.87</ele>
        <time>2017-02-11T11:33:59Z</time>
      </trkpt>
      <trkpt lat="42.75435" lon="2.02038">
        <ele>1749.74</ele>
        <time>2017-02-11T11:34:03Z</time>
      </trkpt>
      <trkpt lat="42.75424" lon="2.02064">
        <ele>1740.6</ele>
        <time>2017-02-11T11:34:09Z</time>
      </trkpt>
      <trkpt lat="42.75424" lon="2.02064">
        <ele>1740.6</ele>
        <time>2017-02-11T11:34:21Z</time>
      </trkpt>
      <trkpt lat="42.7542" lon="2.02069">
        <ele>1740.6</ele>
        <time>2017-02-11T11:34:30Z</time>
      </trkpt>
      <trkpt lat="42.7542" lon="2.0207">
        <ele>1740.6</ele>
        <time>2017-02-11T11:34:34Z</time>
      </trkpt>
      <trkpt lat="42.75426" lon="2.02095">
        <ele>1738.68</ele>
        <time>2017-02-11T11:34:44Z</time>
      </trkpt>
      <trkpt lat="42.75426" lon="2.02095">
        <ele>1738.2</ele>
        <time>2017-02-11T11:34:57Z</time>
      </trkpt>
      <trkpt lat="42.75426" lon="2.02095">
        <ele>1737.72</ele>
        <time>2017-02-11T11:35:11Z</time>
      </trkpt>
      <trkpt lat="42.75426" lon="2.021">
        <ele>1737.72</ele>
        <time>2017-02-11T11:35:21Z</time>
      </trkpt>
      <trkpt lat="42.75424" lon="2.02103">
        <ele>1737.24</ele>
        <time>2017-02-11T11:35:36Z</time>
      </trkpt>
      <trkpt lat="42.75425" lon="2.02103">
        <ele>1735.32</ele>
        <time>2017-02-11T11:35:45Z</time>
      </trkpt>
      <trkpt lat="42.75425" lon="2.02103">
        <ele>1730.51</ele>
        <time>2017-02-11T11:36:00Z</time>
      </trkpt>
      <trkpt lat="42.75426" lon="2.02102">
        <ele>1730.51</ele>
        <time>2017-02-11T11:36:30Z</time>
      </trkpt>
      <trkpt lat="42.75426" lon="2.02105">
        <ele>1732.43</ele>
        <time>2017-02-11T11:37:03Z</time>
      </trkpt>
      <trkpt lat="42.75424" lon="2.02104">
        <ele>1734.84</ele>
        <time>2017-02-11T11:37:38Z</time>
      </trkpt>
      <trkpt lat="42.75425" lon="2.02104">
        <ele>1736.28</ele>
        <time>2017-02-11T11:38:10Z</time>
      </trkpt>
      <trkpt lat="42.75424" lon="2.02103">
        <ele>1738.2</ele>
        <time>2017-02-11T11:38:54Z</time>
      </trkpt>
      <trkpt lat="42.75423" lon="2.02104">
        <ele>1738.68</ele>
        <time>2017-02-11T11:39:33Z</time>
      </trkpt>
      <trkpt lat="42.75423" lon="2.02102">
        <ele>1740.6</ele>
        <time>2017-02-11T11:40:16Z</time>
      </trkpt>
      <trkpt lat="42.75423" lon="2.02102">
        <ele>1740.12</ele>
        <time>2017-02-11T11:41:03Z</time>
      </trkpt>
      <trkpt lat="42.75423" lon="2.02102">
        <ele>1739.64</ele>
        <time>2017-02-11T11:41:41Z</time>
      </trkpt>
      <trkpt lat="42.75423" lon="2.02103">
        <ele>1739.16</ele>
        <time>2017-02-11T11:42:20Z</time>
      </trkpt>
      <trkpt lat="42.75423" lon="2.02103">
        <ele>1740.12</ele>
        <time>2017-02-11T11:43:01Z</time>
      </trkpt>
      <trkpt lat="42.75422" lon="2.02102">
        <ele>1741.08</ele>
        <time>2017-02-11T11:43:43Z</time>
      </trkpt>
      <trkpt lat="42.7542" lon="2.02103">
        <ele>1742.53</ele>
        <time>2017-02-11T11:44:18Z</time>
      </trkpt>
      <trkpt lat="42.75422" lon="2.02102">
        <ele>1743.01</ele>
        <time>2017-02-11T11:45:01Z</time>
      </trkpt>
      <trkpt lat="42.75422" lon="2.02103">
        <ele>1740.6</ele>
        <time>2017-02-11T11:45:41Z</time>
      </trkpt>
      <trkpt lat="42.75423" lon="2.02104">
        <ele>1739.16</ele>
        <time>2017-02-11T11:46:23Z</time>
      </trkpt>
      <trkpt lat="42.75424" lon="2.02103">
        <ele>1738.68</ele>
        <time>2017-02-11T11:47:07Z</time>
      </trkpt>
      <trkpt lat="42.75423" lon="2.02103">
        <ele>1739.16</ele>
        <time>2017-02-11T11:47:54Z</time>
      </trkpt>
      <trkpt lat="42.75423" lon="2.02103">
        <ele>1739.16</ele>
        <time>2017-02-11T11:48:41Z</time>
      </trkpt>
      <trkpt lat="42.75422" lon="2.02103">
        <ele>1740.12</ele>
        <time>2017-02-11T11:49:25Z</time>
      </trkpt>
      <trkpt lat="42.75423" lon="2.02103">
        <ele>1739.64</ele>
        <time>2017-02-11T11:50:11Z</time>
      </trkpt>
      <trkpt lat="42.75423" lon="2.02103">
        <ele>1739.16</ele>
        <time>2017-02-11T11:50:57Z</time>
      </trkpt>
      <trkpt lat="42.75422" lon="2.02104">
        <ele>1739.64</ele>
        <time>2017-02-11T11:51:39Z</time>
      </trkpt>
      <trkpt lat="42.75422" lon="2.02103">
        <ele>1739.16</ele>
        <time>2017-02-11T11:52:17Z</time>
      </trkpt>
      <trkpt lat="42.75422" lon="2.02103">
        <ele>1738.68</ele>
        <time>2017-02-11T11:53:01Z</time>
      </trkpt>
      <trkpt lat="42.75423" lon="2.02103">
        <ele>1738.2</ele>
        <time>2017-02-11T11:53:45Z</time>
      </trkpt>
      <trkpt lat="42.75423" lon="2.02103">
        <ele>1737.72</ele>
        <time>2017-02-11T11:54:29Z</time>
      </trkpt>
      <trkpt lat="42.75423" lon="2.02104">
        <ele>1737.72</ele>
        <time>2017-02-11T11:55:16Z</time>
      </trkpt>
      <trkpt lat="42.75423" lon="2.02104">
        <ele>1737.24</ele>
        <time>2017-02-11T11:56:00Z</time>
      </trkpt>
      <trkpt lat="42.75423" lon="2.02104">
        <ele>1736.76</ele>
        <time>2017-02-11T11:56:46Z</time>
      </trkpt>
      <trkpt lat="42.75423" lon="2.02103">
        <ele>1737.72</ele>
        <time>2017-02-11T11:57:23Z</time>
      </trkpt>
      <trkpt lat="42.75424" lon="2.02103">
        <ele>1737.24</ele>
        <time>2017-02-11T11:58:05Z</time>
      </trkpt>
      <trkpt lat="42.75423" lon="2.02103">
        <ele>1737.72</ele>
        <time>2017-02-11T11:58:52Z</time>
      </trkpt>
      <trkpt lat="42.75424" lon="2.02102">
        <ele>1737.24</ele>
        <time>2017-02-11T11:59:35Z</time>
      </trkpt>
      <trkpt lat="42.75424" lon="2.02102">
        <ele>1736.76</ele>
        <time>2017-02-11T12:00:19Z</time>
      </trkpt>
      <trkpt lat="42.75424" lon="2.02102">
        <ele>1737.24</ele>
        <time>2017-02-11T12:01:04Z</time>
      </trkpt>
      <trkpt lat="42.75424" lon="2.02101">
        <ele>1736.28</ele>
        <time>2017-02-11T12:01:38Z</time>
      </trkpt>
      <trkpt lat="42.75424" lon="2.02101">
        <ele>1734.84</ele>
        <time>2017-02-11T12:02:25Z</time>
      </trkpt>
      <trkpt lat="42.75424" lon="2.02101">
        <ele>1734.84</ele>
        <time>2017-02-11T12:03:03Z</time>
      </trkpt>
      <trkpt lat="42.75424" lon="2.021">
        <ele>1734.84</ele>
        <time>2017-02-11T12:03:44Z</time>
      </trkpt>
      <trkpt lat="42.75424" lon="2.021">
        <ele>1734.84</ele>
        <time>2017-02-11T12:04:19Z</time>
      </trkpt>
      <trkpt lat="42.75424" lon="2.021">
        <ele>1735.32</ele>
        <time>2017-02-11T12:04:58Z</time>
      </trkpt>
      <trkpt lat="42.75425" lon="2.02101">
        <ele>1735.32</ele>
        <time>2017-02-11T12:05:31Z</time>
      </trkpt>
      <trkpt lat="42.75424" lon="2.021">
        <ele>1734.36</ele>
        <time>2017-02-11T12:06:06Z</time>
      </trkpt>
      <trkpt lat="42.75424" lon="2.02101">
        <ele>1734.36</ele>
        <time>2017-02-11T12:06:37Z</time>
      </trkpt>
      <trkpt lat="42.75424" lon="2.02101">
        <ele>1733.88</ele>
        <time>2017-02-11T12:07:10Z</time>
      </trkpt>
      <trkpt lat="42.75424" lon="2.02101">
        <ele>1734.84</ele>
        <time>2017-02-11T12:07:51Z</time>
      </trkpt>
      <trkpt lat="42.75425" lon="2.02101">
        <ele>1734.84</ele>
        <time>2017-02-11T12:08:27Z</time>
      </trkpt>
      <trkpt lat="42.75424" lon="2.02101">
        <ele>1735.32</ele>
        <time>2017-02-11T12:09:04Z</time>
      </trkpt>
      <trkpt lat="42.75424" lon="2.02101">
        <ele>1735.32</ele>
        <time>2017-02-11T12:09:37Z</time>
      </trkpt>
      <trkpt lat="42.75423" lon="2.02103">
        <ele>1737.24</ele>
        <time>2017-02-11T12:10:07Z</time>
      </trkpt>
      <trkpt lat="42.75423" lon="2.02102">
        <ele>1737.24</ele>
        <time>2017-02-11T12:10:42Z</time>
      </trkpt>
      <trkpt lat="42.75422" lon="2.02101">
        <ele>1738.2</ele>
        <time>2017-02-11T12:11:19Z</time>
      </trkpt>
      <trkpt lat="42.75423" lon="2.02102">
        <ele>1738.2</ele>
        <time>2017-02-11T12:11:42Z</time>
      </trkpt>
      <trkpt lat="42.75423" lon="2.02102">
        <ele>1737.72</ele>
        <time>2017-02-11T12:12:11Z</time>
      </trkpt>
      <trkpt lat="42.75423" lon="2.02102">
        <ele>1738.2</ele>
        <time>2017-02-11T12:12:50Z</time>
      </trkpt>
      <trkpt lat="42.75422" lon="2.02102">
        <ele>1738.2</ele>
        <time>2017-02-11T12:13:18Z</time>
      </trkpt>
      <trkpt lat="42.75423" lon="2.02102">
        <ele>1738.2</ele>
        <time>2017-02-11T12:13:58Z</time>
      </trkpt>
      <trkpt lat="42.75422" lon="2.02102">
        <ele>1738.2</ele>
        <time>2017-02-11T12:14:26Z</time>
      </trkpt>
      <trkpt lat="42.75422" lon="2.02102">
        <ele>1738.2</ele>
        <time>2017-02-11T12:14:57Z</time>
      </trkpt>
      <trkpt lat="42.75422" lon="2.02101">
        <ele>1738.68</ele>
        <time>2017-02-11T12:15:27Z</time>
      </trkpt>
      <trkpt lat="42.75422" lon="2.02101">
        <ele>1738.68</ele>
        <time>2017-02-11T12:15:59Z</time>
      </trkpt>
      <trkpt lat="42.75423" lon="2.02102">
        <ele>1737.72</ele>
        <time>2017-02-11T12:16:33Z</time>
      </trkpt>
      <trkpt lat="42.75422" lon="2.02102">
        <ele>1738.2</ele>
        <time>2017-02-11T12:17:06Z</time>
      </trkpt>
      <trkpt lat="42.75421" lon="2.02103">
        <ele>1737.24</ele>
        <time>2017-02-11T12:17:40Z</time>
      </trkpt>
      <trkpt lat="42.75421" lon="2.02103">
        <ele>1737.72</ele>
        <time>2017-02-11T12:17:52Z</time>
      </trkpt>
      <trkpt lat="42.75423" lon="2.02098">
        <ele>1737.72</ele>
        <time>2017-02-11T12:18:03Z</time>
      </trkpt>
      <trkpt lat="42.75423" lon="2.02096">
        <ele>1737.24</ele>
        <time>2017-02-11T12:18:09Z</time>
      </trkpt>
      <trkpt lat="42.75425" lon="2.02096">
        <ele>1735.8</ele>
        <time>2017-02-11T12:18:23Z</time>
      </trkpt>
      <trkpt lat="42.75426" lon="2.02095">
        <ele>1737.72</ele>
        <time>2017-02-11T12:19:04Z</time>
      </trkpt>
      <trkpt lat="42.75426" lon="2.02095">
        <ele>1737.72</ele>
        <time>2017-02-11T12:19:31Z</time>
      </trkpt>
      <trkpt lat="42.75425" lon="2.02095">
        <ele>1737.72</ele>
        <time>2017-02-11T12:20:03Z</time>
      </trkpt>
      <trkpt lat="42.75426" lon="2.02095">
        <ele>1738.68</ele>
        <time>2017-02-11T12:20:35Z</time>
      </trkpt>
      <trkpt lat="42.75426" lon="2.02095">
        <ele>1739.64</ele>
        <time>2017-02-11T12:20:57Z</time>
      </trkpt>
      <trkpt lat="42.75425" lon="2.02097">
        <ele>1739.64</ele>
        <time>2017-02-11T12:21:05Z</time>
      </trkpt>
      <trkpt lat="42.75423" lon="2.02097">
        <ele>1736.76</ele>
        <time>2017-02-11T12:21:19Z</time>
      </trkpt>
      <trkpt lat="42.75423" lon="2.02097">
        <ele>1736.28</ele>
        <time>2017-02-11T12:21:31Z</time>
      </trkpt>
      <trkpt lat="42.75424" lon="2.02097">
        <ele>1736.28</ele>
        <time>2017-02-11T12:21:53Z</time>
      </trkpt>
      <trkpt lat="42.75424" lon="2.02097">
        <ele>1736.28</ele>
        <time>2017-02-11T12:22:04Z</time>
      </trkpt>
      <trkpt lat="42.75413" lon="2.02093">
        <ele>1733.88</ele>
        <time>2017-02-11T12:22:13Z</time>
      </trkpt>
      <trkpt lat="42.75392" lon="2.02119">
        <ele>1725.7</ele>
        <time>2017-02-11T12:22:19Z</time>
      </trkpt>
      <trkpt lat="42.75371" lon="2.02159">
        <ele>1714.17</ele>
        <time>2017-02-11T12:22:26Z</time>
      </trkpt>
      <trkpt lat="42.75357" lon="2.02212">
        <ele>1699.75</ele>
        <time>2017-02-11T12:22:33Z</time>
      </trkpt>
      <trkpt lat="42.75353" lon="2.02241">
        <ele>1693.02</ele>
        <time>2017-02-11T12:22:39Z</time>
      </trkpt>
      <trkpt lat="42.75352" lon="2.02241">
        <ele>1693.98</ele>
        <time>2017-02-11T12:23:01Z</time>
      </trkpt>
      <trkpt lat="42.75353" lon="2.02243">
        <ele>1693.5</ele>
        <time>2017-02-11T12:23:02Z</time>
      </trkpt>
      <trkpt lat="42.7534" lon="2.02262">
        <ele>1691.1</ele>
        <time>2017-02-11T12:23:08Z</time>
      </trkpt>
      <trkpt lat="42.75332" lon="2.02301">
        <ele>1681.96</ele>
        <time>2017-02-11T12:23:14Z</time>
      </trkpt>
      <trkpt lat="42.75322" lon="2.02332">
        <ele>1674.27</ele>
        <time>2017-02-11T12:23:19Z</time>
      </trkpt>
      <trkpt lat="42.75319" lon="2.0236">
        <ele>1665.14</ele>
        <time>2017-02-11T12:23:24Z</time>
      </trkpt>
      <trkpt lat="42.75323" lon="2.02373">
        <ele>1656.01</ele>
        <time>2017-02-11T12:23:29Z</time>
      </trkpt>
      <trkpt lat="42.75323" lon="2.02372">
        <ele>1656.01</ele>
        <time>2017-02-11T12:23:32Z</time>
      </trkpt>
      <trkpt lat="42.75323" lon="2.02373">
        <ele>1657.45</ele>
        <time>2017-02-11T12:23:40Z</time>
      </trkpt>
      <trkpt lat="42.75326" lon="2.02383">
        <ele>1652.16</ele>
        <time>2017-02-11T12:23:44Z</time>
      </trkpt>
      <trkpt lat="42.75329" lon="2.02417">
        <ele>1639.67</ele>
        <time>2017-02-11T12:23:50Z</time>
      </trkpt>
      <trkpt lat="42.75312" lon="2.02437">
        <ele>1634.86</ele>
        <time>2017-02-11T12:23:55Z</time>
      </trkpt>
      <trkpt lat="42.75307" lon="2.02445">
        <ele>1634.86</ele>
        <time>2017-02-11T12:24:06Z</time>
      </trkpt>
      <trkpt lat="42.75307" lon="2.02446">
        <ele>1637.26</ele>
        <time>2017-02-11T12:24:29Z</time>
      </trkpt>
      <trkpt lat="42.75306" lon="2.02447">
        <ele>1637.74</ele>
        <time>2017-02-11T12:24:49Z</time>
      </trkpt>
      <trkpt lat="42.75299" lon="2.02451">
        <ele>1637.26</ele>
        <time>2017-02-11T12:25:00Z</time>
      </trkpt>
      <trkpt lat="42.75295" lon="2.02454">
        <ele>1635.82</ele>
        <time>2017-02-11T12:25:03Z</time>
      </trkpt>
      <trkpt lat="42.75288" lon="2.02474">
        <ele>1627.17</ele>
        <time>2017-02-11T12:25:08Z</time>
      </trkpt>
      <trkpt lat="42.75272" lon="2.02488">
        <ele>1621.4</ele>
        <time>2017-02-11T12:25:12Z</time>
      </trkpt>
      <trkpt lat="42.7524" lon="2.02509">
        <ele>1616.11</ele>
        <time>2017-02-11T12:25:21Z</time>
      </trkpt>
      <trkpt lat="42.75217" lon="2.02525">
        <ele>1611.31</ele>
        <time>2017-02-11T12:25:26Z</time>
      </trkpt>
      <trkpt lat="42.75182" lon="2.02566">
        <ele>1600.25</ele>
        <time>2017-02-11T12:25:34Z</time>
      </trkpt>
      <trkpt lat="42.75179" lon="2.02574">
        <ele>1598.81</ele>
        <time>2017-02-11T12:25:35Z</time>
      </trkpt>
      <trkpt lat="42.75165" lon="2.02631">
        <ele>1590.16</ele>
        <time>2017-02-11T12:25:41Z</time>
      </trkpt>
      <trkpt lat="42.75159" lon="2.02688">
        <ele>1582.47</ele>
        <time>2017-02-11T12:25:46Z</time>
      </trkpt>
      <trkpt lat="42.75138" lon="2.02767">
        <ele>1580.54</ele>
        <time>2017-02-11T12:25:57Z</time>
      </trkpt>
      <trkpt lat="42.75143" lon="2.02768">
        <ele>1580.06</ele>
        <time>2017-02-11T12:26:04Z</time>
      </trkpt>
      <trkpt lat="42.75143" lon="2.02767">
        <ele>1579.58</ele>
        <time>2017-02-11T12:26:20Z</time>
      </trkpt>
      <trkpt lat="42.75143" lon="2.02766">
        <ele>1580.06</ele>
        <time>2017-02-11T12:26:36Z</time>
      </trkpt>
      <trkpt lat="42.75143" lon="2.02766">
        <ele>1581.03</ele>
        <time>2017-02-11T12:26:52Z</time>
      </trkpt>
      <trkpt lat="42.75143" lon="2.02764">
        <ele>1579.58</ele>
        <time>2017-02-11T12:27:03Z</time>
      </trkpt>
      <trkpt lat="42.75142" lon="2.02763">
        <ele>1580.06</ele>
        <time>2017-02-11T12:27:19Z</time>
      </trkpt>
      <trkpt lat="42.75144" lon="2.02765">
        <ele>1580.54</ele>
        <time>2017-02-11T12:27:31Z</time>
      </trkpt>
      <trkpt lat="42.75143" lon="2.02766">
        <ele>1581.03</ele>
        <time>2017-02-11T12:27:44Z</time>
      </trkpt>
      <trkpt lat="42.75143" lon="2.02766">
        <ele>1578.62</ele>
        <time>2017-02-11T12:28:10Z</time>
      </trkpt>
      <trkpt lat="42.75144" lon="2.02765">
        <ele>1578.62</ele>
        <time>2017-02-11T12:28:49Z</time>
      </trkpt>
      <trkpt lat="42.75144" lon="2.02766">
        <ele>1579.58</ele>
        <time>2017-02-11T12:29:18Z</time>
      </trkpt>
      <trkpt lat="42.75144" lon="2.02766">
        <ele>1580.06</ele>
        <time>2017-02-11T12:29:54Z</time>
      </trkpt>
      <trkpt lat="42.75145" lon="2.02766">
        <ele>1580.06</ele>
        <time>2017-02-11T12:30:27Z</time>
      </trkpt>
      <trkpt lat="42.75144" lon="2.02764">
        <ele>1580.06</ele>
        <time>2017-02-11T12:30:56Z</time>
      </trkpt>
      <trkpt lat="42.75142" lon="2.02764">
        <ele>1579.1</ele>
        <time>2017-02-11T12:31:36Z</time>
      </trkpt>
      <trkpt lat="42.7514" lon="2.02764">
        <ele>1577.66</ele>
        <time>2017-02-11T12:32:07Z</time>
      </trkpt>
      <trkpt lat="42.75141" lon="2.02766">
        <ele>1576.7</ele>
        <time>2017-02-11T12:32:43Z</time>
      </trkpt>
      <trkpt lat="42.75143" lon="2.02765">
        <ele>1576.22</ele>
        <time>2017-02-11T12:33:02Z</time>
      </trkpt>
      <trkpt lat="42.75143" lon="2.02765">
        <ele>1579.1</ele>
        <time>2017-02-11T12:33:22Z</time>
      </trkpt>
      <trkpt lat="42.75144" lon="2.02765">
        <ele>1579.58</ele>
        <time>2017-02-11T12:33:28Z</time>
      </trkpt>
      <trkpt lat="42.75144" lon="2.02766">
        <ele>1581.99</ele>
        <time>2017-02-11T12:33:36Z</time>
      </trkpt>
      <trkpt lat="42.75145" lon="2.02766">
        <ele>1583.91</ele>
        <time>2017-02-11T12:33:54Z</time>
      </trkpt>
      <trkpt lat="42.75145" lon="2.02766">
        <ele>1584.39</ele>
        <time>2017-02-11T12:34:11Z</time>
      </trkpt>
      <trkpt lat="42.75144" lon="2.02765">
        <ele>1585.35</ele>
        <time>2017-02-11T12:34:27Z</time>
      </trkpt>
      <trkpt lat="42.75144" lon="2.02765">
        <ele>1582.95</ele>
        <time>2017-02-11T12:34:38Z</time>
      </trkpt>
      <trkpt lat="42.75143" lon="2.02764">
        <ele>1580.54</ele>
        <time>2017-02-11T12:34:57Z</time>
      </trkpt>
      <trkpt lat="42.75144" lon="2.02763">
        <ele>1582.47</ele>
        <time>2017-02-11T12:35:16Z</time>
      </trkpt>
      <trkpt lat="42.75145" lon="2.02764">
        <ele>1584.87</ele>
        <time>2017-02-11T12:35:34Z</time>
      </trkpt>
      <trkpt lat="42.75146" lon="2.02763">
        <ele>1586.79</ele>
        <time>2017-02-11T12:36:00Z</time>
      </trkpt>
      <trkpt lat="42.75145" lon="2.02765">
        <ele>1586.79</ele>
        <time>2017-02-11T12:36:24Z</time>
      </trkpt>
      <trkpt lat="42.75144" lon="2.02765">
        <ele>1585.35</ele>
        <time>2017-02-11T12:36:49Z</time>
      </trkpt>
      <trkpt lat="42.75141" lon="2.02764">
        <ele>1585.83</ele>
        <time>2017-02-11T12:37:02Z</time>
      </trkpt>
      <trkpt lat="42.75134" lon="2.02764">
        <ele>1588.72</ele>
        <time>2017-02-11T12:37:11Z</time>
      </trkpt>
      <trkpt lat="42.75126" lon="2.02767">
        <ele>1589.68</ele>
        <time>2017-02-11T12:37:23Z</time>
      </trkpt>
      <trkpt lat="42.7512" lon="2.02771">
        <ele>1590.16</ele>
        <time>2017-02-11T12:37:37Z</time>
      </trkpt>
      <trkpt lat="42.75114" lon="2.02778">
        <ele>1590.16</ele>
        <time>2017-02-11T12:37:51Z</time>
      </trkpt>
      <trkpt lat="42.75109" lon="2.02783">
        <ele>1592.56</ele>
        <time>2017-02-11T12:38:02Z</time>
      </trkpt>
      <trkpt lat="42.75106" lon="2.02784">
        <ele>1592.56</ele>
        <time>2017-02-11T12:38:16Z</time>
      </trkpt>
      <trkpt lat="42.75103" lon="2.02786">
        <ele>1594</ele>
        <time>2017-02-11T12:38:31Z</time>
      </trkpt>
      <trkpt lat="42.75096" lon="2.02792">
        <ele>1594.48</ele>
        <time>2017-02-11T12:38:45Z</time>
      </trkpt>
      <trkpt lat="42.75096" lon="2.02792">
        <ele>1595.45</ele>
        <time>2017-02-11T12:39:03Z</time>
      </trkpt>
      <trkpt lat="42.7509" lon="2.02794">
        <ele>1595.93</ele>
        <time>2017-02-11T12:39:11Z</time>
      </trkpt>
      <trkpt lat="42.75084" lon="2.02798">
        <ele>1597.85</ele>
        <time>2017-02-11T12:39:23Z</time>
      </trkpt>
      <trkpt lat="42.75078" lon="2.02798">
        <ele>1597.85</ele>
        <time>2017-02-11T12:39:40Z</time>
      </trkpt>
      <trkpt lat="42.75076" lon="2.028">
        <ele>1599.77</ele>
        <time>2017-02-11T12:40:04Z</time>
      </trkpt>
      <trkpt lat="42.75074" lon="2.028">
        <ele>1599.29</ele>
        <time>2017-02-11T12:40:24Z</time>
      </trkpt>
      <trkpt lat="42.75075" lon="2.028">
        <ele>1599.29</ele>
        <time>2017-02-11T12:40:44Z</time>
      </trkpt>
      <trkpt lat="42.75071" lon="2.02801">
        <ele>1598.81</ele>
        <time>2017-02-11T12:41:03Z</time>
      </trkpt>
      <trkpt lat="42.75064" lon="2.02802">
        <ele>1600.73</ele>
        <time>2017-02-11T12:41:17Z</time>
      </trkpt>
      <trkpt lat="42.75056" lon="2.02806">
        <ele>1598.81</ele>
        <time>2017-02-11T12:41:32Z</time>
      </trkpt>
      <trkpt lat="42.75044" lon="2.02812">
        <ele>1599.29</ele>
        <time>2017-02-11T12:41:50Z</time>
      </trkpt>
      <trkpt lat="42.75038" lon="2.02819">
        <ele>1601.69</ele>
        <time>2017-02-11T12:42:02Z</time>
      </trkpt>
      <trkpt lat="42.75036" lon="2.02831">
        <ele>1602.17</ele>
        <time>2017-02-11T12:42:16Z</time>
      </trkpt>
      <trkpt lat="42.75035" lon="2.02833">
        <ele>1601.69</ele>
        <time>2017-02-11T12:42:19Z</time>
      </trkpt>
      <trkpt lat="42.7503" lon="2.02841">
        <ele>1603.62</ele>
        <time>2017-02-11T12:42:32Z</time>
      </trkpt>
      <trkpt lat="42.75023" lon="2.02848">
        <ele>1603.14</ele>
        <time>2017-02-11T12:42:45Z</time>
      </trkpt>
      <trkpt lat="42.75014" lon="2.02853">
        <ele>1605.54</ele>
        <time>2017-02-11T12:42:59Z</time>
      </trkpt>
      <trkpt lat="42.75006" lon="2.02861">
        <ele>1606.02</ele>
        <time>2017-02-11T12:43:14Z</time>
      </trkpt>
      <trkpt lat="42.75" lon="2.02866">
        <ele>1609.38</ele>
        <time>2017-02-11T12:43:26Z</time>
      </trkpt>
      <trkpt lat="42.74991" lon="2.02871">
        <ele>1611.79</ele>
        <time>2017-02-11T12:43:41Z</time>
      </trkpt>
      <trkpt lat="42.74984" lon="2.02874">
        <ele>1613.71</ele>
        <time>2017-02-11T12:43:57Z</time>
      </trkpt>
      <trkpt lat="42.74973" lon="2.02875">
        <ele>1614.67</ele>
        <time>2017-02-11T12:44:14Z</time>
      </trkpt>
      <trkpt lat="42.74965" lon="2.02878">
        <ele>1616.59</ele>
        <time>2017-02-11T12:44:25Z</time>
      </trkpt>
      <trkpt lat="42.7496" lon="2.02878">
        <ele>1619</ele>
        <time>2017-02-11T12:44:37Z</time>
      </trkpt>
      <trkpt lat="42.74952" lon="2.02881">
        <ele>1620.92</ele>
        <time>2017-02-11T12:44:52Z</time>
      </trkpt>
      <trkpt lat="42.74947" lon="2.02883">
        <ele>1622.36</ele>
        <time>2017-02-11T12:45:06Z</time>
      </trkpt>
      <trkpt lat="42.74944" lon="2.02882">
        <ele>1623.32</ele>
        <time>2017-02-11T12:45:19Z</time>
      </trkpt>
      <trkpt lat="42.7494" lon="2.02883">
        <ele>1625.73</ele>
        <time>2017-02-11T12:45:33Z</time>
      </trkpt>
      <trkpt lat="42.74932" lon="2.02883">
        <ele>1626.69</ele>
        <time>2017-02-11T12:45:45Z</time>
      </trkpt>
      <trkpt lat="42.74927" lon="2.02882">
        <ele>1627.17</ele>
        <time>2017-02-11T12:45:56Z</time>
      </trkpt>
      <trkpt lat="42.7492" lon="2.02883">
        <ele>1629.57</ele>
        <time>2017-02-11T12:46:08Z</time>
      </trkpt>
      <trkpt lat="42.74912" lon="2.0289">
        <ele>1629.09</ele>
        <time>2017-02-11T12:46:26Z</time>
      </trkpt>
      <trkpt lat="42.74909" lon="2.02894">
        <ele>1631.98</ele>
        <time>2017-02-11T12:46:41Z</time>
      </trkpt>
      <trkpt lat="42.74903" lon="2.02898">
        <ele>1632.46</ele>
        <time>2017-02-11T12:46:57Z</time>
      </trkpt>
      <trkpt lat="42.74897" lon="2.02902">
        <ele>1633.42</ele>
        <time>2017-02-11T12:47:09Z</time>
      </trkpt>
      <trkpt lat="42.7489" lon="2.02908">
        <ele>1637.74</ele>
        <time>2017-02-11T12:47:21Z</time>
      </trkpt>
      <trkpt lat="42.74883" lon="2.02907">
        <ele>1640.15</ele>
        <time>2017-02-11T12:47:37Z</time>
      </trkpt>
      <trkpt lat="42.74873" lon="2.02908">
        <ele>1643.03</ele>
        <time>2017-02-11T12:47:51Z</time>
      </trkpt>
      <trkpt lat="42.7487" lon="2.02908">
        <ele>1643.03</ele>
        <time>2017-02-11T12:48:04Z</time>
      </trkpt>
      <trkpt lat="42.74865" lon="2.02907">
        <ele>1644.95</ele>
        <time>2017-02-11T12:48:17Z</time>
      </trkpt>
      <trkpt lat="42.74858" lon="2.02906">
        <ele>1646.88</ele>
        <time>2017-02-11T12:48:28Z</time>
      </trkpt>
      <trkpt lat="42.74855" lon="2.02904">
        <ele>1649.28</ele>
        <time>2017-02-11T12:48:40Z</time>
      </trkpt>
      <trkpt lat="42.74851" lon="2.02901">
        <ele>1650.72</ele>
        <time>2017-02-11T12:48:51Z</time>
      </trkpt>
      <trkpt lat="42.74843" lon="2.02898">
        <ele>1651.68</ele>
        <time>2017-02-11T12:49:04Z</time>
      </trkpt>
      <trkpt lat="42.74838" lon="2.02897">
        <ele>1654.57</ele>
        <time>2017-02-11T12:49:17Z</time>
      </trkpt>
      <trkpt lat="42.7483" lon="2.02895">
        <ele>1654.09</ele>
        <time>2017-02-11T12:49:30Z</time>
      </trkpt>
      <trkpt lat="42.74824" lon="2.02895">
        <ele>1654.57</ele>
        <time>2017-02-11T12:49:49Z</time>
      </trkpt>
      <trkpt lat="42.74818" lon="2.02895">
        <ele>1656.49</ele>
        <time>2017-02-11T12:50:07Z</time>
      </trkpt>
      <trkpt lat="42.74809" lon="2.02891">
        <ele>1660.33</ele>
        <time>2017-02-11T12:50:23Z</time>
      </trkpt>
      <trkpt lat="42.74803" lon="2.02892">
        <ele>1665.14</ele>
        <time>2017-02-11T12:50:39Z</time>
      </trkpt>
      <trkpt lat="42.74798" lon="2.02897">
        <ele>1668.51</ele>
        <time>2017-02-11T12:50:53Z</time>
      </trkpt>
      <trkpt lat="42.74796" lon="2.02904">
        <ele>1669.95</ele>
        <time>2017-02-11T12:51:06Z</time>
      </trkpt>
      <trkpt lat="42.74791" lon="2.0291">
        <ele>1671.87</ele>
        <time>2017-02-11T12:51:20Z</time>
      </trkpt>
      <trkpt lat="42.74786" lon="2.02913">
        <ele>1674.27</ele>
        <time>2017-02-11T12:51:33Z</time>
      </trkpt>
      <trkpt lat="42.74779" lon="2.02918">
        <ele>1676.68</ele>
        <time>2017-02-11T12:51:44Z</time>
      </trkpt>
      <trkpt lat="42.74774" lon="2.02924">
        <ele>1675.23</ele>
        <time>2017-02-11T12:51:55Z</time>
      </trkpt>
      <trkpt lat="42.74768" lon="2.02932">
        <ele>1675.72</ele>
        <time>2017-02-11T12:52:06Z</time>
      </trkpt>
      <trkpt lat="42.74762" lon="2.02937">
        <ele>1676.68</ele>
        <time>2017-02-11T12:52:21Z</time>
      </trkpt>
      <trkpt lat="42.74758" lon="2.02939">
        <ele>1676.2</ele>
        <time>2017-02-11T12:52:37Z</time>
      </trkpt>
      <trkpt lat="42.74748" lon="2.02941">
        <ele>1681.48</ele>
        <time>2017-02-11T12:52:53Z</time>
      </trkpt>
      <trkpt lat="42.74742" lon="2.02941">
        <ele>1683.41</ele>
        <time>2017-02-11T12:53:06Z</time>
      </trkpt>
      <trkpt lat="42.74736" lon="2.0294">
        <ele>1685.33</ele>
        <time>2017-02-11T12:53:24Z</time>
      </trkpt>
      <trkpt lat="42.74729" lon="2.02937">
        <ele>1687.25</ele>
        <time>2017-02-11T12:53:35Z</time>
      </trkpt>
      <trkpt lat="42.7473" lon="2.02936">
        <ele>1684.85</ele>
        <time>2017-02-11T12:53:54Z</time>
      </trkpt>
      <trkpt lat="42.74719" lon="2.02935">
        <ele>1687.73</ele>
        <time>2017-02-11T12:54:11Z</time>
      </trkpt>
      <trkpt lat="42.74713" lon="2.02935">
        <ele>1690.14</ele>
        <time>2017-02-11T12:54:23Z</time>
      </trkpt>
      <trkpt lat="42.74707" lon="2.02934">
        <ele>1692.06</ele>
        <time>2017-02-11T12:54:38Z</time>
      </trkpt>
      <trkpt lat="42.747" lon="2.02932">
        <ele>1695.9</ele>
        <time>2017-02-11T12:54:53Z</time>
      </trkpt>
      <trkpt lat="42.74694" lon="2.02931">
        <ele>1696.38</ele>
        <time>2017-02-11T12:55:11Z</time>
      </trkpt>
      <trkpt lat="42.74686" lon="2.02933">
        <ele>1698.31</ele>
        <time>2017-02-11T12:55:26Z</time>
      </trkpt>
      <trkpt lat="42.74675" lon="2.02935">
        <ele>1700.71</ele>
        <time>2017-02-11T12:55:44Z</time>
      </trkpt>
      <trkpt lat="42.74665" lon="2.02934">
        <ele>1701.19</ele>
        <time>2017-02-11T12:56:02Z</time>
      </trkpt>
      <trkpt lat="42.74656" lon="2.02936">
        <ele>1700.23</ele>
        <time>2017-02-11T12:56:20Z</time>
      </trkpt>
      <trkpt lat="42.74646" lon="2.02938">
        <ele>1699.75</ele>
        <time>2017-02-11T12:56:39Z</time>
      </trkpt>
      <trkpt lat="42.74642" lon="2.0294">
        <ele>1704.55</ele>
        <time>2017-02-11T12:56:57Z</time>
      </trkpt>
      <trkpt lat="42.74634" lon="2.0294">
        <ele>1707.44</ele>
        <time>2017-02-11T12:57:14Z</time>
      </trkpt>
      <trkpt lat="42.74624" lon="2.0294">
        <ele>1709.84</ele>
        <time>2017-02-11T12:57:32Z</time>
      </trkpt>
      <trkpt lat="42.74612" lon="2.02943">
        <ele>1708.88</ele>
        <time>2017-02-11T12:57:52Z</time>
      </trkpt>
      <trkpt lat="42.74603" lon="2.02946">
        <ele>1710.8</ele>
        <time>2017-02-11T12:58:08Z</time>
      </trkpt>
      <trkpt lat="42.74596" lon="2.02948">
        <ele>1712.73</ele>
        <time>2017-02-11T12:58:21Z</time>
      </trkpt>
      <trkpt lat="42.74597" lon="2.02948">
        <ele>1711.28</ele>
        <time>2017-02-11T12:58:39Z</time>
      </trkpt>
      <trkpt lat="42.74596" lon="2.02947">
        <ele>1709.84</ele>
        <time>2017-02-11T12:58:52Z</time>
      </trkpt>
      <trkpt lat="42.74595" lon="2.02948">
        <ele>1709.36</ele>
        <time>2017-02-11T12:59:16Z</time>
      </trkpt>
      <trkpt lat="42.74593" lon="2.02948">
        <ele>1707.92</ele>
        <time>2017-02-11T12:59:39Z</time>
      </trkpt>
      <trkpt lat="42.74595" lon="2.02948">
        <ele>1709.84</ele>
        <time>2017-02-11T13:00:05Z</time>
      </trkpt>
      <trkpt lat="42.74593" lon="2.02948">
        <ele>1709.84</ele>
        <time>2017-02-11T13:00:20Z</time>
      </trkpt>
      <trkpt lat="42.74584" lon="2.02948">
        <ele>1711.76</ele>
        <time>2017-02-11T13:00:33Z</time>
      </trkpt>
      <trkpt lat="42.74576" lon="2.02949">
        <ele>1713.69</ele>
        <time>2017-02-11T13:00:48Z</time>
      </trkpt>
      <trkpt lat="42.74568" lon="2.02949">
        <ele>1715.61</ele>
        <time>2017-02-11T13:01:01Z</time>
      </trkpt>
      <trkpt lat="42.74564" lon="2.02949">
        <ele>1716.57</ele>
        <time>2017-02-11T13:01:13Z</time>
      </trkpt>
      <trkpt lat="42.7456" lon="2.02951">
        <ele>1717.53</ele>
        <time>2017-02-11T13:01:26Z</time>
      </trkpt>
      <trkpt lat="42.74555" lon="2.02953">
        <ele>1718.97</ele>
        <time>2017-02-11T13:01:36Z</time>
      </trkpt>
      <trkpt lat="42.74551" lon="2.02956">
        <ele>1720.9</ele>
        <time>2017-02-11T13:01:50Z</time>
      </trkpt>
      <trkpt lat="42.74542" lon="2.02962">
        <ele>1721.38</ele>
        <time>2017-02-11T13:02:10Z</time>
      </trkpt>
      <trkpt lat="42.74537" lon="2.02966">
        <ele>1722.34</ele>
        <time>2017-02-11T13:02:20Z</time>
      </trkpt>
      <trkpt lat="42.74531" lon="2.02967">
        <ele>1724.26</ele>
        <time>2017-02-11T13:02:31Z</time>
      </trkpt>
      <trkpt lat="42.74526" lon="2.02969">
        <ele>1725.7</ele>
        <time>2017-02-11T13:02:41Z</time>
      </trkpt>
      <trkpt lat="42.74522" lon="2.0297">
        <ele>1729.07</ele>
        <time>2017-02-11T13:02:57Z</time>
      </trkpt>
      <trkpt lat="42.74514" lon="2.02973">
        <ele>1731.47</ele>
        <time>2017-02-11T13:03:15Z</time>
      </trkpt>
      <trkpt lat="42.74507" lon="2.02978">
        <ele>1733.88</ele>
        <time>2017-02-11T13:03:27Z</time>
      </trkpt>
      <trkpt lat="42.74504" lon="2.02981">
        <ele>1734.36</ele>
        <time>2017-02-11T13:03:40Z</time>
      </trkpt>
      <trkpt lat="42.74501" lon="2.02986">
        <ele>1736.28</ele>
        <time>2017-02-11T13:03:55Z</time>
      </trkpt>
      <trkpt lat="42.74496" lon="2.02991">
        <ele>1737.72</ele>
        <time>2017-02-11T13:04:06Z</time>
      </trkpt>
      <trkpt lat="42.74493" lon="2.02991">
        <ele>1739.64</ele>
        <time>2017-02-11T13:04:21Z</time>
      </trkpt>
      <trkpt lat="42.7449" lon="2.02997">
        <ele>1742.53</ele>
        <time>2017-02-11T13:04:31Z</time>
      </trkpt>
      <trkpt lat="42.7449" lon="2.03002">
        <ele>1743.49</ele>
        <time>2017-02-11T13:04:42Z</time>
      </trkpt>
      <trkpt lat="42.74486" lon="2.03002">
        <ele>1745.89</ele>
        <time>2017-02-11T13:04:56Z</time>
      </trkpt>
      <trkpt lat="42.74481" lon="2.03005">
        <ele>1749.26</ele>
        <time>2017-02-11T13:05:05Z</time>
      </trkpt>
      <trkpt lat="42.74476" lon="2.03004">
        <ele>1749.74</ele>
        <time>2017-02-11T13:05:19Z</time>
      </trkpt>
      <trkpt lat="42.74475" lon="2.03006">
        <ele>1750.7</ele>
        <time>2017-02-11T13:05:32Z</time>
      </trkpt>
      <trkpt lat="42.74473" lon="2.03008">
        <ele>1752.14</ele>
        <time>2017-02-11T13:05:45Z</time>
      </trkpt>
      <trkpt lat="42.74469" lon="2.03014">
        <ele>1754.54</ele>
        <time>2017-02-11T13:05:56Z</time>
      </trkpt>
      <trkpt lat="42.74466" lon="2.03011">
        <ele>1756.47</ele>
        <time>2017-02-11T13:06:10Z</time>
      </trkpt>
      <trkpt lat="42.74462" lon="2.03012">
        <ele>1756.95</ele>
        <time>2017-02-11T13:06:22Z</time>
      </trkpt>
      <trkpt lat="42.74459" lon="2.03017">
        <ele>1758.39</ele>
        <time>2017-02-11T13:06:32Z</time>
      </trkpt>
      <trkpt lat="42.74459" lon="2.03017">
        <ele>1758.87</ele>
        <time>2017-02-11T13:06:34Z</time>
      </trkpt>
      <trkpt lat="42.74455" lon="2.03015">
        <ele>1760.31</ele>
        <time>2017-02-11T13:06:44Z</time>
      </trkpt>
      <trkpt lat="42.74453" lon="2.03017">
        <ele>1762.23</ele>
        <time>2017-02-11T13:06:55Z</time>
      </trkpt>
      <trkpt lat="42.74451" lon="2.03018">
        <ele>1762.71</ele>
        <time>2017-02-11T13:07:12Z</time>
      </trkpt>
      <trkpt lat="42.74447" lon="2.03013">
        <ele>1763.68</ele>
        <time>2017-02-11T13:07:23Z</time>
      </trkpt>
      <trkpt lat="42.74441" lon="2.0301">
        <ele>1765.6</ele>
        <time>2017-02-11T13:07:35Z</time>
      </trkpt>
      <trkpt lat="42.74441" lon="2.03013">
        <ele>1766.56</ele>
        <time>2017-02-11T13:07:45Z</time>
      </trkpt>
      <trkpt lat="42.74442" lon="2.03021">
        <ele>1768.48</ele>
        <time>2017-02-11T13:07:55Z</time>
      </trkpt>
      <trkpt lat="42.74443" lon="2.03028">
        <ele>1769.92</ele>
        <time>2017-02-11T13:08:09Z</time>
      </trkpt>
      <trkpt lat="42.7444" lon="2.03026">
        <ele>1769.92</ele>
        <time>2017-02-11T13:08:17Z</time>
      </trkpt>
      <trkpt lat="42.7444" lon="2.03025">
        <ele>1769.92</ele>
        <time>2017-02-11T13:08:32Z</time>
      </trkpt>
      <trkpt lat="42.74436" lon="2.03023">
        <ele>1770.41</ele>
        <time>2017-02-11T13:08:43Z</time>
      </trkpt>
      <trkpt lat="42.74432" lon="2.03018">
        <ele>1773.77</ele>
        <time>2017-02-11T13:08:54Z</time>
      </trkpt>
      <trkpt lat="42.7443" lon="2.03016">
        <ele>1775.21</ele>
        <time>2017-02-11T13:09:05Z</time>
      </trkpt>
      <trkpt lat="42.74426" lon="2.03018">
        <ele>1776.65</ele>
        <time>2017-02-11T13:09:19Z</time>
      </trkpt>
      <trkpt lat="42.74423" lon="2.03015">
        <ele>1777.61</ele>
        <time>2017-02-11T13:09:30Z</time>
      </trkpt>
      <trkpt lat="42.74422" lon="2.03014">
        <ele>1776.65</ele>
        <time>2017-02-11T13:09:32Z</time>
      </trkpt>
      <trkpt lat="42.74417" lon="2.0301">
        <ele>1776.17</ele>
        <time>2017-02-11T13:09:44Z</time>
      </trkpt>
      <trkpt lat="42.74413" lon="2.03008">
        <ele>1777.13</ele>
        <time>2017-02-11T13:09:53Z</time>
      </trkpt>
      <trkpt lat="42.7441" lon="2.03006">
        <ele>1779.54</ele>
        <time>2017-02-11T13:10:09Z</time>
      </trkpt>
      <trkpt lat="42.74407" lon="2.03006">
        <ele>1782.42</ele>
        <time>2017-02-11T13:10:23Z</time>
      </trkpt>
      <trkpt lat="42.74402" lon="2.03003">
        <ele>1782.9</ele>
        <time>2017-02-11T13:10:36Z</time>
      </trkpt>
      <trkpt lat="42.744" lon="2.03003">
        <ele>1783.86</ele>
        <time>2017-02-11T13:10:48Z</time>
      </trkpt>
      <trkpt lat="42.74398" lon="2.03002">
        <ele>1783.86</ele>
        <time>2017-02-11T13:11:00Z</time>
      </trkpt>
      <trkpt lat="42.74398" lon="2.03005">
        <ele>1784.34</ele>
        <time>2017-02-11T13:11:10Z</time>
      </trkpt>
      <trkpt lat="42.74399" lon="2.03007">
        <ele>1784.34</ele>
        <time>2017-02-11T13:11:17Z</time>
      </trkpt>
      <trkpt lat="42.74396" lon="2.03006">
        <ele>1784.34</ele>
        <time>2017-02-11T13:11:27Z</time>
      </trkpt>
      <trkpt lat="42.74391" lon="2.03007">
        <ele>1787.23</ele>
        <time>2017-02-11T13:11:38Z</time>
      </trkpt>
      <trkpt lat="42.74389" lon="2.03007">
        <ele>1788.19</ele>
        <time>2017-02-11T13:11:51Z</time>
      </trkpt>
      <trkpt lat="42.74385" lon="2.0301">
        <ele>1788.67</ele>
        <time>2017-02-11T13:12:07Z</time>
      </trkpt>
      <trkpt lat="42.74381" lon="2.03016">
        <ele>1791.55</ele>
        <time>2017-02-11T13:12:23Z</time>
      </trkpt>
      <trkpt lat="42.74382" lon="2.03023">
        <ele>1793</ele>
        <time>2017-02-11T13:12:37Z</time>
      </trkpt>
      <trkpt lat="42.74382" lon="2.03024">
        <ele>1792.52</ele>
        <time>2017-02-11T13:12:58Z</time>
      </trkpt>
      <trkpt lat="42.74382" lon="2.03027">
        <ele>1793.48</ele>
        <time>2017-02-11T13:13:08Z</time>
      </trkpt>
      <trkpt lat="42.74381" lon="2.03027">
        <ele>1794.44</ele>
        <time>2017-02-11T13:13:25Z</time>
      </trkpt>
      <trkpt lat="42.74381" lon="2.03027">
        <ele>1794.92</ele>
        <time>2017-02-11T13:13:51Z</time>
      </trkpt>
      <trkpt lat="42.74381" lon="2.03028">
        <ele>1795.4</ele>
        <time>2017-02-11T13:14:14Z</time>
      </trkpt>
      <trkpt lat="42.74381" lon="2.03028">
        <ele>1794.92</ele>
        <time>2017-02-11T13:14:42Z</time>
      </trkpt>
      <trkpt lat="42.7438" lon="2.03026">
        <ele>1796.36</ele>
        <time>2017-02-11T13:15:02Z</time>
      </trkpt>
      <trkpt lat="42.74377" lon="2.03031">
        <ele>1797.32</ele>
        <time>2017-02-11T13:15:16Z</time>
      </trkpt>
      <trkpt lat="42.74375" lon="2.03036">
        <ele>1797.32</ele>
        <time>2017-02-11T13:15:25Z</time>
      </trkpt>
      <trkpt lat="42.74372" lon="2.03043">
        <ele>1798.76</ele>
        <time>2017-02-11T13:15:42Z</time>
      </trkpt>
      <trkpt lat="42.74365" lon="2.03045">
        <ele>1802.13</ele>
        <time>2017-02-11T13:15:59Z</time>
      </trkpt>
      <trkpt lat="42.74362" lon="2.03042">
        <ele>1802.61</ele>
        <time>2017-02-11T13:16:14Z</time>
      </trkpt>
      <trkpt lat="42.74358" lon="2.03044">
        <ele>1804.53</ele>
        <time>2017-02-11T13:16:23Z</time>
      </trkpt>
      <trkpt lat="42.74357" lon="2.03045">
        <ele>1804.53</ele>
        <time>2017-02-11T13:16:45Z</time>
      </trkpt>
      <trkpt lat="42.74353" lon="2.03043">
        <ele>1805.01</ele>
        <time>2017-02-11T13:17:11Z</time>
      </trkpt>
      <trkpt lat="42.74348" lon="2.03046">
        <ele>1806.94</ele>
        <time>2017-02-11T13:17:21Z</time>
      </trkpt>
      <trkpt lat="42.74345" lon="2.0305">
        <ele>1810.3</ele>
        <time>2017-02-11T13:17:34Z</time>
      </trkpt>
      <trkpt lat="42.74344" lon="2.03057">
        <ele>1812.7</ele>
        <time>2017-02-11T13:17:51Z</time>
      </trkpt>
      <trkpt lat="42.74342" lon="2.03066">
        <ele>1813.66</ele>
        <time>2017-02-11T13:18:13Z</time>
      </trkpt>
      <trkpt lat="42.74338" lon="2.03071">
        <ele>1814.63</ele>
        <time>2017-02-11T13:18:24Z</time>
      </trkpt>
      <trkpt lat="42.74333" lon="2.03076">
        <ele>1816.07</ele>
        <time>2017-02-11T13:18:34Z</time>
      </trkpt>
      <trkpt lat="42.74328" lon="2.0308">
        <ele>1817.99</ele>
        <time>2017-02-11T13:18:45Z</time>
      </trkpt>
      <trkpt lat="42.74329" lon="2.03081">
        <ele>1817.99</ele>
        <time>2017-02-11T13:18:56Z</time>
      </trkpt>
      <trkpt lat="42.74327" lon="2.03084">
        <ele>1818.95</ele>
        <time>2017-02-11T13:19:08Z</time>
      </trkpt>
      <trkpt lat="42.74325" lon="2.03087">
        <ele>1820.87</ele>
        <time>2017-02-11T13:19:22Z</time>
      </trkpt>
      <trkpt lat="42.74323" lon="2.03084">
        <ele>1822.32</ele>
        <time>2017-02-11T13:19:32Z</time>
      </trkpt>
      <trkpt lat="42.74319" lon="2.03087">
        <ele>1824.72</ele>
        <time>2017-02-11T13:19:42Z</time>
      </trkpt>
      <trkpt lat="42.74315" lon="2.03091">
        <ele>1827.6</ele>
        <time>2017-02-11T13:19:54Z</time>
      </trkpt>
      <trkpt lat="42.74314" lon="2.03093">
        <ele>1827.6</ele>
        <time>2017-02-11T13:20:00Z</time>
      </trkpt>
      <trkpt lat="42.74311" lon="2.03088">
        <ele>1830.01</ele>
        <time>2017-02-11T13:20:14Z</time>
      </trkpt>
      <trkpt lat="42.74306" lon="2.03091">
        <ele>1831.93</ele>
        <time>2017-02-11T13:20:26Z</time>
      </trkpt>
      <trkpt lat="42.74304" lon="2.03096">
        <ele>1831.93</ele>
        <time>2017-02-11T13:20:38Z</time>
      </trkpt>
      <trkpt lat="42.74303" lon="2.03096">
        <ele>1831.45</ele>
        <time>2017-02-11T13:20:56Z</time>
      </trkpt>
      <trkpt lat="42.74301" lon="2.03088">
        <ele>1831.45</ele>
        <time>2017-02-11T13:21:06Z</time>
      </trkpt>
      <trkpt lat="42.74295" lon="2.03078">
        <ele>1832.41</ele>
        <time>2017-02-11T13:21:25Z</time>
      </trkpt>
      <trkpt lat="42.74292" lon="2.03073">
        <ele>1834.33</ele>
        <time>2017-02-11T13:21:39Z</time>
      </trkpt>
      <trkpt lat="42.7429" lon="2.03072">
        <ele>1834.33</ele>
        <time>2017-02-11T13:21:42Z</time>
      </trkpt>
      <trkpt lat="42.74288" lon="2.03066">
        <ele>1835.77</ele>
        <time>2017-02-11T13:21:53Z</time>
      </trkpt>
      <trkpt lat="42.74285" lon="2.03058">
        <ele>1836.74</ele>
        <time>2017-02-11T13:22:04Z</time>
      </trkpt>
      <trkpt lat="42.74279" lon="2.03047">
        <ele>1837.22</ele>
        <time>2017-02-11T13:22:23Z</time>
      </trkpt>
      <trkpt lat="42.74275" lon="2.03039">
        <ele>1839.14</ele>
        <time>2017-02-11T13:22:37Z</time>
      </trkpt>
      <trkpt lat="42.74273" lon="2.03042">
        <ele>1841.06</ele>
        <time>2017-02-11T13:22:49Z</time>
      </trkpt>
      <trkpt lat="42.74273" lon="2.03042">
        <ele>1841.06</ele>
        <time>2017-02-11T13:22:50Z</time>
      </trkpt>
      <trkpt lat="42.7427" lon="2.03038">
        <ele>1842.98</ele>
        <time>2017-02-11T13:23:01Z</time>
      </trkpt>
      <trkpt lat="42.74268" lon="2.03039">
        <ele>1842.98</ele>
        <time>2017-02-11T13:23:09Z</time>
      </trkpt>
      <trkpt lat="42.74265" lon="2.03038">
        <ele>1845.87</ele>
        <time>2017-02-11T13:23:22Z</time>
      </trkpt>
      <trkpt lat="42.7426" lon="2.03031">
        <ele>1846.35</ele>
        <time>2017-02-11T13:23:34Z</time>
      </trkpt>
      <trkpt lat="42.74259" lon="2.03027">
        <ele>1845.39</ele>
        <time>2017-02-11T13:23:48Z</time>
      </trkpt>
      <trkpt lat="42.74256" lon="2.03023">
        <ele>1847.31</ele>
        <time>2017-02-11T13:24:03Z</time>
      </trkpt>
      <trkpt lat="42.74255" lon="2.03025">
        <ele>1847.31</ele>
        <time>2017-02-11T13:24:12Z</time>
      </trkpt>
      <trkpt lat="42.74254" lon="2.03029">
        <ele>1849.23</ele>
        <time>2017-02-11T13:24:26Z</time>
      </trkpt>
      <trkpt lat="42.74249" lon="2.03026">
        <ele>1851.16</ele>
        <time>2017-02-11T13:24:37Z</time>
      </trkpt>
      <trkpt lat="42.74242" lon="2.03024">
        <ele>1854.52</ele>
        <time>2017-02-11T13:24:52Z</time>
      </trkpt>
      <trkpt lat="42.74243" lon="2.03023">
        <ele>1855.48</ele>
        <time>2017-02-11T13:25:06Z</time>
      </trkpt>
      <trkpt lat="42.7424" lon="2.03021">
        <ele>1856.44</ele>
        <time>2017-02-11T13:25:18Z</time>
      </trkpt>
      <trkpt lat="42.74235" lon="2.03016">
        <ele>1856.44</ele>
        <time>2017-02-11T13:25:29Z</time>
      </trkpt>
      <trkpt lat="42.74234" lon="2.03015">
        <ele>1856.44</ele>
        <time>2017-02-11T13:25:30Z</time>
      </trkpt>
      <trkpt lat="42.7423" lon="2.03008">
        <ele>1858.37</ele>
        <time>2017-02-11T13:25:43Z</time>
      </trkpt>
      <trkpt lat="42.74228" lon="2.03015">
        <ele>1858.85</ele>
        <time>2017-02-11T13:25:54Z</time>
      </trkpt>
      <trkpt lat="42.74226" lon="2.03013">
        <ele>1858.85</ele>
        <time>2017-02-11T13:26:03Z</time>
      </trkpt>
      <trkpt lat="42.74222" lon="2.03007">
        <ele>1860.77</ele>
        <time>2017-02-11T13:26:17Z</time>
      </trkpt>
      <trkpt lat="42.7422" lon="2.03004">
        <ele>1861.73</ele>
        <time>2017-02-11T13:26:26Z</time>
      </trkpt>
      <trkpt lat="42.74218" lon="2.03002">
        <ele>1863.17</ele>
        <time>2017-02-11T13:26:37Z</time>
      </trkpt>
      <trkpt lat="42.74215" lon="2.03003">
        <ele>1863.17</ele>
        <time>2017-02-11T13:26:52Z</time>
      </trkpt>
      <trkpt lat="42.74213" lon="2.03004">
        <ele>1863.17</ele>
        <time>2017-02-11T13:27:05Z</time>
      </trkpt>
      <trkpt lat="42.74211" lon="2.03005">
        <ele>1863.65</ele>
        <time>2017-02-11T13:27:17Z</time>
      </trkpt>
      <trkpt lat="42.74208" lon="2.03001">
        <ele>1864.61</ele>
        <time>2017-02-11T13:27:30Z</time>
      </trkpt>
      <trkpt lat="42.74207" lon="2.02998">
        <ele>1865.58</ele>
        <time>2017-02-11T13:27:54Z</time>
      </trkpt>
      <trkpt lat="42.74205" lon="2.02995">
        <ele>1866.54</ele>
        <time>2017-02-11T13:28:11Z</time>
      </trkpt>
      <trkpt lat="42.74204" lon="2.02991">
        <ele>1866.54</ele>
        <time>2017-02-11T13:28:21Z</time>
      </trkpt>
      <trkpt lat="42.74203" lon="2.02992">
        <ele>1867.98</ele>
        <time>2017-02-11T13:28:32Z</time>
      </trkpt>
      <trkpt lat="42.74202" lon="2.02995">
        <ele>1869.42</ele>
        <time>2017-02-11T13:28:45Z</time>
      </trkpt>
      <trkpt lat="42.74199" lon="2.02999">
        <ele>1870.86</ele>
        <time>2017-02-11T13:28:59Z</time>
      </trkpt>
      <trkpt lat="42.74194" lon="2.02997">
        <ele>1869.9</ele>
        <time>2017-02-11T13:29:09Z</time>
      </trkpt>
      <trkpt lat="42.74193" lon="2.02997">
        <ele>1870.38</ele>
        <time>2017-02-11T13:29:21Z</time>
      </trkpt>
      <trkpt lat="42.74194" lon="2.02995">
        <ele>1872.79</ele>
        <time>2017-02-11T13:29:40Z</time>
      </trkpt>
      <trkpt lat="42.74191" lon="2.0299">
        <ele>1875.19</ele>
        <time>2017-02-11T13:29:52Z</time>
      </trkpt>
      <trkpt lat="42.74186" lon="2.02985">
        <ele>1877.59</ele>
        <time>2017-02-11T13:30:03Z</time>
      </trkpt>
      <trkpt lat="42.74184" lon="2.02989">
        <ele>1877.59</ele>
        <time>2017-02-11T13:30:14Z</time>
      </trkpt>
      <trkpt lat="42.74181" lon="2.02986">
        <ele>1877.11</ele>
        <time>2017-02-11T13:30:26Z</time>
      </trkpt>
      <trkpt lat="42.74178" lon="2.02981">
        <ele>1878.55</ele>
        <time>2017-02-11T13:30:40Z</time>
      </trkpt>
      <trkpt lat="42.74175" lon="2.02979">
        <ele>1879.51</ele>
        <time>2017-02-11T13:30:57Z</time>
      </trkpt>
      <trkpt lat="42.74175" lon="2.0298">
        <ele>1882.4</ele>
        <time>2017-02-11T13:31:29Z</time>
      </trkpt>
      <trkpt lat="42.74174" lon="2.02982">
        <ele>1882.88</ele>
        <time>2017-02-11T13:31:39Z</time>
      </trkpt>
      <trkpt lat="42.74172" lon="2.02983">
        <ele>1882.88</ele>
        <time>2017-02-11T13:31:57Z</time>
      </trkpt>
      <trkpt lat="42.74168" lon="2.02981">
        <ele>1884.8</ele>
        <time>2017-02-11T13:32:08Z</time>
      </trkpt>
      <trkpt lat="42.74168" lon="2.02982">
        <ele>1884.8</ele>
        <time>2017-02-11T13:32:21Z</time>
      </trkpt>
      <trkpt lat="42.74167" lon="2.02982">
        <ele>1885.76</ele>
        <time>2017-02-11T13:32:36Z</time>
      </trkpt>
      <trkpt lat="42.74162" lon="2.0298">
        <ele>1888.17</ele>
        <time>2017-02-11T13:32:51Z</time>
      </trkpt>
      <trkpt lat="42.74157" lon="2.02974">
        <ele>1890.09</ele>
        <time>2017-02-11T13:33:07Z</time>
      </trkpt>
      <trkpt lat="42.74155" lon="2.02973">
        <ele>1891.05</ele>
        <time>2017-02-11T13:33:16Z</time>
      </trkpt>
      <trkpt lat="42.74153" lon="2.02975">
        <ele>1892.01</ele>
        <time>2017-02-11T13:33:31Z</time>
      </trkpt>
      <trkpt lat="42.7415" lon="2.02978">
        <ele>1892.49</ele>
        <time>2017-02-11T13:33:42Z</time>
      </trkpt>
      <trkpt lat="42.74149" lon="2.02983">
        <ele>1893.93</ele>
        <time>2017-02-11T13:33:55Z</time>
      </trkpt>
      <trkpt lat="42.74147" lon="2.02986">
        <ele>1894.42</ele>
        <time>2017-02-11T13:34:11Z</time>
      </trkpt>
      <trkpt lat="42.74145" lon="2.02987">
        <ele>1895.86</ele>
        <time>2017-02-11T13:34:33Z</time>
      </trkpt>
      <trkpt lat="42.7414" lon="2.0299">
        <ele>1898.74</ele>
        <time>2017-02-11T13:34:45Z</time>
      </trkpt>
      <trkpt lat="42.74133" lon="2.02992">
        <ele>1898.74</ele>
        <time>2017-02-11T13:34:56Z</time>
      </trkpt>
      <trkpt lat="42.74128" lon="2.02993">
        <ele>1899.22</ele>
        <time>2017-02-11T13:35:11Z</time>
      </trkpt>
      <trkpt lat="42.74127" lon="2.02993">
        <ele>1899.22</ele>
        <time>2017-02-11T13:35:31Z</time>
      </trkpt>
      <trkpt lat="42.74126" lon="2.02993">
        <ele>1898.26</ele>
        <time>2017-02-11T13:35:50Z</time>
      </trkpt>
      <trkpt lat="42.74123" lon="2.0299">
        <ele>1898.26</ele>
        <time>2017-02-11T13:36:20Z</time>
      </trkpt>
      <trkpt lat="42.74118" lon="2.02978">
        <ele>1899.22</ele>
        <time>2017-02-11T13:36:32Z</time>
      </trkpt>
      <trkpt lat="42.74116" lon="2.02975">
        <ele>1899.22</ele>
        <time>2017-02-11T13:36:35Z</time>
      </trkpt>
      <trkpt lat="42.7411" lon="2.02964">
        <ele>1899.7</ele>
        <time>2017-02-11T13:36:47Z</time>
      </trkpt>
      <trkpt lat="42.74107" lon="2.02958">
        <ele>1900.66</ele>
        <time>2017-02-11T13:36:59Z</time>
      </trkpt>
      <trkpt lat="42.74105" lon="2.02954">
        <ele>1902.11</ele>
        <time>2017-02-11T13:37:11Z</time>
      </trkpt>
      <trkpt lat="42.74104" lon="2.02951">
        <ele>1901.63</ele>
        <time>2017-02-11T13:37:21Z</time>
      </trkpt>
      <trkpt lat="42.74098" lon="2.02935">
        <ele>1903.07</ele>
        <time>2017-02-11T13:37:35Z</time>
      </trkpt>
      <trkpt lat="42.74092" lon="2.02921">
        <ele>1903.07</ele>
        <time>2017-02-11T13:37:46Z</time>
      </trkpt>
      <trkpt lat="42.74088" lon="2.02908">
        <ele>1903.55</ele>
        <time>2017-02-11T13:37:56Z</time>
      </trkpt>
      <trkpt lat="42.74083" lon="2.02892">
        <ele>1904.03</ele>
        <time>2017-02-11T13:38:09Z</time>
      </trkpt>
      <trkpt lat="42.74078" lon="2.02881">
        <ele>1903.55</ele>
        <time>2017-02-11T13:38:19Z</time>
      </trkpt>
      <trkpt lat="42.74073" lon="2.0287">
        <ele>1903.55</ele>
        <time>2017-02-11T13:38:29Z</time>
      </trkpt>
      <trkpt lat="42.74062" lon="2.02856">
        <ele>1902.59</ele>
        <time>2017-02-11T13:38:44Z</time>
      </trkpt>
      <trkpt lat="42.74059" lon="2.02853">
        <ele>1902.11</ele>
        <time>2017-02-11T13:38:47Z</time>
      </trkpt>
      <trkpt lat="42.74055" lon="2.02848">
        <ele>1900.18</ele>
        <time>2017-02-11T13:38:52Z</time>
      </trkpt>
      <trkpt lat="42.7404" lon="2.0283">
        <ele>1896.34</ele>
        <time>2017-02-11T13:39:05Z</time>
      </trkpt>
      <trkpt lat="42.74028" lon="2.02819">
        <ele>1894.9</ele>
        <time>2017-02-11T13:39:14Z</time>
      </trkpt>
      <trkpt lat="42.74014" lon="2.02803">
        <ele>1891.53</ele>
        <time>2017-02-11T13:39:25Z</time>
      </trkpt>
      <trkpt lat="42.74004" lon="2.02791">
        <ele>1891.53</ele>
        <time>2017-02-11T13:39:38Z</time>
      </trkpt>
      <trkpt lat="42.74003" lon="2.0279">
        <ele>1891.53</ele>
        <time>2017-02-11T13:39:39Z</time>
      </trkpt>
      <trkpt lat="42.73994" lon="2.02782">
        <ele>1892.01</ele>
        <time>2017-02-11T13:39:50Z</time>
      </trkpt>
      <trkpt lat="42.73986" lon="2.02775">
        <ele>1891.53</ele>
        <time>2017-02-11T13:40:00Z</time>
      </trkpt>
      <trkpt lat="42.73981" lon="2.02768">
        <ele>1891.53</ele>
        <time>2017-02-11T13:40:08Z</time>
      </trkpt>
      <trkpt lat="42.73973" lon="2.02762">
        <ele>1891.05</ele>
        <time>2017-02-11T13:40:18Z</time>
      </trkpt>
      <trkpt lat="42.73967" lon="2.02758">
        <ele>1891.53</ele>
        <time>2017-02-11T13:40:35Z</time>
      </trkpt>
      <trkpt lat="42.73965" lon="2.02758">
        <ele>1892.01</ele>
        <time>2017-02-11T13:40:43Z</time>
      </trkpt>
      <trkpt lat="42.73961" lon="2.02753">
        <ele>1892.49</ele>
        <time>2017-02-11T13:40:57Z</time>
      </trkpt>
      <trkpt lat="42.73958" lon="2.02751">
        <ele>1892.49</ele>
        <time>2017-02-11T13:41:18Z</time>
      </trkpt>
      <trkpt lat="42.73953" lon="2.02746">
        <ele>1892.97</ele>
        <time>2017-02-11T13:41:34Z</time>
      </trkpt>
      <trkpt lat="42.73946" lon="2.02741">
        <ele>1893.93</ele>
        <time>2017-02-11T13:41:48Z</time>
      </trkpt>
      <trkpt lat="42.73937" lon="2.02733">
        <ele>1893.45</ele>
        <time>2017-02-11T13:42:00Z</time>
      </trkpt>
      <trkpt lat="42.73931" lon="2.02728">
        <ele>1892.97</ele>
        <time>2017-02-11T13:42:09Z</time>
      </trkpt>
      <trkpt lat="42.73924" lon="2.02723">
        <ele>1892.97</ele>
        <time>2017-02-11T13:42:18Z</time>
      </trkpt>
      <trkpt lat="42.73918" lon="2.02719">
        <ele>1892.49</ele>
        <time>2017-02-11T13:42:26Z</time>
      </trkpt>
      <trkpt lat="42.73908" lon="2.0271">
        <ele>1893.45</ele>
        <time>2017-02-11T13:42:41Z</time>
      </trkpt>
      <trkpt lat="42.73904" lon="2.02706">
        <ele>1892.97</ele>
        <time>2017-02-11T13:42:46Z</time>
      </trkpt>
      <trkpt lat="42.73894" lon="2.02698">
        <ele>1893.45</ele>
        <time>2017-02-11T13:42:59Z</time>
      </trkpt>
      <trkpt lat="42.73884" lon="2.02691">
        <ele>1892.97</ele>
        <time>2017-02-11T13:43:12Z</time>
      </trkpt>
      <trkpt lat="42.73875" lon="2.02686">
        <ele>1893.45</ele>
        <time>2017-02-11T13:43:26Z</time>
      </trkpt>
      <trkpt lat="42.73873" lon="2.02686">
        <ele>1893.45</ele>
        <time>2017-02-11T13:43:28Z</time>
      </trkpt>
      <trkpt lat="42.73868" lon="2.02681">
        <ele>1892.97</ele>
        <time>2017-02-11T13:43:40Z</time>
      </trkpt>
      <trkpt lat="42.73859" lon="2.02678">
        <ele>1892.49</ele>
        <time>2017-02-11T13:43:50Z</time>
      </trkpt>
      <trkpt lat="42.73856" lon="2.02675">
        <ele>1893.45</ele>
        <time>2017-02-11T13:44:02Z</time>
      </trkpt>
      <trkpt lat="42.73848" lon="2.02668">
        <ele>1894.9</ele>
        <time>2017-02-11T13:44:15Z</time>
      </trkpt>
      <trkpt lat="42.73842" lon="2.02662">
        <ele>1895.86</ele>
        <time>2017-02-11T13:44:27Z</time>
      </trkpt>
      <trkpt lat="42.73838" lon="2.02659">
        <ele>1896.34</ele>
        <time>2017-02-11T13:44:33Z</time>
      </trkpt>
      <trkpt lat="42.73831" lon="2.0265">
        <ele>1897.78</ele>
        <time>2017-02-11T13:44:45Z</time>
      </trkpt>
      <trkpt lat="42.7383" lon="2.02649">
        <ele>1897.78</ele>
        <time>2017-02-11T13:44:46Z</time>
      </trkpt>
      <trkpt lat="42.73824" lon="2.0264">
        <ele>1899.22</ele>
        <time>2017-02-11T13:45:00Z</time>
      </trkpt>
      <trkpt lat="42.73818" lon="2.02633">
        <ele>1901.14</ele>
        <time>2017-02-11T13:45:12Z</time>
      </trkpt>
      <trkpt lat="42.73812" lon="2.02626">
        <ele>1902.59</ele>
        <time>2017-02-11T13:45:25Z</time>
      </trkpt>
      <trkpt lat="42.73809" lon="2.02615">
        <ele>1904.03</ele>
        <time>2017-02-11T13:45:38Z</time>
      </trkpt>
      <trkpt lat="42.73806" lon="2.02606">
        <ele>1905.47</ele>
        <time>2017-02-11T13:45:51Z</time>
      </trkpt>
      <trkpt lat="42.73803" lon="2.02598">
        <ele>1907.39</ele>
        <time>2017-02-11T13:46:04Z</time>
      </trkpt>
      <trkpt lat="42.73801" lon="2.0259">
        <ele>1907.87</ele>
        <time>2017-02-11T13:46:20Z</time>
      </trkpt>
      <trkpt lat="42.73799" lon="2.02583">
        <ele>1909.8</ele>
        <time>2017-02-11T13:46:33Z</time>
      </trkpt>
      <trkpt lat="42.73796" lon="2.02578">
        <ele>1908.83</ele>
        <time>2017-02-11T13:46:45Z</time>
      </trkpt>
      <trkpt lat="42.73795" lon="2.02575">
        <ele>1908.83</ele>
        <time>2017-02-11T13:46:47Z</time>
      </trkpt>
      <trkpt lat="42.73792" lon="2.02563">
        <ele>1908.83</ele>
        <time>2017-02-11T13:46:56Z</time>
      </trkpt>
      <trkpt lat="42.73789" lon="2.02549">
        <ele>1909.32</ele>
        <time>2017-02-11T13:47:09Z</time>
      </trkpt>
      <trkpt lat="42.73787" lon="2.02542">
        <ele>1908.35</ele>
        <time>2017-02-11T13:47:19Z</time>
      </trkpt>
      <trkpt lat="42.73786" lon="2.02532">
        <ele>1909.8</ele>
        <time>2017-02-11T13:47:31Z</time>
      </trkpt>
      <trkpt lat="42.73785" lon="2.02529">
        <ele>1909.8</ele>
        <time>2017-02-11T13:47:35Z</time>
      </trkpt>
      <trkpt lat="42.73785" lon="2.02519">
        <ele>1910.76</ele>
        <time>2017-02-11T13:47:44Z</time>
      </trkpt>
      <trkpt lat="42.73785" lon="2.02512">
        <ele>1911.24</ele>
        <time>2017-02-11T13:47:51Z</time>
      </trkpt>
      <trkpt lat="42.73788" lon="2.02494">
        <ele>1912.2</ele>
        <time>2017-02-11T13:48:06Z</time>
      </trkpt>
      <trkpt lat="42.73793" lon="2.02486">
        <ele>1913.16</ele>
        <time>2017-02-11T13:48:21Z</time>
      </trkpt>
      <trkpt lat="42.73797" lon="2.02478">
        <ele>1913.16</ele>
        <time>2017-02-11T13:48:31Z</time>
      </trkpt>
      <trkpt lat="42.738" lon="2.02474">
        <ele>1913.16</ele>
        <time>2017-02-11T13:48:36Z</time>
      </trkpt>
      <trkpt lat="42.73803" lon="2.0247">
        <ele>1912.68</ele>
        <time>2017-02-11T13:48:42Z</time>
      </trkpt>
      <trkpt lat="42.73805" lon="2.02467">
        <ele>1914.12</ele>
        <time>2017-02-11T13:48:55Z</time>
      </trkpt>
      <trkpt lat="42.73805" lon="2.02465">
        <ele>1914.12</ele>
        <time>2017-02-11T13:49:14Z</time>
      </trkpt>
      <trkpt lat="42.73805" lon="2.02466">
        <ele>1913.16</ele>
        <time>2017-02-11T13:49:26Z</time>
      </trkpt>
      <trkpt lat="42.73804" lon="2.02464">
        <ele>1912.68</ele>
        <time>2017-02-11T13:49:46Z</time>
      </trkpt>
      <trkpt lat="42.73804" lon="2.02469">
        <ele>1914.12</ele>
        <time>2017-02-11T13:50:24Z</time>
      </trkpt>
      <trkpt lat="42.73804" lon="2.02466">
        <ele>1911.72</ele>
        <time>2017-02-11T13:51:00Z</time>
      </trkpt>
      <trkpt lat="42.73805" lon="2.02464">
        <ele>1911.72</ele>
        <time>2017-02-11T13:51:51Z</time>
      </trkpt>
      <trkpt lat="42.73805" lon="2.02466">
        <ele>1915.08</ele>
        <time>2017-02-11T13:52:34Z</time>
      </trkpt>
      <trkpt lat="42.73805" lon="2.02468">
        <ele>1916.04</ele>
        <time>2017-02-11T13:53:03Z</time>
      </trkpt>
      <trkpt lat="42.73803" lon="2.02463">
        <ele>1916.53</ele>
        <time>2017-02-11T13:53:37Z</time>
      </trkpt>
      <trkpt lat="42.73804" lon="2.02466">
        <ele>1916.53</ele>
        <time>2017-02-11T13:53:59Z</time>
      </trkpt>
      <trkpt lat="42.73805" lon="2.02466">
        <ele>1916.04</ele>
        <time>2017-02-11T13:54:19Z</time>
      </trkpt>
      <trkpt lat="42.73804" lon="2.02465">
        <ele>1914.12</ele>
        <time>2017-02-11T13:55:06Z</time>
      </trkpt>
      <trkpt lat="42.73805" lon="2.02465">
        <ele>1914.12</ele>
        <time>2017-02-11T13:55:31Z</time>
      </trkpt>
      <trkpt lat="42.73805" lon="2.02465">
        <ele>1914.12</ele>
        <time>2017-02-11T13:55:41Z</time>
      </trkpt>
      <trkpt lat="42.73806" lon="2.02465">
        <ele>1914.6</ele>
        <time>2017-02-11T13:55:49Z</time>
      </trkpt>
      <trkpt lat="42.73808" lon="2.02457">
        <ele>1915.08</ele>
        <time>2017-02-11T13:55:55Z</time>
      </trkpt>
      <trkpt lat="42.73809" lon="2.02453">
        <ele>1915.08</ele>
        <time>2017-02-11T13:55:58Z</time>
      </trkpt>
      <trkpt lat="42.73811" lon="2.02448">
        <ele>1915.08</ele>
        <time>2017-02-11T13:56:03Z</time>
      </trkpt>
      <trkpt lat="42.73817" lon="2.02434">
        <ele>1913.64</ele>
        <time>2017-02-11T13:56:17Z</time>
      </trkpt>
      <trkpt lat="42.73816" lon="2.02425">
        <ele>1911.72</ele>
        <time>2017-02-11T13:56:29Z</time>
      </trkpt>
      <trkpt lat="42.73812" lon="2.0242">
        <ele>1909.8</ele>
        <time>2017-02-11T13:56:39Z</time>
      </trkpt>
      <trkpt lat="42.73812" lon="2.02419">
        <ele>1909.8</ele>
        <time>2017-02-11T13:56:50Z</time>
      </trkpt>
      <trkpt lat="42.73812" lon="2.0242">
        <ele>1908.83</ele>
        <time>2017-02-11T13:57:01Z</time>
      </trkpt>
      <trkpt lat="42.73812" lon="2.02419">
        <ele>1910.28</ele>
        <time>2017-02-11T13:57:18Z</time>
      </trkpt>
      <trkpt lat="42.73813" lon="2.02418">
        <ele>1909.32</ele>
        <time>2017-02-11T13:57:37Z</time>
      </trkpt>
      <trkpt lat="42.73813" lon="2.02418">
        <ele>1909.32</ele>
        <time>2017-02-11T13:57:49Z</time>
      </trkpt>
      <trkpt lat="42.73813" lon="2.02419">
        <ele>1910.76</ele>
        <time>2017-02-11T13:58:07Z</time>
      </trkpt>
      <trkpt lat="42.73813" lon="2.02416">
        <ele>1908.35</ele>
        <time>2017-02-11T13:58:19Z</time>
      </trkpt>
      <trkpt lat="42.73813" lon="2.02416">
        <ele>1908.83</ele>
        <time>2017-02-11T13:58:27Z</time>
      </trkpt>
      <trkpt lat="42.73815" lon="2.02417">
        <ele>1906.43</ele>
        <time>2017-02-11T13:58:42Z</time>
      </trkpt>
      <trkpt lat="42.73814" lon="2.02418">
        <ele>1907.39</ele>
        <time>2017-02-11T13:59:15Z</time>
      </trkpt>
      <trkpt lat="42.73814" lon="2.02417">
        <ele>1908.35</ele>
        <time>2017-02-11T13:59:46Z</time>
      </trkpt>
      <trkpt lat="42.73812" lon="2.02419">
        <ele>1912.2</ele>
        <time>2017-02-11T13:59:56Z</time>
      </trkpt>
      <trkpt lat="42.73813" lon="2.02416">
        <ele>1910.28</ele>
        <time>2017-02-11T14:00:06Z</time>
      </trkpt>
      <trkpt lat="42.73814" lon="2.02411">
        <ele>1909.8</ele>
        <time>2017-02-11T14:00:20Z</time>
      </trkpt>
      <trkpt lat="42.73816" lon="2.024">
        <ele>1908.83</ele>
        <time>2017-02-11T14:00:30Z</time>
      </trkpt>
      <trkpt lat="42.73817" lon="2.02387">
        <ele>1907.39</ele>
        <time>2017-02-11T14:00:41Z</time>
      </trkpt>
      <trkpt lat="42.73816" lon="2.02385">
        <ele>1907.87</ele>
        <time>2017-02-11T14:00:47Z</time>
      </trkpt>
      <trkpt lat="42.73815" lon="2.02384">
        <ele>1907.39</ele>
        <time>2017-02-11T14:00:48Z</time>
      </trkpt>
      <trkpt lat="42.73808" lon="2.02374">
        <ele>1904.99</ele>
        <time>2017-02-11T14:00:52Z</time>
      </trkpt>
      <trkpt lat="42.73805" lon="2.02341">
        <ele>1900.66</ele>
        <time>2017-02-11T14:00:59Z</time>
      </trkpt>
      <trkpt lat="42.73791" lon="2.02335">
        <ele>1894.42</ele>
        <time>2017-02-11T14:01:03Z</time>
      </trkpt>
      <trkpt lat="42.73786" lon="2.02315">
        <ele>1888.65</ele>
        <time>2017-02-11T14:01:08Z</time>
      </trkpt>
      <trkpt lat="42.73785" lon="2.02307">
        <ele>1887.69</ele>
        <time>2017-02-11T14:01:10Z</time>
      </trkpt>
      <trkpt lat="42.73768" lon="2.023">
        <ele>1880.48</ele>
        <time>2017-02-11T14:01:15Z</time>
      </trkpt>
      <trkpt lat="42.73748" lon="2.02299">
        <ele>1872.79</ele>
        <time>2017-02-11T14:01:20Z</time>
      </trkpt>
      <trkpt lat="42.73742" lon="2.02284">
        <ele>1867.5</ele>
        <time>2017-02-11T14:01:25Z</time>
      </trkpt>
      <trkpt lat="42.73737" lon="2.02287">
        <ele>1866.06</ele>
        <time>2017-02-11T14:01:34Z</time>
      </trkpt>
      <trkpt lat="42.73713" lon="2.02292">
        <ele>1857.89</ele>
        <time>2017-02-11T14:01:41Z</time>
      </trkpt>
      <trkpt lat="42.7371" lon="2.0229">
        <ele>1856.44</ele>
        <time>2017-02-11T14:01:42Z</time>
      </trkpt>
      <trkpt lat="42.73697" lon="2.02271">
        <ele>1848.75</ele>
        <time>2017-02-11T14:01:49Z</time>
      </trkpt>
      <trkpt lat="42.73698" lon="2.02265">
        <ele>1847.31</ele>
        <time>2017-02-11T14:01:56Z</time>
      </trkpt>
      <trkpt lat="42.73698" lon="2.02264">
        <ele>1847.31</ele>
        <time>2017-02-11T14:02:01Z</time>
      </trkpt>
      <trkpt lat="42.73697" lon="2.02242">
        <ele>1844.43</ele>
        <time>2017-02-11T14:02:07Z</time>
      </trkpt>
      <trkpt lat="42.73696" lon="2.02228">
        <ele>1842.5</ele>
        <time>2017-02-11T14:02:09Z</time>
      </trkpt>
      <trkpt lat="42.73701" lon="2.02188">
        <ele>1837.7</ele>
        <time>2017-02-11T14:02:17Z</time>
      </trkpt>
      <trkpt lat="42.73701" lon="2.02188">
        <ele>1837.7</ele>
        <time>2017-02-11T14:02:34Z</time>
      </trkpt>
      <trkpt lat="42.73702" lon="2.0216">
        <ele>1833.85</ele>
        <time>2017-02-11T14:02:42Z</time>
      </trkpt>
      <trkpt lat="42.7368" lon="2.02148">
        <ele>1825.2</ele>
        <time>2017-02-11T14:02:48Z</time>
      </trkpt>
      <trkpt lat="42.73664" lon="2.02142">
        <ele>1818.47</ele>
        <time>2017-02-11T14:02:53Z</time>
      </trkpt>
      <trkpt lat="42.73658" lon="2.02119">
        <ele>1812.7</ele>
        <time>2017-02-11T14:02:58Z</time>
      </trkpt>
      <trkpt lat="42.7364" lon="2.02096">
        <ele>1800.21</ele>
        <time>2017-02-11T14:03:04Z</time>
      </trkpt>
      <trkpt lat="42.73632" lon="2.02071">
        <ele>1792.03</ele>
        <time>2017-02-11T14:03:11Z</time>
      </trkpt>
      <trkpt lat="42.73632" lon="2.02074">
        <ele>1791.55</ele>
        <time>2017-02-11T14:03:26Z</time>
      </trkpt>
      <trkpt lat="42.73632" lon="2.02073">
        <ele>1793</ele>
        <time>2017-02-11T14:03:44Z</time>
      </trkpt>
      <trkpt lat="42.73632" lon="2.02073">
        <ele>1793.96</ele>
        <time>2017-02-11T14:04:13Z</time>
      </trkpt>
      <trkpt lat="42.73617" lon="2.02073">
        <ele>1787.71</ele>
        <time>2017-02-11T14:04:19Z</time>
      </trkpt>
      <trkpt lat="42.73611" lon="2.02058">
        <ele>1781.94</ele>
        <time>2017-02-11T14:04:24Z</time>
      </trkpt>
      <trkpt lat="42.73601" lon="2.02044">
        <ele>1774.73</ele>
        <time>2017-02-11T14:04:29Z</time>
      </trkpt>
      <trkpt lat="42.73591" lon="2.02035">
        <ele>1766.56</ele>
        <time>2017-02-11T14:04:34Z</time>
      </trkpt>
      <trkpt lat="42.73577" lon="2.02049">
        <ele>1762.71</ele>
        <time>2017-02-11T14:04:41Z</time>
      </trkpt>
      <trkpt lat="42.73569" lon="2.02044">
        <ele>1755.5</ele>
        <time>2017-02-11T14:04:46Z</time>
      </trkpt>
      <trkpt lat="42.73569" lon="2.02034">
        <ele>1752.62</ele>
        <time>2017-02-11T14:04:49Z</time>
      </trkpt>
      <trkpt lat="42.73558" lon="2.02012">
        <ele>1742.05</ele>
        <time>2017-02-11T14:04:56Z</time>
      </trkpt>
      <trkpt lat="42.73556" lon="2.02">
        <ele>1735.32</ele>
        <time>2017-02-11T14:05:03Z</time>
      </trkpt>
      <trkpt lat="42.73556" lon="2.02001">
        <ele>1737.72</ele>
        <time>2017-02-11T14:05:20Z</time>
      </trkpt>
      <trkpt lat="42.73553" lon="2.02">
        <ele>1736.28</ele>
        <time>2017-02-11T14:05:32Z</time>
      </trkpt>
      <trkpt lat="42.73551" lon="2.02001">
        <ele>1735.8</ele>
        <time>2017-02-11T14:05:33Z</time>
      </trkpt>
      <trkpt lat="42.73548" lon="2.01995">
        <ele>1732.91</ele>
        <time>2017-02-11T14:05:36Z</time>
      </trkpt>
      <trkpt lat="42.73539" lon="2.01983">
        <ele>1726.67</ele>
        <time>2017-02-11T14:05:41Z</time>
      </trkpt>
      <trkpt lat="42.73533" lon="2.01984">
        <ele>1723.3</ele>
        <time>2017-02-11T14:05:44Z</time>
      </trkpt>
      <trkpt lat="42.73525" lon="2.01978">
        <ele>1718.49</ele>
        <time>2017-02-11T14:05:47Z</time>
      </trkpt>
      <trkpt lat="42.73517" lon="2.01963">
        <ele>1707.44</ele>
        <time>2017-02-11T14:05:51Z</time>
      </trkpt>
      <trkpt lat="42.73496" lon="2.01958">
        <ele>1696.86</ele>
        <time>2017-02-11T14:05:56Z</time>
      </trkpt>
      <trkpt lat="42.73476" lon="2.01964">
        <ele>1688.21</ele>
        <time>2017-02-11T14:06:01Z</time>
      </trkpt>
      <trkpt lat="42.73475" lon="2.01949">
        <ele>1687.25</ele>
        <time>2017-02-11T14:06:05Z</time>
      </trkpt>
      <trkpt lat="42.73473" lon="2.01944">
        <ele>1687.25</ele>
        <time>2017-02-11T14:06:08Z</time>
      </trkpt>
      <trkpt lat="42.73472" lon="2.01942">
        <ele>1688.21</ele>
        <time>2017-02-11T14:06:20Z</time>
      </trkpt>
      <trkpt lat="42.73472" lon="2.01942">
        <ele>1688.21</ele>
        <time>2017-02-11T14:06:33Z</time>
      </trkpt>
      <trkpt lat="42.73471" lon="2.01941">
        <ele>1688.69</ele>
        <time>2017-02-11T14:06:46Z</time>
      </trkpt>
      <trkpt lat="42.7347" lon="2.01942">
        <ele>1693.5</ele>
        <time>2017-02-11T14:07:17Z</time>
      </trkpt>
      <trkpt lat="42.7347" lon="2.01942">
        <ele>1694.94</ele>
        <time>2017-02-11T14:07:52Z</time>
      </trkpt>
      <trkpt lat="42.73471" lon="2.01942">
        <ele>1693.5</ele>
        <time>2017-02-11T14:08:13Z</time>
      </trkpt>
      <trkpt lat="42.7347" lon="2.01942">
        <ele>1693.5</ele>
        <time>2017-02-11T14:08:30Z</time>
      </trkpt>
      <trkpt lat="42.73456" lon="2.01952">
        <ele>1690.14</ele>
        <time>2017-02-11T14:08:38Z</time>
      </trkpt>
      <trkpt lat="42.73456" lon="2.01952">
        <ele>1690.14</ele>
        <time>2017-02-11T14:08:46Z</time>
      </trkpt>
      <trkpt lat="42.73455" lon="2.01952">
        <ele>1689.17</ele>
        <time>2017-02-11T14:09:01Z</time>
      </trkpt>
      <trkpt lat="42.73456" lon="2.01951">
        <ele>1689.17</ele>
        <time>2017-02-11T14:09:27Z</time>
      </trkpt>
      <trkpt lat="42.73455" lon="2.01952">
        <ele>1690.14</ele>
        <time>2017-02-11T14:09:53Z</time>
      </trkpt>
      <trkpt lat="42.73456" lon="2.01952">
        <ele>1689.65</ele>
        <time>2017-02-11T14:10:07Z</time>
      </trkpt>
      <trkpt lat="42.73456" lon="2.01952">
        <ele>1689.65</ele>
        <time>2017-02-11T14:10:27Z</time>
      </trkpt>
      <trkpt lat="42.73455" lon="2.01952">
        <ele>1689.65</ele>
        <time>2017-02-11T14:10:40Z</time>
      </trkpt>
      <trkpt lat="42.73456" lon="2.01952">
        <ele>1689.65</ele>
        <time>2017-02-11T14:11:02Z</time>
      </trkpt>
      <trkpt lat="42.73455" lon="2.01952">
        <ele>1690.62</ele>
        <time>2017-02-11T14:11:26Z</time>
      </trkpt>
      <trkpt lat="42.73455" lon="2.01955">
        <ele>1690.14</ele>
        <time>2017-02-11T14:11:31Z</time>
      </trkpt>
      <trkpt lat="42.73443" lon="2.01948">
        <ele>1685.81</ele>
        <time>2017-02-11T14:11:37Z</time>
      </trkpt>
      <trkpt lat="42.73429" lon="2.0195">
        <ele>1680.04</ele>
        <time>2017-02-11T14:11:42Z</time>
      </trkpt>
      <trkpt lat="42.73408" lon="2.01952">
        <ele>1671.87</ele>
        <time>2017-02-11T14:11:47Z</time>
      </trkpt>
      <trkpt lat="42.7339" lon="2.01956">
        <ele>1666.1</ele>
        <time>2017-02-11T14:11:50Z</time>
      </trkpt>
      <trkpt lat="42.7335" lon="2.01959">
        <ele>1654.57</ele>
        <time>2017-02-11T14:11:55Z</time>
      </trkpt>
      <trkpt lat="42.73261" lon="2.02005">
        <ele>1640.15</ele>
        <time>2017-02-11T14:12:07Z</time>
      </trkpt>
      <trkpt lat="42.73255" lon="2.02005">
        <ele>1639.19</ele>
        <time>2017-02-11T14:12:08Z</time>
      </trkpt>
      <trkpt lat="42.7323" lon="2.02004">
        <ele>1637.74</ele>
        <time>2017-02-11T14:12:16Z</time>
      </trkpt>
      <trkpt lat="42.73231" lon="2.02005">
        <ele>1639.67</ele>
        <time>2017-02-11T14:12:44Z</time>
      </trkpt>
      <trkpt lat="42.73229" lon="2.02005">
        <ele>1638.22</ele>
        <time>2017-02-11T14:12:59Z</time>
      </trkpt>
      <trkpt lat="42.73231" lon="2.02005">
        <ele>1637.74</ele>
        <time>2017-02-11T14:13:09Z</time>
      </trkpt>
      <trkpt lat="42.73232" lon="2.02005">
        <ele>1638.22</ele>
        <time>2017-02-11T14:13:10Z</time>
      </trkpt>
      <trkpt lat="42.73232" lon="2.02006">
        <ele>1637.26</ele>
        <time>2017-02-11T14:13:21Z</time>
      </trkpt>
      <trkpt lat="42.73232" lon="2.02005">
        <ele>1636.78</ele>
        <time>2017-02-11T14:13:33Z</time>
      </trkpt>
      <trkpt lat="42.73233" lon="2.02004">
        <ele>1637.74</ele>
        <time>2017-02-11T14:13:56Z</time>
      </trkpt>
      <trkpt lat="42.7323" lon="2.02006">
        <ele>1637.74</ele>
        <time>2017-02-11T14:14:11Z</time>
      </trkpt>
      <trkpt lat="42.73228" lon="2.02008">
        <ele>1637.26</ele>
        <time>2017-02-11T14:14:21Z</time>
      </trkpt>
      <trkpt lat="42.73226" lon="2.02008">
        <ele>1637.26</ele>
        <time>2017-02-11T14:14:37Z</time>
      </trkpt>
      <trkpt lat="42.73229" lon="2.02007">
        <ele>1636.3</ele>
        <time>2017-02-11T14:15:12Z</time>
      </trkpt>
      <trkpt lat="42.73229" lon="2.02007">
        <ele>1635.82</ele>
        <time>2017-02-11T14:15:27Z</time>
      </trkpt>
      <trkpt lat="42.7323" lon="2.02006">
        <ele>1636.3</ele>
        <time>2017-02-11T14:15:43Z</time>
      </trkpt>
      <trkpt lat="42.73228" lon="2.02008">
        <ele>1636.78</ele>
        <time>2017-02-11T14:15:59Z</time>
      </trkpt>
      <trkpt lat="42.73228" lon="2.02008">
        <ele>1637.26</ele>
        <time>2017-02-11T14:16:12Z</time>
      </trkpt>
      <trkpt lat="42.73227" lon="2.02009">
        <ele>1637.26</ele>
        <time>2017-02-11T14:16:22Z</time>
      </trkpt>
      <trkpt lat="42.73216" lon="2.02039">
        <ele>1631.49</ele>
        <time>2017-02-11T14:16:29Z</time>
      </trkpt>
      <trkpt lat="42.73206" lon="2.0206">
        <ele>1626.21</ele>
        <time>2017-02-11T14:16:32Z</time>
      </trkpt>
      <trkpt lat="42.73197" lon="2.02072">
        <ele>1623.8</ele>
        <time>2017-02-11T14:16:34Z</time>
      </trkpt>
      <trkpt lat="42.73167" lon="2.02109">
        <ele>1615.63</ele>
        <time>2017-02-11T14:16:41Z</time>
      </trkpt>
      <trkpt lat="42.73159" lon="2.0212">
        <ele>1613.71</ele>
        <time>2017-02-11T14:16:43Z</time>
      </trkpt>
      <trkpt lat="42.73151" lon="2.02142">
        <ele>1610.83</ele>
        <time>2017-02-11T14:16:46Z</time>
      </trkpt>
      <trkpt lat="42.73143" lon="2.02148">
        <ele>1608.9</ele>
        <time>2017-02-11T14:16:52Z</time>
      </trkpt>
      <trkpt lat="42.73143" lon="2.02146">
        <ele>1610.35</ele>
        <time>2017-02-11T14:17:16Z</time>
      </trkpt>
      <trkpt lat="42.73144" lon="2.02147">
        <ele>1610.83</ele>
        <time>2017-02-11T14:17:28Z</time>
      </trkpt>
      <trkpt lat="42.7314" lon="2.02145">
        <ele>1610.83</ele>
        <time>2017-02-11T14:17:41Z</time>
      </trkpt>
      <trkpt lat="42.73139" lon="2.02145">
        <ele>1610.83</ele>
        <time>2017-02-11T14:17:42Z</time>
      </trkpt>
      <trkpt lat="42.73123" lon="2.02156">
        <ele>1609.86</ele>
        <time>2017-02-11T14:17:52Z</time>
      </trkpt>
      <trkpt lat="42.731" lon="2.02149">
        <ele>1606.02</ele>
        <time>2017-02-11T14:17:58Z</time>
      </trkpt>
      <trkpt lat="42.73092" lon="2.02149">
        <ele>1604.58</ele>
        <time>2017-02-11T14:18:00Z</time>
      </trkpt>
      <trkpt lat="42.73082" lon="2.0215">
        <ele>1604.1</ele>
        <time>2017-02-11T14:18:02Z</time>
      </trkpt>
      <trkpt lat="42.73069" lon="2.02143">
        <ele>1603.14</ele>
        <time>2017-02-11T14:18:07Z</time>
      </trkpt>
      <trkpt lat="42.73064" lon="2.02139">
        <ele>1601.69</ele>
        <time>2017-02-11T14:18:11Z</time>
      </trkpt>
      <trkpt lat="42.73062" lon="2.0214">
        <ele>1598.33</ele>
        <time>2017-02-11T14:18:22Z</time>
      </trkpt>
      <trkpt lat="42.73048" lon="2.02145">
        <ele>1595.45</ele>
        <time>2017-02-11T14:18:29Z</time>
      </trkpt>
      <trkpt lat="42.73035" lon="2.02152">
        <ele>1591.12</ele>
        <time>2017-02-11T14:18:34Z</time>
      </trkpt>
      <trkpt lat="42.73032" lon="2.02149">
        <ele>1589.68</ele>
        <time>2017-02-11T14:18:35Z</time>
      </trkpt>
      <trkpt lat="42.7301" lon="2.02141">
        <ele>1579.1</ele>
        <time>2017-02-11T14:18:41Z</time>
      </trkpt>
      <trkpt lat="42.72999" lon="2.02146">
        <ele>1572.85</ele>
        <time>2017-02-11T14:18:45Z</time>
      </trkpt>
      <trkpt lat="42.72999" lon="2.02155">
        <ele>1569.49</ele>
        <time>2017-02-11T14:18:54Z</time>
      </trkpt>
      <trkpt lat="42.73" lon="2.02165">
        <ele>1565.64</ele>
        <time>2017-02-11T14:18:58Z</time>
      </trkpt>
      <trkpt lat="42.73" lon="2.02169">
        <ele>1563.24</ele>
        <time>2017-02-11T14:19:03Z</time>
      </trkpt>
      <trkpt lat="42.72993" lon="2.02171">
        <ele>1561.8</ele>
        <time>2017-02-11T14:19:09Z</time>
      </trkpt>
      <trkpt lat="42.72981" lon="2.02145">
        <ele>1556.51</ele>
        <time>2017-02-11T14:19:16Z</time>
      </trkpt>
      <trkpt lat="42.72974" lon="2.0214">
        <ele>1552.67</ele>
        <time>2017-02-11T14:19:24Z</time>
      </trkpt>
      <trkpt lat="42.72967" lon="2.02138">
        <ele>1551.71</ele>
        <time>2017-02-11T14:19:26Z</time>
      </trkpt>
      <trkpt lat="42.7296" lon="2.02133">
        <ele>1547.38</ele>
        <time>2017-02-11T14:19:33Z</time>
      </trkpt>
      <trkpt lat="42.72946" lon="2.02126">
        <ele>1538.25</ele>
        <time>2017-02-11T14:19:39Z</time>
      </trkpt>
      <trkpt lat="42.72946" lon="2.02123">
        <ele>1538.25</ele>
        <time>2017-02-11T14:19:42Z</time>
      </trkpt>
      <trkpt lat="42.7293" lon="2.02123">
        <ele>1532.96</ele>
        <time>2017-02-11T14:19:46Z</time>
      </trkpt>
      <trkpt lat="42.72925" lon="2.02128">
        <ele>1531.04</ele>
        <time>2017-02-11T14:19:47Z</time>
      </trkpt>
      <trkpt lat="42.7292" lon="2.02132">
        <ele>1530.08</ele>
        <time>2017-02-11T14:19:48Z</time>
      </trkpt>
      <trkpt lat="42.72909" lon="2.02127">
        <ele>1526.71</ele>
        <time>2017-02-11T14:19:51Z</time>
      </trkpt>
      <trkpt lat="42.72909" lon="2.02121">
        <ele>1526.23</ele>
        <time>2017-02-11T14:19:52Z</time>
      </trkpt>
      <trkpt lat="42.72909" lon="2.02116">
        <ele>1525.75</ele>
        <time>2017-02-11T14:19:53Z</time>
      </trkpt>
      <trkpt lat="42.7291" lon="2.02111">
        <ele>1525.27</ele>
        <time>2017-02-11T14:19:54Z</time>
      </trkpt>
      <trkpt lat="42.72901" lon="2.02035">
        <ele>1520.94</ele>
        <time>2017-02-11T14:20:06Z</time>
      </trkpt>
      <trkpt lat="42.72892" lon="2.02017">
        <ele>1519.5</ele>
        <time>2017-02-11T14:20:14Z</time>
      </trkpt>
      <trkpt lat="42.72891" lon="2.02013">
        <ele>1519.5</ele>
        <time>2017-02-11T14:20:23Z</time>
      </trkpt>
      <trkpt lat="42.72891" lon="2.02013">
        <ele>1519.5</ele>
        <time>2017-02-11T14:20:39Z</time>
      </trkpt>
      <trkpt lat="42.72891" lon="2.02013">
        <ele>1520.46</ele>
        <time>2017-02-11T14:20:55Z</time>
      </trkpt>
      <trkpt lat="42.7289" lon="2.02012">
        <ele>1520.46</ele>
        <time>2017-02-11T14:21:08Z</time>
      </trkpt>
      <trkpt lat="42.72891" lon="2.02014">
        <ele>1519.98</ele>
        <time>2017-02-11T14:21:23Z</time>
      </trkpt>
      <trkpt lat="42.72891" lon="2.02012">
        <ele>1520.46</ele>
        <time>2017-02-11T14:21:38Z</time>
      </trkpt>
      <trkpt lat="42.72892" lon="2.02012">
        <ele>1519.98</ele>
        <time>2017-02-11T14:21:53Z</time>
      </trkpt>
      <trkpt lat="42.72891" lon="2.02011">
        <ele>1521.42</ele>
        <time>2017-02-11T14:22:24Z</time>
      </trkpt>
    </trkseg>
  </trk>
</gpx>